U26995 / G-EZDF 7700 Squawk Report (13th of December, 2018)

Aircraft A319 Reg No. G-EZDF Age 10 years old
Model A319 Jet engines 2 First flight 05-03-08
Registered 13-03-08 Rollout 02-08 Delivered 13-03-08
Construction No. 3432 Line No. N/A Series 111
ADSHEX 405635 Airline name easyJet Owner N/A
Airfield based Luton~Beds~G First tracked 2017-07-13 09:09:00

Flight history for G-EZDF

Route Flight No Date Playback
EuroAirport Basel Mulhouse Freiburg (BSL) - Tegel (TXL) U25636 2019-01-19 14:38:00
Tegel (TXL) - EuroAirport Basel Mulhouse Freiburg (BSL) U25633 2019-01-19 12:42:00
Schwechat (VIE) - Tegel (TXL) U25840 2019-01-19 11:27:00
Tegel (TXL) - Schwechat (VIE) U25839 2019-01-18 21:59:00
Schwechat (VIE) - Tegel (TXL) U25848 2019-01-18 21:00:00
Tegel (TXL) - Schwechat (VIE) U25847 2019-01-18 17:35:00
Malpensa (MXP) - Tegel (TXL) U25884 2019-01-18 15:26:00
Schiphol (AMS) - Malpensa (MXP) U22726 2019-01-16 14:25:00
Malpensa (MXP) - Schiphol (AMS) U22725 2019-01-16 12:27:00
Son Sant Joan (PMI) - Malpensa (MXP) U22748 2019-01-15 21:27:00
Malpensa (MXP) - Son Sant Joan (PMI) U22747 2019-01-15 20:01:00
Kastrup (CPH) - Malpensa (MXP) U22656 2019-01-13 20:22:00
Malpensa (MXP) - Kastrup (CPH) U22655 2019-01-13 18:44:00
Schiphol (AMS) - Malpensa (MXP) U22726 2019-01-13 14:30:00
Malpensa (MXP) - Schiphol (AMS) U22725 2019-01-13 12:39:00
Charles De Gaulle (CDG) - Malpensa (MXP) U22788 2019-01-11 17:40:00
Malpensa (MXP) - Charles De Gaulle (CDG) U22785 2019-01-11 15:30:00
Schonefeld (SXF) - Malpensa (MXP) U24671 2019-01-11 08:43:00
Schiphol (AMS) - Schonefeld (SXF) U24568 2019-01-10 21:01:00
Schonefeld (SXF) - Schiphol (AMS) U24567 2019-01-10 19:46:00
Time Lat Lon Altitude Heading Speed Vertical Rate
2018-12-13 19:31:55 GMT 40.449238 -3.539845 2,325 323 128 -640
2018-12-13 19:31:48 GMT 40.445702 -3.536224 2,425 323 125 -704
2018-12-13 19:31:42 GMT 40.442535 -3.533041 2,500 323 126 -576
2018-12-13 19:31:37 GMT 40.440674 -3.531106 2,550 323 126 -832
2018-12-13 19:31:31 GMT 40.438202 -3.528687 2,600 323 126 -704
2018-12-13 19:31:25 GMT 40.435135 -3.525613 2,675 324 126 -512
2018-12-13 19:31:21 GMT 40.433456 -3.523927 2,725 323 129 -832
2018-12-13 19:31:14 GMT 40.430328 -3.520691 2,800 322 128 -704
2018-12-13 19:31:10 GMT 40.428337 -3.518684 2,850 321 127 -704
2018-12-13 19:31:03 GMT 40.424660 -3.514814 2,950 322 128 -448
2018-12-13 19:30:59 GMT 40.423355 -3.513503 2,950 324 133 -576
2018-12-13 19:30:55 GMT 40.418701 -3.508911 3,100 323 132 -448
2018-12-13 19:30:49 GMT 40.418289 -3.508545 3,100 323 134 -448
2018-12-13 19:30:39 GMT 40.413025 -3.503174 3,225 322 144 -768
2018-12-13 19:30:28 GMT 40.407394 -3.497437 3,350 324 152 -960
2018-12-13 19:30:18 GMT 40.401855 -3.491882 3,500 322 156 -896
2018-12-13 19:30:08 GMT 40.395939 -3.485850 3,650 322 158 -768
2018-12-13 19:29:57 GMT 40.389862 -3.479553 3,825 322 152 -896
2018-12-13 19:29:47 GMT 40.384254 -3.473927 3,950 324 145 -832
2018-12-13 19:29:35 GMT 40.377735 -3.467435 4,100 323 143 -896
2018-12-13 19:29:28 GMT 40.373962 -3.463565 4,200 323 143 -832
2018-12-13 19:29:18 GMT 40.368286 -3.457884 4,350 323 146 -768
2018-12-13 19:29:03 GMT 40.360794 -3.450256 4,500 323 150 -768
2018-12-13 19:28:54 GMT 40.355713 -3.445129 4,650 323 153 -896
2018-12-13 19:28:43 GMT 40.349480 -3.438783 4,800 323 156 -640
2018-12-13 19:28:34 GMT 40.344040 -3.433228 4,950 323 161 -960
2018-12-13 19:28:23 GMT 40.337234 -3.426424 5,050 323 162 128
2018-12-13 19:28:12 GMT 40.331276 -3.420431 5,050 322 168 0
2018-12-13 19:28:02 GMT 40.324619 -3.413689 5,025 323 177 64
2018-12-13 19:27:51 GMT 40.317719 -3.406799 5,025 323 189 64
2018-12-13 19:27:41 GMT 40.310329 -3.399395 5,025 323 198 -64
2018-12-13 19:27:31 GMT 40.303020 -3.391966 5,050 323 198 -64
2018-12-13 19:27:20 GMT 40.295151 -3.384039 5,050 323 197 64
2018-12-13 19:27:12 GMT 40.289291 -3.378174 5,050 322 197 0
2018-12-13 19:27:09 GMT 40.287460 -3.376282 5,025 322 197 0
2018-12-13 19:26:59 GMT 40.279835 -3.368620 5,050 324 198 0
2018-12-13 19:26:52 GMT 40.274002 -3.363037 5,050 325 198 64
2018-12-13 19:26:48 GMT 40.271576 -3.360840 5,025 325 197 -64
2018-12-13 19:26:38 GMT 40.264481 -3.354065 5,025 325 196 0
2018-12-13 19:26:31 GMT 40.258282 -3.348520 5,050 327 197 0
2018-12-13 19:26:28 GMT 40.256653 -3.347046 5,050 327 197 0
2018-12-13 19:26:21 GMT 40.250885 -3.342224 5,050 330 198 -64
2018-12-13 19:26:18 GMT 40.248688 -3.340576 5,050 333 197 -64
2018-12-13 19:26:11 GMT 40.242004 -3.336304 5,050 340 197 0
2018-12-13 19:26:06 GMT 40.238892 -3.334839 5,050 344 198 -64
2018-12-13 19:26:00 GMT 40.233330 -3.333102 5,050 355 203 64
2018-12-13 19:25:55 GMT 40.229374 -3.332415 5,050 357 204 64
2018-12-13 19:25:51 GMT 40.224060 -3.332458 5,025 8 212 128
2018-12-13 19:25:47 GMT 40.218704 -3.334106 5,025 25 221 128
2018-12-13 19:25:40 GMT 40.214195 -3.337284 5,025 38 229 0
2018-12-13 19:25:35 GMT 40.210739 -3.341187 5,025 49 233 -64
2018-12-13 19:25:30 GMT 40.206657 -3.348895 5,025 65 237 128
2018-12-13 19:25:25 GMT 40.205154 -3.354065 5,025 74 241 -64
2018-12-13 19:25:19 GMT 40.203861 -3.362316 5,025 84 245 -128
2018-12-13 19:25:16 GMT 40.203598 -3.366760 5,025 88 246 -64
2018-12-13 19:25:13 GMT 40.203537 -3.370556 5,050 89 247 192
2018-12-13 19:25:09 GMT 40.203598 -3.378174 5,025 90 245 64
2018-12-13 19:25:06 GMT 40.203598 -3.381042 5,025 90 245 64
2018-12-13 19:25:03 GMT 40.203674 -3.386036 5,025 91 244 -64
2018-12-13 19:24:59 GMT 40.203781 -3.392944 5,025 90 245 -192
2018-12-13 19:24:56 GMT 40.203861 -3.396773 5,050 90 245 64
2018-12-13 19:24:53 GMT 40.203911 -3.400893 5,025 90 245 -128
2018-12-13 19:24:48 GMT 40.203911 -3.410943 5,025 88 244 192
2018-12-13 19:24:42 GMT 40.203690 -3.416992 5,025 84 242 -64
2018-12-13 19:24:38 GMT 40.203094 -3.423462 5,025 77 240 -64
2018-12-13 19:24:35 GMT 40.202545 -3.426758 5,025 73 237 0
2018-12-13 19:24:31 GMT 40.201401 -3.432434 5,050 73 237 -64
2018-12-13 19:24:25 GMT 40.199440 -3.440905 5,050 73 236 0
2018-12-13 19:24:21 GMT 40.198334 -3.445618 5,025 73 236 -64
2018-12-13 19:24:18 GMT 40.196960 -3.451721 5,050 73 236 64
2018-12-13 19:24:15 GMT 40.196041 -3.455762 5,050 73 236 64
2018-12-13 19:24:11 GMT 40.194946 -3.460449 5,025 73 236 0
2018-12-13 19:24:07 GMT 40.193390 -3.467373 5,050 73 236 64
2018-12-13 19:24:01 GMT 40.191833 -3.474182 5,025 73 238 64
2018-12-13 19:23:54 GMT 40.189758 -3.483165 5,025 73 240 64
2018-12-13 19:23:50 GMT 40.188499 -3.488783 5,025 73 242 0
2018-12-13 19:23:46 GMT 40.187302 -3.494202 5,025 73 242 64
2018-12-13 19:23:39 GMT 40.184784 -3.505920 5,025 74 242 0
2018-12-13 19:23:27 GMT 40.180161 -3.528259 5,025 75 242 -64
2018-12-13 19:23:18 GMT 40.178558 -3.536133 5,050 75 241 -64
2018-12-13 19:23:08 GMT 40.176071 -3.548085 5,050 74 239 0
2018-12-13 19:23:05 GMT 40.175079 -3.552856 5,050 74 239 -128
2018-12-13 19:22:56 GMT 40.172626 -3.564689 5,075 74 239 -384
2018-12-13 19:22:46 GMT 40.169540 -3.578918 5,125 73 239 -704
2018-12-13 19:22:43 GMT 40.168251 -3.584914 5,200 74 239 -512
2018-12-13 19:22:36 GMT 40.165691 -3.597024 5,275 74 238 -704
2018-12-13 19:22:33 GMT 40.165691 -3.597024 5,300 74 238 -576
2018-12-13 19:22:28 GMT 40.164154 -3.604140 5,350 74 238 -768
2018-12-13 19:22:23 GMT 40.162849 -3.610320 5,425 74 240 -640
2018-12-13 19:22:15 GMT 40.160011 -3.623928 5,525 75 240 -704
2018-12-13 19:22:07 GMT 40.157963 -3.633915 5,600 75 241 -704
2018-12-13 19:22:04 GMT 40.157310 -3.637161 5,625 75 241 -704
2018-12-13 19:21:54 GMT 40.154434 -3.652283 5,750 75 242 -704
2018-12-13 19:21:43 GMT 40.151138 -3.668762 5,950 75 241 -832
2018-12-13 19:21:37 GMT 40.149677 -3.676175 5,950 75 241 -832
2018-12-13 19:21:33 GMT 40.147888 -3.685120 6,050 76 240 -640
2018-12-13 19:21:25 GMT 40.146103 -3.694519 6,125 76 240 -640
2018-12-13 19:21:22 GMT 40.145718 -3.696587 6,150 76 239 -640
2018-12-13 19:21:14 GMT 40.143623 -3.708260 6,225 77 237 -704
2018-12-13 19:21:09 GMT 40.142487 -3.714844 6,300 77 237 -640
2018-12-13 19:21:02 GMT 40.140598 -3.725676 6,375 77 238 -640
2018-12-13 19:20:59 GMT 40.139969 -3.729553 6,375 77 238 -640
2018-12-13 19:20:53 GMT 40.138596 -3.737305 6,475 76 239 -768
2018-12-13 19:20:49 GMT 40.137222 -3.745117 6,550 76 238 -768
2018-12-13 19:20:41 GMT 40.135574 -3.754089 6,625 76 239 -640
2018-12-13 19:20:32 GMT 40.133198 -3.767249 6,750 76 237 -768
2018-12-13 19:20:29 GMT 40.132591 -3.770558 6,750 76 237 -768
2018-12-13 19:20:19 GMT 40.129936 -3.785664 6,900 77 236 -576
2018-12-13 19:20:11 GMT 40.128075 -3.796276 6,975 77 233 -640
2018-12-13 19:20:08 GMT 40.127377 -3.800084 7,000 76 233 -768
2018-12-13 19:20:01 GMT 40.125282 -3.811507 7,100 76 233 -576
2018-12-13 19:19:58 GMT 40.124771 -3.814441 7,125 76 233 -768
2018-12-13 19:19:50 GMT 40.122581 -3.825802 7,225 75 233 -576
2018-12-13 19:19:47 GMT 40.122070 -3.828423 7,250 75 233 -640
2018-12-13 19:19:37 GMT 40.119278 -3.842656 7,375 75 232 -576
2018-12-13 19:19:29 GMT 40.116997 -3.854578 7,475 76 231 -704
2018-12-13 19:19:26 GMT 40.116436 -3.857450 7,475 76 231 -704
2018-12-13 19:19:18 GMT 40.114380 -3.868469 7,600 76 232 -640
2018-12-13 19:19:15 GMT 40.113693 -3.872253 7,625 76 232 -768
2018-12-13 19:19:06 GMT 40.111038 -3.885925 7,750 76 233 -704
2018-12-13 19:18:55 GMT 40.107033 -3.906951 7,850 76 234 -704
2018-12-13 19:18:46 GMT 40.105865 -3.913025 7,950 75 234 -704
2018-12-13 19:18:40 GMT 40.104099 -3.922494 8,050 76 234 -704
2018-12-13 19:18:35 GMT 40.103210 -3.927185 8,075 75 235 -640
2018-12-13 19:18:29 GMT 40.101517 -3.935974 8,150 76 234 -640
2018-12-13 19:18:25 GMT 40.100464 -3.941528 8,200 76 235 -704
2018-12-13 19:18:17 GMT 40.098190 -3.953955 8,300 76 238 -704
2018-12-13 19:18:14 GMT 40.097626 -3.957153 8,325 76 238 -640
2018-12-13 19:18:09 GMT 40.096561 -3.962881 8,400 76 239 -576
2018-12-13 19:18:06 GMT 40.095657 -3.967712 8,425 76 239 -704
2018-12-13 19:18:03 GMT 40.094929 -3.971870 8,450 76 239 -704
2018-12-13 19:17:58 GMT 40.093628 -3.979111 8,525 76 241 -768
2018-12-13 19:17:53 GMT 40.092453 -3.985779 8,575 76 242 -768
2018-12-13 19:17:50 GMT 40.091629 -3.990356 8,600 76 243 -768
2018-12-13 19:17:47 GMT 40.090942 -3.994263 8,650 76 243 -768
2018-12-13 19:17:43 GMT 40.089531 -4.002145 8,700 76 243 -640
2018-12-13 19:17:37 GMT 40.088322 -4.008949 8,775 76 243 -640
2018-12-13 19:17:33 GMT 40.087204 -4.015066 8,825 76 243 -704
2018-12-13 19:17:26 GMT 40.085526 -4.024180 8,900 76 243 -704
2018-12-13 19:17:23 GMT 40.084595 -4.029298 8,925 76 243 -704
2018-12-13 19:17:19 GMT 40.083572 -4.034790 8,950 76 243 -768
2018-12-13 19:17:16 GMT 40.082794 -4.038757 9,025 74 243 -704
2018-12-13 19:17:13 GMT 40.081944 -4.042969 9,025 74 243 -704
2018-12-13 19:17:10 GMT 40.080730 -4.048712 9,100 74 243 -704
2018-12-13 19:17:04 GMT 40.079102 -4.055953 9,150 73 243 -640
2018-12-13 19:17:01 GMT 40.078079 -4.060447 9,175 73 242 -640
2018-12-13 19:16:58 GMT 40.077301 -4.063660 9,225 73 242 -960
2018-12-13 19:16:53 GMT 40.075699 -4.070862 9,350 79 246 -960
2018-12-13 19:16:50 GMT 40.074726 -4.075740 9,350 81 246 -960
2018-12-13 19:16:45 GMT 40.074005 -4.082947 9,425 88 252 -960
2018-12-13 19:16:39 GMT 40.074215 -4.091471 9,525 103 262 -960
2018-12-13 19:16:33 GMT 40.076157 -4.101562 9,625 111 266 -1024
2018-12-13 19:16:29 GMT 40.078125 -4.107239 9,650 120 271 -1088
2018-12-13 19:16:25 GMT 40.081245 -4.113881 9,775 127 274 -1088
2018-12-13 19:16:19 GMT 40.085907 -4.121216 9,900 132 275 -1024
2018-12-13 19:16:14 GMT 40.089951 -4.126927 9,975 132 273 -960
2018-12-13 19:16:11 GMT 40.091949 -4.129798 10,025 132 273 -960
2018-12-13 19:16:08 GMT 40.095024 -4.134230 10,075 132 273 -1024
2018-12-13 19:16:03 GMT 40.098862 -4.139709 10,150 132 273 -960
2018-12-13 19:16:00 GMT 40.101402 -4.143344 10,200 132 273 -1024
2018-12-13 19:15:57 GMT 40.103943 -4.146973 10,250 132 273 -1024
2018-12-13 19:15:51 GMT 40.109207 -4.154480 10,350 132 271 -1024
2018-12-13 19:15:47 GMT 40.112991 -4.159886 10,425 132 271 -960
2018-12-13 19:15:41 GMT 40.117695 -4.166565 10,500 132 269 -960
2018-12-13 19:15:36 GMT 40.122257 -4.172807 10,600 135 270 -896
2018-12-13 19:15:31 GMT 40.126076 -4.177676 10,650 138 271 -896
2018-12-13 19:15:25 GMT 40.136353 -4.186707 10,800 154 277 -832
2018-12-13 19:15:17 GMT 40.141663 -4.189636 10,875 159 279 -704
2018-12-13 19:15:11 GMT 40.154526 -4.195679 10,975 159 283 -832
2018-12-13 19:15:07 GMT 40.154526 -4.195679 11,000 159 283 -832
2018-12-13 19:15:04 GMT 40.158150 -4.197464 11,050 159 283 -832
2018-12-13 19:14:59 GMT 40.163681 -4.200073 11,100 159 283 -832
2018-12-13 19:14:56 GMT 40.167366 -4.201834 11,150 159 283 -832
2018-12-13 19:14:50 GMT 40.176590 -4.206238 11,250 159 283 -768
2018-12-13 19:14:45 GMT 40.181030 -4.208435 11,300 159 283 -832
2018-12-13 19:14:41 GMT 40.189133 -4.212341 11,375 159 283 -832
2018-12-13 19:14:38 GMT 40.189713 -4.212633 11,400 159 284 -768
2018-12-13 19:14:33 GMT 40.197876 -4.216614 11,475 159 283 -896
2018-12-13 19:14:27 GMT 40.202839 -4.219062 11,550 159 283 -768
2018-12-13 19:14:22 GMT 40.217010 -4.226074 11,675 159 283 -832
2018-12-13 19:14:16 GMT 40.217010 -4.226074 11,700 158 283 -896
2018-12-13 19:14:12 GMT 40.222485 -4.228862 11,750 158 283 -896
2018-12-13 19:14:06 GMT 40.230350 -4.232795 11,850 159 284 -896
2018-12-13 19:14:01 GMT 40.235641 -4.235474 11,925 158 286 -960
2018-12-13 19:13:51 GMT 40.248737 -4.242096 12,075 158 283 -704
2018-12-13 19:13:40 GMT 40.261307 -4.248401 12,200 159 282 -704
2018-12-13 19:13:30 GMT 40.274460 -4.254333 12,325 165 284 -768
2018-12-13 19:13:21 GMT 40.284725 -4.256765 12,425 177 288 -896
2018-12-13 19:13:18 GMT 40.289291 -4.256958 12,475 182 288 -704
2018-12-13 19:13:09 GMT 40.302155 -4.256165 12,600 184 290 -768
2018-12-13 19:13:01 GMT 40.311863 -4.255392 12,700 183 292 -832
2018-12-13 19:12:58 GMT 40.316483 -4.255127 12,725 183 293 -832
2018-12-13 19:12:50 GMT 40.326920 -4.254456 12,850 183 295 -768
2018-12-13 19:12:47 GMT 40.330765 -4.254211 12,875 184 296 -768
2018-12-13 19:12:40 GMT 40.340958 -4.253457 12,975 184 297 -704
2018-12-13 19:12:37 GMT 40.344822 -4.253145 13,025 184 297 -704
2018-12-13 19:12:30 GMT 40.355026 -4.252258 13,400 183 296 -768
2018-12-13 19:12:26 GMT 40.359421 -4.251831 13,150 184 296 -896
2018-12-13 19:12:18 GMT 40.369915 -4.251022 13,275 184 296 -832
2018-12-13 19:12:15 GMT 40.375214 -4.250610 13,325 183 296 -1024
2018-12-13 19:12:09 GMT 40.383694 -4.250148 13,400 183 296 -768
2018-12-13 19:12:06 GMT 40.387802 -4.249939 13,450 183 296 -896
2018-12-13 19:11:59 GMT 40.398914 -4.249337 13,550 183 296 -832
2018-12-13 19:11:56 GMT 40.402363 -4.249150 13,600 183 294 -704
2018-12-13 19:11:48 GMT 40.411926 -4.248535 13,700 184 293 -704
2018-12-13 19:11:45 GMT 40.416328 -4.248213 13,725 184 292 -832
2018-12-13 19:11:37 GMT 40.426102 -4.247527 13,825 183 292 -704
2018-12-13 19:11:34 GMT 40.430431 -4.247277 13,850 183 292 -704
2018-12-13 19:11:27 GMT 40.439941 -4.246704 13,950 183 292 -640
2018-12-13 19:11:23 GMT 40.445656 -4.246341 14,000 183 292 -896
2018-12-13 19:11:14 GMT 40.459030 -4.245483 14,150 184 294 -1088
2018-12-13 19:11:06 GMT 40.468884 -4.244718 14,275 184 294 -960
2018-12-13 19:11:03 GMT 40.474052 -4.244281 14,300 184 294 -896
2018-12-13 19:10:56 GMT 40.483921 -4.243469 14,425 184 294 -960
2018-12-13 19:10:53 GMT 40.486900 -4.243220 14,475 184 295 -896
2018-12-13 19:10:45 GMT 40.496521 -4.242493 14,600 184 296 -1024
2018-12-13 19:10:42 GMT 40.501190 -4.242158 14,650 184 296 -960
2018-12-13 19:10:35 GMT 40.511108 -4.241409 14,775 184 297 -960
2018-12-13 19:10:32 GMT 40.515839 -4.241089 14,825 184 298 -1024
2018-12-13 19:10:25 GMT 40.525307 -4.240411 14,950 184 301 -960
2018-12-13 19:10:21 GMT 40.530579 -4.239990 15,025 184 302 -1024
2018-12-13 19:10:14 GMT 40.540833 -4.239136 15,150 184 306 -1152
2018-12-13 19:10:10 GMT 40.545650 -4.238725 15,200 184 308 -1152
2018-12-13 19:10:03 GMT 40.556030 -4.237789 15,325 185 311 -960
2018-12-13 19:10:00 GMT 40.560333 -4.237366 15,375 185 313 -960
2018-12-13 19:09:53 GMT 40.570557 -4.236416 15,500 184 315 -768
2018-12-13 19:09:50 GMT 40.576141 -4.235979 15,550 184 316 -960
2018-12-13 19:09:43 GMT 40.586430 -4.235167 15,675 184 318 -1344
2018-12-13 19:09:38 GMT 40.591503 -4.234855 15,750 183 320 -1216
2018-12-13 19:09:33 GMT 40.600395 -4.234293 15,875 183 322 -1280
2018-12-13 19:09:28 GMT 40.607658 -4.233919 15,975 183 322 -1344
2018-12-13 19:09:22 GMT 40.616272 -4.233398 16,125 183 321 -1024
2018-12-13 19:09:18 GMT 40.622910 -4.232971 16,200 184 320 -1152
2018-12-13 19:09:11 GMT 40.631790 -4.232361 16,375 183 318 -1088
2018-12-13 19:09:07 GMT 40.638382 -4.231984 16,400 183 318 -1472
2018-12-13 19:09:01 GMT 40.646572 -4.231547 16,550 183 317 -1792
2018-12-13 19:08:57 GMT 40.653992 -4.231140 16,675 183 317 -1344
2018-12-13 19:08:50 GMT 40.662827 -4.230713 16,825 183 318 -1536
2018-12-13 19:08:45 GMT 40.670380 -4.230347 16,975 183 320 -1344
2018-12-13 19:08:40 GMT 40.677612 -4.229919 17,050 183 322 -960
2018-12-13 19:08:36 GMT 40.685257 -4.229431 17,150 183 324 -960
2018-12-13 19:08:30 GMT 40.692940 -4.228925 17,225 183 326 -1088
2018-12-13 19:08:24 GMT 40.701645 -4.228394 17,350 183 328 -1600
2018-12-13 19:08:20 GMT 40.708534 -4.227989 17,475 183 328 -2176
2018-12-13 19:08:15 GMT 40.717892 -4.227364 17,700 183 327 -2240
2018-12-13 19:08:09 GMT 40.724625 -4.226990 17,875 183 326 -1600
2018-12-13 19:08:04 GMT 40.733047 -4.226501 18,000 183 328 -1344
2018-12-13 19:07:59 GMT 40.740192 -4.226116 18,125 183 330 -1216
2018-12-13 19:07:53 GMT 40.749313 -4.225616 18,250 183 331 -1600
2018-12-13 19:07:49 GMT 40.755844 -4.225220 18,375 183 332 -1280
2018-12-13 19:07:43 GMT 40.764999 -4.224609 18,500 183 333 -1088
2018-12-13 19:07:38 GMT 40.771912 -4.224182 18,575 183 336 -1024
2018-12-13 19:07:33 GMT 40.781948 -4.223494 18,675 183 339 -832
2018-12-13 19:07:28 GMT 40.787582 -4.223120 18,725 183 341 -768
2018-12-13 19:07:22 GMT 40.798096 -4.222473 18,800 183 346 -704
2018-12-13 19:07:18 GMT 40.804249 -4.222058 18,850 183 349 -832
2018-12-13 19:07:12 GMT 40.815033 -4.221313 18,950 183 355 -960
2018-12-13 19:07:07 GMT 40.821671 -4.220886 19,025 183 358 -960
2018-12-13 19:07:00 GMT 40.833389 -4.220123 19,125 183 361 -1280
2018-12-13 19:06:57 GMT 40.837997 -4.219811 19,200 183 363 -1792
2018-12-13 19:06:50 GMT 40.850281 -4.219055 19,425 183 365 -1920
2018-12-13 19:06:47 GMT 40.857689 -4.218563 19,525 183 366 -1856
2018-12-13 19:06:40 GMT 40.869644 -4.217834 19,750 183 368 -1728
2018-12-13 19:06:35 GMT 40.875191 -4.217502 19,875 183 368 -1856
2018-12-13 19:06:25 GMT 40.892715 -4.216492 20,200 183 370 -1856
2018-12-13 19:06:17 GMT 40.906570 -4.215629 20,450 183 373 -1600
2018-12-13 19:06:14 GMT 40.912720 -4.215271 20,525 183 373 -1600
2018-12-13 19:06:07 GMT 40.924255 -4.214600 20,750 183 374 -1600
2018-12-13 19:06:04 GMT 40.928329 -4.214355 20,800 183 374 -1344
2018-12-13 19:05:58 GMT 40.940872 -4.213562 20,950 183 376 -512
2018-12-13 19:05:54 GMT 40.946884 -4.213257 20,975 183 377 -128
2018-12-13 19:05:44 GMT 40.964767 -4.212219 21,000 183 378 -192
2018-12-13 19:05:36 GMT 40.980331 -4.211304 21,025 183 378 -192
2018-12-13 19:05:33 GMT 40.983055 -4.211197 21,025 183 378 -192
2018-12-13 19:05:23 GMT 41.000198 -4.210144 21,075 183 379 -832
2018-12-13 19:05:15 GMT 41.015640 -4.209199 21,200 183 385 -1088
2018-12-13 19:05:12 GMT 41.019829 -4.208950 21,250 183 386 -1152
2018-12-13 19:05:05 GMT 41.033615 -4.208069 21,375 183 393 -896
2018-12-13 19:04:52 GMT 41.056686 -4.206726 21,550 183 404 -1024
2018-12-13 19:04:44 GMT 41.076389 -4.205579 21,775 183 410 -1984
2018-12-13 19:04:31 GMT 41.095871 -4.204529 22,200 183 413 -1920
2018-12-13 19:04:21 GMT 41.115494 -4.203581 22,525 182 417 -1856
2018-12-13 19:04:11 GMT 41.135746 -4.202645 22,775 182 425 -768
2018-12-13 19:04:00 GMT 41.156040 -4.201771 22,900 182 435 -960
2018-12-13 19:03:49 GMT 41.178108 -4.200835 23,100 182 443 -1344
2018-12-13 19:03:39 GMT 41.198318 -4.199829 23,300 183 450 -1280
2018-12-13 19:03:29 GMT 41.221264 -4.198463 23,525 183 461 -1088
2018-12-13 19:03:20 GMT 41.240982 -4.196960 23,700 184 473 -1024
2018-12-13 19:03:17 GMT 41.245148 -4.196533 23,700 184 473 -1024
2018-12-13 19:03:09 GMT 41.264420 -4.194519 23,875 185 483 -1664
2018-12-13 19:02:58 GMT 41.287903 -4.191956 24,250 185 489 -2752
2018-12-13 19:02:48 GMT 41.311615 -4.189270 24,800 185 493 -3456
2018-12-13 19:02:38 GMT 41.334457 -4.186768 25,375 185 495 -2816
2018-12-13 19:02:27 GMT 41.358452 -4.184106 25,800 185 501 -2496
2018-12-13 19:02:17 GMT 41.381725 -4.181484 26,300 185 504 -2624
2018-12-13 19:02:07 GMT 41.406555 -4.178675 26,775 185 507 -3008
2018-12-13 19:01:56 GMT 41.432236 -4.175763 27,175 185 514 -1792
2018-12-13 19:01:45 GMT 41.459099 -4.172697 27,550 185 520 -2048
2018-12-13 19:01:34 GMT 41.485306 -4.169823 27,900 185 526 -1728
2018-12-13 19:01:24 GMT 41.509186 -4.167127 28,175 185 531 -1856
2018-12-13 19:01:15 GMT 41.534466 -4.164265 28,475 185 538 -1536
2018-12-13 19:01:04 GMT 41.562057 -4.161134 28,725 186 548 -1472
2018-12-13 19:00:53 GMT 41.587189 -4.158200 29,050 185 554 -2240
2018-12-13 19:00:43 GMT 41.612869 -4.155204 29,450 185 557 -2304
2018-12-13 19:00:38 GMT 41.627014 -4.153581 29,650 185 557 -2304
2018-12-13 19:00:32 GMT 41.643860 -4.151646 29,875 185 557 -2368
2018-12-13 19:00:25 GMT 41.658249 -4.150022 30,125 185 556 -2432
2018-12-13 19:00:17 GMT 41.683914 -4.147089 30,500 185 556 -2496
2018-12-13 19:00:10 GMT 41.695488 -4.145870 30,725 185 556 -2496
2018-12-13 19:00:06 GMT 41.709736 -4.144273 30,950 185 556 -2496
2018-12-13 19:00:02 GMT 41.726494 -4.142484 31,175 185 556 -2624
2018-12-13 18:59:54 GMT 41.738689 -4.141143 31,425 185 555 -2944
2018-12-13 18:59:51 GMT 41.748001 -4.140098 31,600 185 555 -3008
2018-12-13 18:59:45 GMT 41.762787 -4.138475 31,875 185 557 -2496
2018-12-13 18:59:39 GMT 41.774826 -4.137164 32,075 185 558 -2560
2018-12-13 18:59:29 GMT 41.801254 -4.134245 32,525 185 560 -2304
2018-12-13 18:59:21 GMT 41.822762 -4.131945 32,800 185 561 -832
2018-12-13 18:59:17 GMT 41.836124 -4.130476 32,925 185 561 -832
2018-12-13 18:59:07 GMT 41.859879 -4.127926 32,975 185 563 -64
2018-12-13 18:58:58 GMT 41.885330 -4.125238 33,000 185 562 0
2018-12-13 18:58:47 GMT 41.914490 -4.122183 33,000 185 562 -64
2018-12-13 18:58:37 GMT 41.940121 -4.119490 33,000 185 561 0
2018-12-13 18:58:25 GMT 41.968285 -4.116360 33,000 186 561 64
2018-12-13 18:58:16 GMT 41.997845 -4.112719 33,000 186 561 64
2018-12-13 18:58:05 GMT 42.020187 -4.109636 33,000 187 561 0
2018-12-13 18:57:54 GMT 42.050869 -4.105310 33,000 187 560 0
2018-12-13 18:57:43 GMT 42.075588 -4.101733 33,000 187 558 0
2018-12-13 18:57:34 GMT 42.102448 -4.097900 33,000 187 556 0
2018-12-13 18:57:23 GMT 42.127991 -4.094217 33,000 187 555 -64
2018-12-13 18:57:12 GMT 42.154076 -4.090491 33,000 187 552 64
2018-12-13 18:57:02 GMT 42.180084 -4.086789 32,975 187 552 0
2018-12-13 18:56:52 GMT 42.206074 -4.083082 33,000 187 552 0
2018-12-13 18:56:47 GMT 42.220181 -4.081038 33,000 187 551 0
2018-12-13 18:56:38 GMT 42.241745 -4.077988 33,000 187 550 -64
2018-12-13 18:56:32 GMT 42.259563 -4.075417 33,000 187 550 0
2018-12-13 18:56:20 GMT 42.286560 -4.071558 33,000 187 549 0
2018-12-13 18:56:11 GMT 42.311283 -4.068007 33,000 187 549 0
2018-12-13 18:56:00 GMT 42.340752 -4.063792 33,000 187 548 0
2018-12-13 18:55:48 GMT 42.370449 -4.059512 33,000 187 547 0
2018-12-13 18:55:38 GMT 42.393494 -4.056202 33,000 187 546 0
2018-12-13 18:55:27 GMT 42.422215 -4.052039 33,000 187 546 0
2018-12-13 18:55:22 GMT 42.433640 -4.050335 33,000 187 545 0
2018-12-13 18:55:17 GMT 42.444885 -4.048717 33,000 187 545 0
2018-12-13 18:55:12 GMT 42.457718 -4.046901 33,000 187 545 0
2018-12-13 18:55:07 GMT 42.471050 -4.044949 33,000 187 544 64
2018-12-13 18:55:03 GMT 42.483898 -4.043160 33,000 187 544 64
2018-12-13 18:54:58 GMT 42.495117 -4.041564 33,000 187 544 64
2018-12-13 18:54:50 GMT 42.512741 -4.039036 32,975 187 545 0
2018-12-13 18:54:46 GMT 42.522491 -4.037663 33,000 187 546 0
2018-12-13 18:54:42 GMT 42.535244 -4.035815 33,000 187 546 0
2018-12-13 18:54:36 GMT 42.548096 -4.033963 33,000 187 546 0
2018-12-13 18:54:25 GMT 42.577011 -4.029860 33,000 186 545 -192
2018-12-13 18:54:17 GMT 42.598461 -4.026809 33,050 186 544 -256
2018-12-13 18:54:09 GMT 42.627869 -4.022744 33,125 186 544 -1152
2018-12-13 18:53:54 GMT 42.657211 -4.018499 33,400 187 544 -1472
2018-12-13 18:53:43 GMT 42.680721 -4.015056 33,625 187 544 -1472
2018-12-13 18:53:33 GMT 42.706837 -4.011223 33,900 187 543 -1472
2018-12-13 18:53:23 GMT 42.732346 -4.007519 34,150 187 542 -1536
2018-12-13 18:53:11 GMT 42.761032 -4.003331 34,450 187 540 -1728
2018-12-13 18:53:01 GMT 42.785889 -3.999648 34,725 187 538 -1792
2018-12-13 18:52:51 GMT 42.811157 -3.995830 35,050 187 535 -1920
2018-12-13 18:52:40 GMT 42.849800 -3.990130 35,575 187 526 -1856
2018-12-13 18:52:25 GMT 42.874889 -3.986468 35,900 187 517 -1664
2018-12-13 18:52:15 GMT 42.900681 -3.982740 36,225 187 512 -2624
2018-12-13 18:52:04 GMT 42.924282 -3.979340 36,650 187 509 -1920
2018-12-13 18:51:50 GMT 42.957230 -3.974496 36,975 187 508 -448
2018-12-13 18:51:41 GMT 42.977737 -3.971494 37,000 187 508 -64
2018-12-13 18:51:22 GMT 43.021576 -3.965084 37,000 187 507 64
2018-12-13 18:51:08 GMT 43.055420 -3.960060 37,000 187 507 -64
2018-12-13 18:50:53 GMT 43.092682 -3.954503 37,025 187 506 0
2018-12-13 18:50:49 GMT 43.099689 -3.953509 37,025 187 505 64
2018-12-13 18:50:40 GMT 43.122437 -3.950096 37,000 187 505 0
2018-12-13 18:50:29 GMT 43.147751 -3.946455 37,000 187 505 -64
2018-12-13 18:50:17 GMT 43.172607 -3.942878 37,025 187 504 0
2018-12-13 18:50:06 GMT 43.197830 -3.939173 37,000 187 504 64
2018-12-13 18:49:45 GMT 43.247261 -3.932059 37,000 187 503 64
2018-12-13 18:49:31 GMT 43.279846 -3.927285 37,000 187 503 0
2018-12-13 18:49:22 GMT 43.311951 -3.922502 37,000 187 503 0
2018-12-13 18:49:09 GMT 43.330730 -3.919634 37,000 187 502 0
2018-12-13 18:48:58 GMT 43.355255 -3.915796 37,000 187 502 64
2018-12-13 18:48:47 GMT 43.381805 -3.911708 36,975 187 502 64
2018-12-13 18:48:37 GMT 43.404968 -3.908322 36,975 186 502 0
2018-12-13 18:48:27 GMT 43.439568 -3.905247 37,000 183 503 -64
2018-12-13 18:48:11 GMT 43.463425 -3.904618 37,000 180 504 0
2018-12-13 18:48:01 GMT 43.500229 -3.905836 37,000 177 505 0
2018-12-13 18:47:44 GMT 43.540543 -3.908779 37,000 176 504 0
2018-12-13 18:47:31 GMT 43.559952 -3.910217 37,000 176 504 0
2018-12-13 18:47:20 GMT 43.583771 -3.911963 37,000 176 504 0
2018-12-13 18:47:07 GMT 43.616096 -3.914272 37,000 177 504 0
2018-12-13 18:46:58 GMT 43.634438 -3.915449 37,000 177 504 0
2018-12-13 18:46:49 GMT 43.659302 -3.917073 37,000 177 503 64
2018-12-13 18:46:38 GMT 43.682556 -3.918734 37,000 177 503 64
2018-12-13 18:46:28 GMT 43.707413 -3.920522 37,000 176 504 0
2018-12-13 18:46:13 GMT 43.738667 -3.922904 37,025 176 503 -64
2018-12-13 18:46:10 GMT 43.745090 -3.923362 37,025 176 503 0
2018-12-13 18:45:54 GMT 43.783722 -3.926271 37,000 177 503 0
2018-12-13 18:45:50 GMT 43.794159 -3.927037 37,000 177 503 0
2018-12-13 18:45:45 GMT 43.805565 -3.927808 37,000 177 503 0
2018-12-13 18:45:39 GMT 43.819435 -3.928724 37,000 177 503 0
2018-12-13 18:45:28 GMT 43.843231 -3.930295 37,025 177 503 0
2018-12-13 18:45:16 GMT 43.875484 -3.932452 37,025 177 503 0
2018-12-13 18:45:12 GMT 43.881863 -3.932844 37,025 177 503 0
2018-12-13 18:45:04 GMT 43.902145 -3.934191 37,025 177 503 0
2018-12-13 18:44:55 GMT 43.920502 -3.935469 37,025 177 502 0
2018-12-13 18:44:32 GMT 43.973511 -3.939301 37,000 177 502 -64
2018-12-13 18:44:28 GMT 43.984360 -3.940068 37,025 177 502 -64
2018-12-13 18:44:21 GMT 44.002712 -3.941411 37,025 177 501 0
2018-12-13 18:44:11 GMT 44.023453 -3.942878 37,025 176 501 64
2018-12-13 18:44:01 GMT 44.048100 -3.944746 37,000 176 501 64
2018-12-13 18:43:49 GMT 44.072819 -3.946708 37,000 176 501 0
2018-12-13 18:43:40 GMT 44.097519 -3.948563 37,000 176 500 64
2018-12-13 18:43:25 GMT 44.129059 -3.950926 37,000 176 500 0
2018-12-13 18:43:17 GMT 44.150208 -3.952459 36,975 176 499 0
2018-12-13 18:43:09 GMT 44.165955 -3.953673 37,000 176 499 0
2018-12-13 18:42:58 GMT 44.205772 -3.956552 36,975 177 498 64
2018-12-13 18:42:45 GMT 44.220482 -3.957624 36,975 177 498 0
2018-12-13 18:42:41 GMT 44.230816 -3.958294 36,975 177 498 0
2018-12-13 18:42:23 GMT 44.271561 -3.961291 36,975 176 497 0
2018-12-13 18:42:14 GMT 44.293896 -3.962983 36,975 176 497 0
2018-12-13 18:42:05 GMT 44.313721 -3.964560 37,000 176 497 0
2018-12-13 18:41:54 GMT 44.337662 -3.966457 36,975 176 497 -64
2018-12-13 18:41:43 GMT 44.366867 -3.968680 37,000 176 497 0
2018-12-13 18:41:33 GMT 44.387146 -3.970315 37,000 176 497 0
2018-12-13 18:41:19 GMT 44.420193 -3.973165 37,000 176 497 0
2018-12-13 18:41:10 GMT 44.439468 -3.974697 37,000 177 496 0
2018-12-13 18:41:00 GMT 44.462494 -3.975220 37,000 182 494 0
2018-12-13 18:40:48 GMT 44.489182 -3.973389 37,000 184 493 -64
2018-12-13 18:40:38 GMT 44.512482 -3.971361 37,000 184 493 0
2018-12-13 18:40:27 GMT 44.536285 -3.969334 37,000 184 493 0
2018-12-13 18:40:17 GMT 44.559570 -3.967270 37,000 184 493 64
2018-12-13 18:40:07 GMT 44.585732 -3.965060 37,000 184 493 0
2018-12-13 18:39:56 GMT 44.608246 -3.963122 37,025 184 493 0
2018-12-13 18:39:41 GMT 44.642712 -3.960102 37,025 184 494 0
2018-12-13 18:39:31 GMT 44.664639 -3.958227 37,000 184 494 0
2018-12-13 18:39:24 GMT 44.681675 -3.956686 37,000 184 495 0
2018-12-13 18:39:13 GMT 44.705509 -3.954475 37,025 184 495 0
2018-12-13 18:39:02 GMT 44.730881 -3.952131 37,025 184 495 64
2018-12-13 18:38:52 GMT 44.755142 -3.949977 37,000 184 494 128
2018-12-13 18:38:39 GMT 44.783432 -3.947492 36,975 184 494 0
2018-12-13 18:38:30 GMT 44.804352 -3.945727 37,000 184 494 -64
2018-12-13 18:38:20 GMT 44.827709 -3.943757 37,000 184 493 64
2018-12-13 18:38:09 GMT 44.851498 -3.941747 37,000 184 493 0
2018-12-13 18:37:56 GMT 44.881210 -3.939253 37,000 184 493 0
2018-12-13 18:37:48 GMT 44.899632 -3.937594 37,000 184 493 0
2018-12-13 18:37:33 GMT 44.933617 -3.934512 37,000 184 493 0
2018-12-13 18:37:26 GMT 44.951351 -3.932838 37,000 184 493 0
2018-12-13 18:37:16 GMT 44.971893 -3.930947 37,000 184 493 -64
2018-12-13 18:37:05 GMT 44.996658 -3.928659 37,025 184 492 0
2018-12-13 18:36:55 GMT 45.020370 -3.926566 37,000 184 492 64
2018-12-13 18:36:44 GMT 45.046085 -3.924263 37,000 184 492 0
2018-12-13 18:36:34 GMT 45.068943 -3.922253 37,000 184 492 0
2018-12-13 18:36:23 GMT 45.117416 -3.918065 37,000 184 492 0
2018-12-13 18:36:12 GMT 45.117416 -3.918065 37,000 184 492 64
2018-12-13 18:36:01 GMT 45.144012 -3.915841 37,000 184 492 0
2018-12-13 18:35:51 GMT 45.168613 -3.913745 37,000 184 491 0
2018-12-13 18:35:40 GMT 45.190491 -3.911870 37,000 184 491 0
2018-12-13 18:35:30 GMT 45.214279 -3.909793 37,000 184 491 0
2018-12-13 18:35:19 GMT 45.241188 -3.907448 37,000 184 490 -64
2018-12-13 18:35:06 GMT 45.268791 -3.904970 37,000 184 490 0
2018-12-13 18:34:58 GMT 45.287155 -3.903351 37,000 184 490 0
2018-12-13 18:34:51 GMT 45.305012 -3.901754 37,000 184 490 64
2018-12-13 18:34:47 GMT 45.314026 -3.900931 37,000 184 490 0
2018-12-13 18:34:40 GMT 45.329590 -3.899558 37,000 184 489 0
2018-12-13 18:34:37 GMT 45.334030 -3.899166 37,000 184 489 0
2018-12-13 18:34:32 GMT 45.344627 -3.898271 37,000 184 489 0
2018-12-13 18:34:26 GMT 45.358082 -3.897065 37,000 184 489 0
2018-12-13 18:34:21 GMT 45.370647 -3.895993 37,000 184 489 -64
2018-12-13 18:34:15 GMT 45.382660 -3.894921 37,000 184 489 -64
2018-12-13 18:34:04 GMT 45.407703 -3.892711 37,000 184 488 128
2018-12-13 18:33:54 GMT 45.430328 -3.890701 36,975 184 489 0
2018-12-13 18:33:43 GMT 45.455383 -3.888506 36,975 184 489 -64
2018-12-13 18:33:33 GMT 45.479488 -3.886280 37,000 184 489 -64
2018-12-13 18:33:28 GMT 45.491032 -3.885208 37,000 184 488 -64
2018-12-13 18:33:22 GMT 45.502529 -3.884136 37,000 184 488 0
2018-12-13 18:33:18 GMT 45.513107 -3.883209 37,000 184 488 -64
2018-12-13 18:33:08 GMT 45.534714 -3.881247 37,000 184 487 0
2018-12-13 18:33:01 GMT 45.550526 -3.879822 37,000 184 487 64
2018-12-13 18:32:56 GMT 45.564026 -3.878586 37,000 184 488 128
2018-12-13 18:32:50 GMT 45.575043 -3.877571 37,000 184 488 -128
2018-12-13 18:32:46 GMT 45.583672 -3.876732 37,000 184 487 -192
2018-12-13 18:32:36 GMT 45.609695 -3.874329 37,050 184 488 -64
2018-12-13 18:32:28 GMT 45.623520 -3.873093 37,050 184 487 0
2018-12-13 18:32:25 GMT 45.632179 -3.872269 37,025 184 487 0
2018-12-13 18:32:19 GMT 45.645538 -3.871006 37,025 184 486 0
2018-12-13 18:32:10 GMT 45.664261 -3.869331 37,050 184 486 0
2018-12-13 18:32:05 GMT 45.679596 -3.867991 37,050 184 486 0
2018-12-13 18:31:55 GMT 45.699726 -3.866158 37,025 184 486 0
2018-12-13 18:31:44 GMT 45.723190 -3.864166 37,025 184 486 0
2018-12-13 18:31:37 GMT 45.739948 -3.862724 37,025 184 486 0
2018-12-13 18:31:34 GMT 45.754333 -3.861488 37,025 184 486 64
2018-12-13 18:31:25 GMT 45.767273 -3.860390 37,025 184 486 -64
2018-12-13 18:31:22 GMT 45.773987 -3.859819 37,025 184 486 0
2018-12-13 18:31:14 GMT 45.791656 -3.858278 37,025 184 485 0
2018-12-13 18:31:11 GMT 45.796967 -3.857809 37,025 184 485 0
2018-12-13 18:31:01 GMT 45.820763 -3.855721 37,025 184 484 64
2018-12-13 18:30:51 GMT 45.841782 -3.853790 37,000 184 483 128
2018-12-13 18:30:40 GMT 45.869736 -3.851257 37,000 184 483 64
2018-12-13 18:30:31 GMT 45.888474 -3.849569 37,000 184 482 -64
2018-12-13 18:30:21 GMT 45.915939 -3.847091 36,975 184 480 128
2018-12-13 18:30:10 GMT 45.933979 -3.845421 37,000 184 480 64
2018-12-13 18:30:00 GMT 45.958511 -3.843071 37,000 184 480 64
2018-12-13 18:29:47 GMT 45.983963 -3.840727 36,975 184 479 -64
2018-12-13 18:29:36 GMT 46.029594 -3.836357 36,975 184 478 0
2018-12-13 18:29:27 GMT 46.029594 -3.836357 36,975 184 477 64
2018-12-13 18:29:14 GMT 46.056335 -3.833827 36,975 184 477 128
2018-12-13 18:29:09 GMT 46.068977 -3.832649 36,950 184 475 64
2018-12-13 18:29:06 GMT 46.076008 -3.832031 36,950 184 475 0
2018-12-13 18:28:55 GMT 46.099457 -3.829941 36,975 184 475 0
2018-12-13 18:28:44 GMT 46.122894 -3.827864 36,975 184 474 -128
2018-12-13 18:28:33 GMT 46.146698 -3.825788 36,975 184 473 0
2018-12-13 18:28:23 GMT 46.169540 -3.823711 36,975 184 473 0
2018-12-13 18:28:17 GMT 46.181122 -3.822624 36,975 184 473 -64
2018-12-13 18:28:12 GMT 46.192795 -3.821567 37,000 184 472 -128
2018-12-13 18:28:08 GMT 46.202591 -3.820697 37,000 184 471 -64
2018-12-13 18:27:59 GMT 46.220226 -3.819054 37,000 184 472 0
2018-12-13 18:27:53 GMT 46.234146 -3.817749 37,000 184 472 0
2018-12-13 18:27:50 GMT 46.242947 -3.816925 37,000 184 472 -64
2018-12-13 18:27:40 GMT 46.261475 -3.815140 37,000 184 472 -64
2018-12-13 18:27:36 GMT 46.270782 -3.814247 37,025 184 472 -64
2018-12-13 18:27:32 GMT 46.279129 -3.813462 37,025 184 470 64
2018-12-13 18:27:29 GMT 46.286518 -3.812737 37,025 184 470 64
2018-12-13 18:27:18 GMT 46.309708 -3.810648 37,000 184 470 64
2018-12-13 18:27:13 GMT 46.321293 -3.809578 37,000 184 471 -64
2018-12-13 18:27:08 GMT 46.332417 -3.808548 37,000 184 471 -64
2018-12-13 18:26:57 GMT 46.354706 -3.806562 37,025 184 471 -64
2018-12-13 18:26:46 GMT 46.380157 -3.804284 37,025 184 470 128
2018-12-13 18:26:37 GMT 46.401489 -3.802341 37,000 184 470 -64
2018-12-13 18:26:25 GMT 46.424591 -3.800240 37,000 184 470 64
2018-12-13 18:26:14 GMT 46.448730 -3.798121 37,000 184 470 128
2018-12-13 18:26:03 GMT 46.472763 -3.795910 36,975 184 470 0
2018-12-13 18:25:55 GMT 46.493637 -3.794035 37,000 184 470 -64
2018-12-13 18:25:47 GMT 46.508469 -3.792628 37,000 184 469 -64
2018-12-13 18:25:42 GMT 46.519043 -3.791623 37,000 184 469 0
2018-12-13 18:25:36 GMT 46.531082 -3.790551 37,000 184 469 64
2018-12-13 18:25:31 GMT 46.541718 -3.789528 37,000 184 468 128
2018-12-13 18:25:27 GMT 46.552284 -3.788567 37,000 184 469 64
2018-12-13 18:25:21 GMT 46.564774 -3.787470 36,975 184 469 0
2018-12-13 18:25:15 GMT 46.576351 -3.786369 37,000 184 469 -128
2018-12-13 18:25:10 GMT 46.588348 -3.785326 37,025 184 469 -128
2018-12-13 18:25:05 GMT 46.598976 -3.784309 37,025 184 469 -64
2018-12-13 18:25:00 GMT 46.611870 -3.783142 37,025 184 468 128
2018-12-13 18:24:55 GMT 46.622086 -3.782177 37,000 184 468 192
2018-12-13 18:24:49 GMT 46.642868 -3.780235 36,975 184 469 0
2018-12-13 18:24:45 GMT 46.642868 -3.780235 37,000 184 469 0
2018-12-13 18:24:38 GMT 46.657166 -3.778954 37,000 184 469 -64
2018-12-13 18:24:33 GMT 46.668686 -3.777890 37,000 184 469 -64
2018-12-13 18:24:29 GMT 46.679325 -3.776894 37,000 184 469 0
2018-12-13 18:24:25 GMT 46.688004 -3.776081 37,000 184 469 0
2018-12-13 18:24:18 GMT 46.700546 -3.774943 37,000 184 468 0
2018-12-13 18:24:14 GMT 46.711632 -3.773872 37,000 184 468 0
2018-12-13 18:24:09 GMT 46.722610 -3.772866 37,000 184 468 64
2018-12-13 18:24:06 GMT 46.732395 -3.771950 37,000 184 468 64
2018-12-13 18:23:58 GMT 46.745819 -3.770722 37,000 184 468 0
2018-12-13 18:23:55 GMT 46.751343 -3.770164 37,000 184 468 0
2018-12-13 18:23:50 GMT 46.762848 -3.769114 37,000 184 469 -64
2018-12-13 18:23:47 GMT 46.768475 -3.768585 37,000 184 468 -128
2018-12-13 18:23:42 GMT 46.778595 -3.767574 37,000 184 469 0
2018-12-13 18:23:39 GMT 46.785931 -3.766869 37,000 184 469 0
2018-12-13 18:23:35 GMT 46.794636 -3.766045 37,000 184 469 0
2018-12-13 18:23:32 GMT 46.800156 -3.765497 37,000 184 469 0
2018-12-13 18:23:28 GMT 46.808029 -3.764760 37,000 184 469 -128
2018-12-13 18:23:25 GMT 46.814514 -3.764122 37,025 184 468 -128
2018-12-13 18:23:22 GMT 46.820892 -3.763487 37,025 184 468 -64
2018-12-13 18:23:15 GMT 46.836594 -3.762014 37,025 184 468 0
2018-12-13 18:23:11 GMT 46.845749 -3.761076 37,025 184 468 64
2018-12-13 18:23:07 GMT 46.853149 -3.760345 37,025 184 468 -64
2018-12-13 18:23:04 GMT 46.861298 -3.759590 37,025 184 468 -64
2018-12-13 18:23:01 GMT 46.865616 -3.759133 37,025 184 468 0
2018-12-13 18:22:55 GMT 46.881641 -3.757606 37,025 184 468 -64
2018-12-13 18:22:51 GMT 46.889099 -3.756844 37,025 184 468 -64
2018-12-13 18:22:44 GMT 46.904266 -3.755423 37,025 184 467 64
2018-12-13 18:22:40 GMT 46.912041 -3.754718 37,025 184 467 64
2018-12-13 18:22:35 GMT 46.922653 -3.753754 37,025 184 467 64
2018-12-13 18:22:32 GMT 46.930756 -3.752998 37,025 184 468 -64
2018-12-13 18:22:29 GMT 46.935516 -3.752518 37,025 184 467 0
2018-12-13 18:22:26 GMT 46.944305 -3.751694 37,025 184 468 -64
2018-12-13 18:22:23 GMT 46.948471 -3.751282 37,025 184 468 -64
2018-12-13 18:22:19 GMT 46.957615 -3.750423 37,025 184 468 -64
2018-12-13 18:22:14 GMT 46.967789 -3.749428 37,025 184 468 0
2018-12-13 18:22:11 GMT 46.975525 -3.748672 37,025 184 467 0
2018-12-13 18:22:08 GMT 46.981075 -3.748169 37,025 184 468 64
2018-12-13 18:22:04 GMT 46.990295 -3.747324 37,025 184 467 64
2018-12-13 18:22:01 GMT 46.998489 -3.746549 37,025 184 467 0
2018-12-13 18:21:57 GMT 47.004501 -3.745926 37,025 184 467 0
2018-12-13 18:21:53 GMT 47.012779 -3.745141 37,025 184 467 0
2018-12-13 18:21:50 GMT 47.021072 -3.744415 37,025 184 466 0
2018-12-13 18:21:47 GMT 47.027534 -3.743803 37,025 184 466 64
2018-12-13 18:21:44 GMT 47.036240 -3.742957 37,025 184 466 64
2018-12-13 18:21:40 GMT 47.040386 -3.742605 37,025 184 466 0
2018-12-13 18:21:36 GMT 47.053093 -3.741408 37,025 184 466 0
2018-12-13 18:21:30 GMT 47.064732 -3.740352 37,025 184 466 0
2018-12-13 18:21:21 GMT 47.084423 -3.738521 37,025 184 465 64
2018-12-13 18:21:13 GMT 47.099087 -3.737112 37,000 184 463 128
2018-12-13 18:21:10 GMT 47.105976 -3.736478 37,000 184 465 0
2018-12-13 18:21:07 GMT 47.114216 -3.735704 37,000 184 465 64
2018-12-13 18:21:04 GMT 47.121414 -3.735008 37,000 184 466 128
2018-12-13 18:20:58 GMT 47.136520 -3.733566 37,000 184 466 64
2018-12-13 18:20:53 GMT 47.141682 -3.733028 37,000 184 465 -64
2018-12-13 18:20:49 GMT 47.166367 -3.730682 36,975 184 463 128
2018-12-13 18:20:42 GMT 47.166367 -3.730682 36,975 184 463 128
2018-12-13 18:20:38 GMT 47.183720 -3.729084 36,975 184 463 64
2018-12-13 18:20:32 GMT 47.190376 -3.728450 36,975 184 463 -64
2018-12-13 18:20:29 GMT 47.195591 -3.727957 36,975 184 463 -128
2018-12-13 18:20:25 GMT 47.202393 -3.727318 36,975 184 463 -128
2018-12-13 18:20:21 GMT 47.211502 -3.726425 37,000 184 463 -128
2018-12-13 18:20:18 GMT 47.219704 -3.725633 37,000 184 462 -64
2018-12-13 18:20:15 GMT 47.224228 -3.725258 37,000 184 462 -64
2018-12-13 18:20:09 GMT 47.236542 -3.724091 37,000 184 461 -64
2018-12-13 18:20:06 GMT 47.242001 -3.723591 37,000 184 461 0
2018-12-13 18:19:59 GMT 47.258854 -3.721971 37,000 184 460 0
2018-12-13 18:19:56 GMT 47.265106 -3.721344 37,000 184 460 128
2018-12-13 18:19:48 GMT 47.281944 -3.719788 36,975 184 460 128
2018-12-13 18:19:44 GMT 47.291428 -3.718872 36,975 184 460 128
2018-12-13 18:19:38 GMT 47.303173 -3.717745 36,975 184 460 64
2018-12-13 18:19:35 GMT 47.309509 -3.717087 36,950 184 460 0
2018-12-13 18:19:28 GMT 47.326172 -3.715508 36,975 184 460 -64
2018-12-13 18:19:24 GMT 47.331757 -3.714999 36,975 184 459 -64
2018-12-13 18:19:18 GMT 47.347549 -3.713448 36,975 184 459 0
2018-12-13 18:19:15 GMT 47.353409 -3.712898 36,975 184 458 0
2018-12-13 18:19:08 GMT 47.371490 -3.711182 36,975 184 458 0
2018-12-13 18:19:01 GMT 47.383163 -3.710083 36,975 184 457 64
2018-12-13 18:18:56 GMT 47.394321 -3.709013 36,975 184 457 -64
2018-12-13 18:18:53 GMT 47.399918 -3.708504 36,975 184 457 -64
2018-12-13 18:18:49 GMT 47.408752 -3.707680 36,975 184 457 -64
2018-12-13 18:18:45 GMT 47.414246 -3.707130 36,975 184 456 -128
2018-12-13 18:18:42 GMT 47.421509 -3.706477 36,975 184 456 -64
2018-12-13 18:18:39 GMT 47.427750 -3.705894 36,975 184 456 -64
2018-12-13 18:18:35 GMT 47.436356 -3.705070 37,000 184 455 0
2018-12-13 18:18:32 GMT 47.448463 -3.703942 37,000 184 455 0
2018-12-13 18:18:24 GMT 47.461304 -3.702667 37,000 184 455 0
2018-12-13 18:18:21 GMT 47.470825 -3.701775 37,025 184 455 -64
2018-12-13 18:18:14 GMT 47.481583 -3.700745 37,000 184 455 0
2018-12-13 18:18:11 GMT 47.487053 -3.700209 37,000 184 455 0
2018-12-13 18:18:08 GMT 47.494595 -3.699435 37,000 184 455 -64
2018-12-13 18:18:05 GMT 47.499065 -3.699012 37,000 184 455 -64
2018-12-13 18:18:02 GMT 47.504425 -3.698479 37,000 184 455 -64
2018-12-13 18:17:58 GMT 47.514359 -3.697586 37,000 184 455 -64
2018-12-13 18:17:55 GMT 47.520664 -3.696970 37,000 184 455 -64
2018-12-13 18:17:50 GMT 47.530472 -3.696007 37,000 184 455 -128
2018-12-13 18:17:45 GMT 47.542915 -3.694787 37,025 184 454 0
2018-12-13 18:17:40 GMT 47.553764 -3.693730 37,025 184 455 -128
2018-12-13 18:17:35 GMT 47.562748 -3.692885 37,050 184 454 -128
2018-12-13 18:17:29 GMT 47.577366 -3.691477 37,050 184 454 0
2018-12-13 18:17:24 GMT 47.584213 -3.690788 37,050 184 454 0
2018-12-13 18:17:20 GMT 47.596127 -3.689575 37,050 184 454 0
2018-12-13 18:17:17 GMT 47.600327 -3.689209 37,050 184 454 64
2018-12-13 18:17:14 GMT 47.607056 -3.688522 37,050 184 455 64
2018-12-13 18:17:10 GMT 47.614140 -3.687815 37,050 184 455 0
2018-12-13 18:17:07 GMT 47.620468 -3.687218 37,025 184 453 64
2018-12-13 18:17:04 GMT 47.629688 -3.686265 37,050 184 455 0
2018-12-13 18:16:59 GMT 47.636993 -3.685570 37,050 184 455 0
2018-12-13 18:16:56 GMT 47.645054 -3.684716 37,050 184 454 0
2018-12-13 18:16:53 GMT 47.650406 -3.684196 37,050 184 454 0
2018-12-13 18:16:49 GMT 47.657528 -3.683519 37,050 184 454 64
2018-12-13 18:16:46 GMT 47.666931 -3.682603 37,050 184 454 64
2018-12-13 18:16:43 GMT 47.671867 -3.682110 37,025 184 454 64
2018-12-13 18:16:39 GMT 47.679932 -3.681381 37,050 184 454 64
2018-12-13 18:16:35 GMT 47.687973 -3.680561 37,025 184 454 128
2018-12-13 18:16:32 GMT 47.693344 -3.680077 37,025 184 454 64
2018-12-13 18:16:27 GMT 47.704498 -3.679011 37,025 184 454 0
2018-12-13 18:16:24 GMT 47.711975 -3.678291 37,025 184 454 64
2018-12-13 18:16:21 GMT 47.716137 -3.677885 37,025 184 454 64
2018-12-13 18:16:18 GMT 47.723282 -3.677193 37,025 184 454 64
2018-12-13 18:16:14 GMT 47.731312 -3.676476 37,025 184 453 64
2018-12-13 18:16:11 GMT 47.738525 -3.675819 37,025 184 454 0
2018-12-13 18:16:08 GMT 47.744766 -3.675208 37,025 184 453 64
2018-12-13 18:16:05 GMT 47.752808 -3.674446 37,025 184 453 64
2018-12-13 18:16:01 GMT 47.759991 -3.673730 37,025 184 453 0
2018-12-13 18:15:57 GMT 47.767090 -3.673073 37,025 184 453 64
2018-12-13 18:15:53 GMT 47.777802 -3.671974 37,025 184 453 -64
2018-12-13 18:15:50 GMT 47.781418 -3.671631 37,025 184 452 0
2018-12-13 18:15:46 GMT 47.788990 -3.670913 37,025 184 452 64
2018-12-13 18:15:42 GMT 47.799187 -3.669927 37,025 184 451 64
2018-12-13 18:15:38 GMT 47.806274 -3.669228 37,000 184 451 128
2018-12-13 18:15:35 GMT 47.813431 -3.668518 37,000 184 451 64
2018-12-13 18:15:32 GMT 47.820511 -3.667854 37,000 184 451 64
2018-12-13 18:15:29 GMT 47.825455 -3.667374 37,000 184 451 64
2018-12-13 18:15:26 GMT 47.832516 -3.666687 37,000 184 449 128
2018-12-13 18:15:23 GMT 47.838730 -3.666069 37,000 184 450 64
2018-12-13 18:15:19 GMT 47.847153 -3.665245 36,975 184 449 64
2018-12-13 18:15:14 GMT 47.863102 -3.663659 36,975 184 449 128
2018-12-13 18:15:11 GMT 47.868408 -3.663166 36,975 184 449 128
2018-12-13 18:15:04 GMT 47.878094 -3.662250 36,950 184 449 64
2018-12-13 18:15:01 GMT 47.889999 -3.661057 36,950 184 448 64
2018-12-13 18:14:51 GMT 47.904579 -3.659715 36,950 184 448 0
2018-12-13 18:14:48 GMT 47.911236 -3.659081 36,950 184 448 -64
2018-12-13 18:14:43 GMT 47.921814 -3.657967 36,975 184 446 64
2018-12-13 18:14:40 GMT 47.927067 -3.657461 36,975 184 446 64
2018-12-13 18:14:37 GMT 47.934174 -3.656799 36,950 184 446 128
2018-12-13 18:14:33 GMT 47.944931 -3.655701 36,950 184 446 0
2018-12-13 18:14:29 GMT 47.949039 -3.655278 36,950 184 446 0
2018-12-13 18:14:26 GMT 47.955231 -3.654671 36,950 184 446 0
2018-12-13 18:14:21 GMT 47.967041 -3.653503 36,950 184 445 0
2018-12-13 18:14:16 GMT 47.976654 -3.652542 36,975 184 444 -64
2018-12-13 18:14:13 GMT 47.983627 -3.651827 36,950 184 444 -128
2018-12-13 18:14:10 GMT 47.988468 -3.651405 36,950 184 444 -64
2018-12-13 18:14:07 GMT 48.004204 -3.649855 36,975 184 444 -64
2018-12-13 18:14:03 GMT 48.004204 -3.649855 37,000 184 442 -128
2018-12-13 18:14:00 GMT 48.009430 -3.649315 36,950 184 444 -128
2018-12-13 18:13:55 GMT 48.019501 -3.648285 37,000 184 443 -128
2018-12-13 18:13:52 GMT 48.028152 -3.647461 37,000 184 443 -128
2018-12-13 18:13:47 GMT 48.035995 -3.646686 37,000 184 442 0
2018-12-13 18:13:44 GMT 48.042114 -3.646088 37,000 184 441 -64
2018-12-13 18:13:41 GMT 48.048660 -3.645401 37,000 184 441 -64
2018-12-13 18:13:38 GMT 48.053467 -3.644989 37,000 184 441 -64
2018-12-13 18:13:34 GMT 48.063881 -3.643940 37,000 184 441 0
2018-12-13 18:13:31 GMT 48.070816 -3.643272 37,000 184 441 0
2018-12-13 18:13:28 GMT 48.074310 -3.642883 37,000 184 441 -64
2018-12-13 18:13:24 GMT 48.082947 -3.642036 37,000 184 441 0
2018-12-13 18:13:21 GMT 48.088181 -3.641545 37,000 184 441 64
2018-12-13 18:13:17 GMT 48.095993 -3.640800 37,000 184 441 0
2018-12-13 18:13:13 GMT 48.104324 -3.639977 37,000 184 441 0
2018-12-13 18:13:10 GMT 48.112152 -3.639221 37,000 184 441 0
2018-12-13 18:13:07 GMT 48.117371 -3.638672 37,000 184 441 64
2018-12-13 18:13:01 GMT 48.129101 -3.637531 37,000 184 442 0
2018-12-13 18:12:57 GMT 48.139854 -3.636404 37,000 184 442 64
2018-12-13 18:12:50 GMT 48.152565 -3.635137 37,000 184 441 0
2018-12-13 18:12:46 GMT 48.159439 -3.634483 37,000 184 441 128
2018-12-13 18:12:41 GMT 48.172760 -3.633094 37,025 184 441 64
2018-12-13 18:12:38 GMT 48.177246 -3.632672 37,000 184 441 0
2018-12-13 18:12:33 GMT 48.190979 -3.631263 37,000 185 441 128
2018-12-13 18:12:30 GMT 48.193634 -3.630981 37,000 184 439 -64
2018-12-13 18:12:27 GMT 48.200653 -3.630259 36,975 184 441 0
2018-12-13 18:12:24 GMT 48.205681 -3.629753 37,000 184 441 0
2018-12-13 18:12:21 GMT 48.210571 -3.629221 37,000 184 440 0
2018-12-13 18:12:18 GMT 48.217552 -3.628524 37,000 184 440 -64
2018-12-13 18:12:15 GMT 48.222702 -3.627953 37,000 184 439 0
2018-12-13 18:12:10 GMT 48.233505 -3.626897 37,000 184 438 -64
2018-12-13 18:12:06 GMT 48.243435 -3.625922 37,000 184 438 64
2018-12-13 18:12:02 GMT 48.248180 -3.625416 37,000 184 437 -128
2018-12-13 18:11:59 GMT 48.256577 -3.624643 37,000 184 437 -64
2018-12-13 18:11:55 GMT 48.262798 -3.624043 37,000 184 437 -64
2018-12-13 18:11:52 GMT 48.270061 -3.623320 37,000 184 438 0
2018-12-13 18:11:49 GMT 48.285564 -3.621802 37,000 184 446 0
2018-12-13 18:11:44 GMT 48.285564 -3.621802 37,000 184 437 0
2018-12-13 18:11:41 GMT 48.297714 -3.620646 37,000 184 438 0
2018-12-13 18:11:38 GMT 48.297714 -3.620646 37,000 184 446 0
2018-12-13 18:11:34 GMT 48.305862 -3.619851 37,000 184 439 -64
2018-12-13 18:11:31 GMT 48.312378 -3.619200 37,000 184 439 -64
2018-12-13 18:11:27 GMT 48.321037 -3.618333 37,000 184 446 0
2018-12-13 18:11:24 GMT 48.326622 -3.617827 37,000 184 440 -64
2018-12-13 18:11:19 GMT 48.337051 -3.616756 37,025 184 441 -128
2018-12-13 18:11:16 GMT 48.342682 -3.616263 37,025 184 441 -128
2018-12-13 18:11:12 GMT 48.352295 -3.615277 37,025 184 443 0
2018-12-13 18:11:09 GMT 48.362793 -3.614285 37,025 184 443 128
2018-12-13 18:11:02 GMT 48.371475 -3.613446 37,000 184 446 64
2018-12-13 18:10:58 GMT 48.379349 -3.612741 37,000 184 451 0
2018-12-13 18:10:55 GMT 48.385941 -3.612107 37,000 184 448 -64
2018-12-13 18:10:47 GMT 48.403702 -3.610347 37,025 184 450 -192
2018-12-13 18:10:43 GMT 48.411163 -3.609572 37,025 184 451 64
2018-12-13 18:10:37 GMT 48.422333 -3.608503 37,050 184 451 -64
2018-12-13 18:10:34 GMT 48.429428 -3.607741 37,050 184 451 -64
2018-12-13 18:10:30 GMT 48.437851 -3.606896 37,050 184 451 -64
2018-12-13 18:10:27 GMT 48.444534 -3.606262 37,050 184 451 -64
2018-12-13 18:10:24 GMT 48.453278 -3.605347 37,050 184 451 0
2018-12-13 18:10:19 GMT 48.460506 -3.604672 37,075 184 451 64
2018-12-13 18:10:15 GMT 48.469025 -3.603805 37,075 184 451 64
2018-12-13 18:10:09 GMT 48.481457 -3.602576 37,050 184 443 64
2018-12-13 18:10:06 GMT 48.487183 -3.601998 37,050 184 450 64
2018-12-13 18:10:03 GMT 48.503147 -3.600408 37,050 184 450 64
2018-12-13 18:09:59 GMT 48.503147 -3.600408 37,050 184 450 0
2018-12-13 18:09:54 GMT 48.512039 -3.599540 37,050 184 451 0
2018-12-13 18:09:51 GMT 48.519104 -3.598797 37,050 184 450 0
2018-12-13 18:09:45 GMT 48.530663 -3.597589 37,050 184 450 64
2018-12-13 18:09:42 GMT 48.537785 -3.596866 37,050 184 448 64
2018-12-13 18:09:39 GMT 48.543880 -3.596215 37,050 184 449 128
2018-12-13 18:09:35 GMT 48.558453 -3.594698 37,025 184 448 128
2018-12-13 18:09:32 GMT 48.558453 -3.594698 37,025 185 448 128
2018-12-13 18:09:28 GMT 48.569046 -3.593586 37,000 184 447 128
2018-12-13 18:09:25 GMT 48.573029 -3.593163 37,025 184 448 0
2018-12-13 18:09:22 GMT 48.577881 -3.592670 37,025 184 448 64
2018-12-13 18:09:19 GMT 48.585777 -3.591807 37,000 184 447 64
2018-12-13 18:09:15 GMT 48.593227 -3.591084 37,000 184 447 64
2018-12-13 18:09:10 GMT 48.604248 -3.589924 37,000 184 444 64
2018-12-13 18:09:07 GMT 48.609512 -3.589360 37,000 184 444 64
2018-12-13 18:09:03 GMT 48.618942 -3.588445 37,000 184 444 64
2018-12-13 18:09:00 GMT 48.625256 -3.587831 37,000 184 444 0
2018-12-13 18:08:57 GMT 48.631821 -3.587181 37,000 184 443 64
2018-12-13 18:08:52 GMT 48.640106 -3.586313 37,000 184 443 0
2018-12-13 18:08:49 GMT 48.646225 -3.585698 36,975 184 439 64
2018-12-13 18:08:44 GMT 48.657516 -3.584579 36,975 184 441 0
2018-12-13 18:08:39 GMT 48.667511 -3.583585 37,000 185 428 -64
2018-12-13 18:08:35 GMT 48.674927 -3.582881 37,000 184 440 0
2018-12-13 18:08:31 GMT 48.682747 -3.582121 37,000 184 439 64
2018-12-13 18:08:28 GMT 48.690010 -3.581398 37,000 184 439 64
2018-12-13 18:08:22 GMT 48.702164 -3.580134 36,975 184 438 64
2018-12-13 18:08:18 GMT 48.710312 -3.579360 36,975 184 438 64
2018-12-13 18:08:15 GMT 48.715485 -3.578796 36,975 184 438 128
2018-12-13 18:08:12 GMT 48.722363 -3.578074 36,950 184 438 64
2018-12-13 18:08:08 GMT 48.732285 -3.577106 36,950 184 436 64
2018-12-13 18:08:02 GMT 48.741730 -3.576122 36,950 184 436 64
2018-12-13 18:07:58 GMT 48.749458 -3.575327 36,950 184 436 0
2018-12-13 18:07:55 GMT 48.756363 -3.574641 36,950 185 428 -64
2018-12-13 18:07:52 GMT 48.761078 -3.574148 36,950 184 435 0
2018-12-13 18:07:49 GMT 48.768311 -3.573444 36,950 184 434 0
2018-12-13 18:07:46 GMT 48.774315 -3.572870 36,950 184 434 0
2018-12-13 18:07:42 GMT 48.781998 -3.572106 36,950 184 433 0
2018-12-13 18:07:39 GMT 48.793945 -3.570979 36,950 184 432 0
2018-12-13 18:07:32 GMT 48.802479 -3.570123 36,950 184 432 64
2018-12-13 18:07:28 GMT 48.812489 -3.569183 36,950 184 431 0
2018-12-13 18:07:25 GMT 48.815235 -3.568894 36,950 184 431 0
2018-12-13 18:07:22 GMT 48.821960 -3.568233 36,950 184 431 -64
2018-12-13 18:07:19 GMT 48.828735 -3.567593 36,950 184 430 -64
2018-12-13 18:07:15 GMT 48.837708 -3.566683 36,950 184 430 -128
2018-12-13 18:07:12 GMT 48.847031 -3.565786 36,975 184 429 -64
2018-12-13 18:07:06 GMT 48.852905 -3.565275 36,975 184 429 -64
2018-12-13 18:07:01 GMT 48.863892 -3.564148 36,975 184 429 -64
2018-12-13 18:06:56 GMT 48.875984 -3.562967 36,975 184 428 0
2018-12-13 18:06:53 GMT 48.879959 -3.562599 36,975 184 428 0
2018-12-13 18:06:50 GMT 48.884537 -3.562106 36,975 184 428 0
2018-12-13 18:06:47 GMT 48.891350 -3.561377 36,975 184 428 0
2018-12-13 18:06:44 GMT 48.896793 -3.560871 36,975 184 428 0
2018-12-13 18:06:40 GMT 48.904755 -3.560004 36,975 184 427 0
2018-12-13 18:06:35 GMT 48.914856 -3.558920 36,975 185 428 0
2018-12-13 18:06:29 GMT 48.925797 -3.557763 36,975 185 428 -64
2018-12-13 18:06:25 GMT 48.933758 -3.556896 36,975 185 428 -64
2018-12-13 18:06:19 GMT 48.946373 -3.555595 36,975 185 427 0
2018-12-13 18:06:14 GMT 48.956055 -3.554583 36,975 185 427 0
2018-12-13 18:06:08 GMT 48.966995 -3.553427 36,975 185 428 0
2018-12-13 18:06:05 GMT 48.974579 -3.552598 37,000 185 427 0
2018-12-13 18:05:58 GMT 48.987167 -3.551190 37,000 185 427 -64
2018-12-13 18:05:54 GMT 48.995998 -3.550246 37,000 185 427 0
2018-12-13 18:05:51 GMT 49.001816 -3.549668 37,000 185 427 64
2018-12-13 18:05:48 GMT 49.009357 -3.548873 37,000 185 427 64
2018-12-13 18:05:45 GMT 49.015644 -3.548223 36,975 184 426 64
2018-12-13 18:05:42 GMT 49.018661 -3.547880 36,975 184 426 64
2018-12-13 18:05:39 GMT 49.025757 -3.547175 37,000 184 427 0
2018-12-13 18:05:35 GMT 49.032494 -3.546488 36,975 184 426 0
2018-12-13 18:05:32 GMT 49.039215 -3.545837 37,000 184 428 0
2018-12-13 18:05:27 GMT 49.049671 -3.544826 37,000 184 427 -64
2018-12-13 18:05:24 GMT 49.055603 -3.544218 37,000 184 429 0
2018-12-13 18:05:21 GMT 49.059402 -3.543865 37,000 184 427 -64
2018-12-13 18:05:17 GMT 49.075378 -3.542246 37,000 184 427 0
2018-12-13 18:05:14 GMT 49.075378 -3.542246 37,000 184 427 0
2018-12-13 18:05:11 GMT 49.079956 -3.541823 37,000 184 427 0
2018-12-13 18:05:08 GMT 49.085495 -3.541260 37,000 184 427 0
2018-12-13 18:05:04 GMT 49.096298 -3.540203 37,000 184 427 0
2018-12-13 18:05:01 GMT 49.100601 -3.539781 37,000 184 429 0
2018-12-13 18:04:58 GMT 49.106049 -3.539217 37,000 184 428 0
2018-12-13 18:04:54 GMT 49.115387 -3.538231 37,000 184 428 0
2018-12-13 18:04:50 GMT 49.121246 -3.537668 37,000 184 428 0
2018-12-13 18:04:46 GMT 49.129669 -3.536753 37,000 184 428 0
2018-12-13 18:04:43 GMT 49.136398 -3.536080 37,000 184 428 0
2018-12-13 18:04:39 GMT 49.143951 -3.535344 37,000 184 428 0
2018-12-13 18:04:36 GMT 49.151573 -3.534562 37,000 184 429 0
2018-12-13 18:04:31 GMT 49.159149 -3.533795 37,000 184 429 0
2018-12-13 18:04:27 GMT 49.168056 -3.532900 37,000 184 429 0
2018-12-13 18:04:23 GMT 49.177784 -3.531888 37,000 184 430 0
2018-12-13 18:04:19 GMT 49.183640 -3.531259 37,000 184 429 0
2018-12-13 18:04:16 GMT 49.188725 -3.530803 37,000 184 429 0
2018-12-13 18:04:13 GMT 49.196823 -3.529936 37,000 184 430 64
2018-12-13 18:04:07 GMT 49.208649 -3.528707 37,000 184 430 0
2018-12-13 18:04:04 GMT 49.213303 -3.528274 37,000 184 430 0
2018-12-13 18:04:01 GMT 49.218796 -3.527696 37,000 184 430 0
2018-12-13 18:03:58 GMT 49.224747 -3.527034 37,000 184 430 -64
2018-12-13 18:03:54 GMT 49.237885 -3.525672 37,000 184 430 0
2018-12-13 18:03:50 GMT 49.240814 -3.525414 37,000 184 430 0
2018-12-13 18:03:47 GMT 49.246353 -3.524851 37,000 184 430 0
2018-12-13 18:03:44 GMT 49.254780 -3.523937 37,025 184 431 0
2018-12-13 18:03:41 GMT 49.258598 -3.523576 37,000 184 431 0
2018-12-13 18:03:38 GMT 49.265396 -3.522808 37,000 184 431 0
2018-12-13 18:03:35 GMT 49.271309 -3.522202 37,000 184 431 64
2018-12-13 18:03:30 GMT 49.280663 -3.521190 37,000 184 430 64
2018-12-13 18:03:26 GMT 49.288284 -3.520414 37,000 184 430 64
2018-12-13 18:03:23 GMT 49.294167 -3.519817 37,000 184 430 0
2018-12-13 18:03:20 GMT 49.299706 -3.519239 37,000 184 430 0
2018-12-13 18:03:16 GMT 49.310669 -3.518160 37,000 184 429 0
2018-12-13 18:03:11 GMT 49.318279 -3.517432 37,000 184 428 0
2018-12-13 18:03:08 GMT 49.322933 -3.516926 37,000 184 428 0
2018-12-13 18:03:05 GMT 49.331772 -3.516048 37,000 184 427 0
2018-12-13 18:03:02 GMT 49.337692 -3.515408 37,000 184 426 0
2018-12-13 18:02:59 GMT 49.340996 -3.515119 37,000 184 422 128
2018-12-13 18:02:56 GMT 49.354797 -3.513724 37,000 184 425 64
2018-12-13 18:02:53 GMT 49.354797 -3.513724 37,000 184 424 0
2018-12-13 18:02:50 GMT 49.358173 -3.513457 37,000 184 423 64
2018-12-13 18:02:47 GMT 49.371487 -3.512083 37,000 184 419 -64
2018-12-13 18:02:44 GMT 49.378098 -3.511470 37,000 184 419 -64
2018-12-13 18:02:41 GMT 49.378098 -3.511470 37,025 184 413 192
2018-12-13 18:02:38 GMT 49.383453 -3.510907 37,000 184 418 -64
2018-12-13 18:02:33 GMT 49.394852 -3.509709 37,000 184 413 192
2018-12-13 18:02:30 GMT 49.398720 -3.509337 37,000 184 416 -64
2018-12-13 18:02:27 GMT 49.404373 -3.508794 37,000 184 413 64
2018-12-13 18:02:23 GMT 49.412174 -3.507963 37,000 184 413 64
2018-12-13 18:02:20 GMT 49.417877 -3.507385 36,950 184 411 448
2018-12-13 18:02:17 GMT 49.430424 -3.506123 36,950 184 411 640
2018-12-13 18:02:13 GMT 49.430424 -3.506123 36,925 184 410 832
2018-12-13 18:02:10 GMT 49.437698 -3.505434 36,850 184 410 1152
2018-12-13 18:02:06 GMT 49.443272 -3.504861 36,825 184 410 1280
2018-12-13 18:02:03 GMT 49.451385 -3.503988 36,725 184 411 1472
2018-12-13 18:01:59 GMT 49.457844 -3.503302 36,575 185 413 1408
2018-12-13 18:01:55 GMT 49.464779 -3.502560 36,575 185 414 1408
2018-12-13 18:01:52 GMT 49.473175 -3.501675 36,000 185 419 2112
2018-12-13 18:01:49 GMT 49.477814 -3.501150 36,325 185 415 1728
2018-12-13 18:01:45 GMT 49.486221 -3.500302 36,300 184 416 1856
2018-12-13 18:01:41 GMT 49.491669 -3.499724 36,175 184 417 1920
2018-12-13 18:01:38 GMT 49.498672 -3.498929 35,925 184 421 1984
2018-12-13 18:01:34 GMT 49.505234 -3.498255 35,950 185 419 2112
2018-12-13 18:01:30 GMT 49.513054 -3.497364 35,800 184 421 1984
2018-12-13 18:01:27 GMT 49.518036 -3.496833 35,700 184 422 1920
2018-12-13 18:01:24 GMT 49.523899 -3.496250 35,625 185 424 2048
2018-12-13 18:01:19 GMT 49.534283 -3.495137 35,275 185 426 2304
2018-12-13 18:01:14 GMT 49.544334 -3.494024 35,050 185 429 1408
2018-12-13 18:01:11 GMT 49.555325 -3.492836 35,100 184 428 1024
2018-12-13 18:01:04 GMT 49.565781 -3.491773 35,050 184 428 448
2018-12-13 18:00:59 GMT 49.575947 -3.490757 35,025 184 425 64
2018-12-13 18:00:55 GMT 49.580555 -3.490312 35,000 184 424 0
2018-12-13 18:00:52 GMT 49.586838 -3.489718 35,000 184 421 256
2018-12-13 18:00:49 GMT 49.594707 -3.488901 35,000 184 420 384
2018-12-13 18:00:46 GMT 49.600151 -3.488382 34,900 184 418 896
2018-12-13 18:00:41 GMT 49.610722 -3.487268 34,725 184 419 1024
2018-12-13 18:00:38 GMT 49.614117 -3.486897 34,850 184 418 1024
2018-12-13 18:00:35 GMT 49.628952 -3.485268 34,750 185 404 320
2018-12-13 18:00:31 GMT 49.628952 -3.485268 34,750 184 419 1088
2018-12-13 18:00:28 GMT 49.635532 -3.484596 34,700 184 419 1088
2018-12-13 18:00:25 GMT 49.640533 -3.484039 34,600 184 418 1024
2018-12-13 18:00:22 GMT 49.644142 -3.483705 34,600 184 418 768
2018-12-13 18:00:19 GMT 49.658844 -3.482088 34,550 184 417 768
2018-12-13 18:00:16 GMT 49.663418 -3.481627 34,500 184 415 704
2018-12-13 18:00:13 GMT 49.663418 -3.481627 34,475 185 415 640
2018-12-13 18:00:08 GMT 49.681759 -3.479697 34,375 184 412 1024
2018-12-13 18:00:04 GMT 49.681759 -3.479697 34,375 184 412 960
2018-12-13 18:00:00 GMT 49.687019 -3.479103 34,300 184 412 1024
2018-12-13 17:59:53 GMT 49.699677 -3.477823 34,125 185 412 640
2018-12-13 17:59:50 GMT 49.706543 -3.477101 34,100 185 404 320
2018-12-13 17:59:47 GMT 49.719093 -3.475762 34,125 185 410 320
2018-12-13 17:59:44 GMT 49.719093 -3.475762 34,075 184 405 256
2018-12-13 17:59:40 GMT 49.725952 -3.475004 34,075 185 404 320
2018-12-13 17:59:37 GMT 49.733414 -3.474209 34,075 184 406 192
2018-12-13 17:59:34 GMT 49.736710 -3.473848 34,075 184 403 320
2018-12-13 17:59:31 GMT 49.744324 -3.473016 34,050 185 404 320
2018-12-13 17:59:28 GMT 49.749710 -3.472402 33,975 185 400 640
2018-12-13 17:59:25 GMT 49.755798 -3.471752 34,000 185 401 576
2018-12-13 17:59:21 GMT 49.763123 -3.470885 34,000 185 401 512
2018-12-13 17:59:18 GMT 49.766808 -3.470492 33,925 185 397 896
2018-12-13 17:59:14 GMT 49.772675 -3.469824 33,900 184 399 2240
2018-12-13 17:59:11 GMT 49.778915 -3.469150 33,825 184 397 1664
2018-12-13 17:59:07 GMT 49.786316 -3.468413 30,975 192 433 64
2018-12-13 17:59:03 GMT 49.794159 -3.467560 33,500 184 399 2176
2018-12-13 17:59:00 GMT 49.800419 -3.466929 33,425 184 400 2176
2018-12-13 17:58:57 GMT 49.810364 -3.465897 33,200 185 404 2112
2018-12-13 17:58:54 GMT 49.810364 -3.465897 33,100 185 405 2240
2018-12-13 17:58:51 GMT 49.815876 -3.465444 33,125 184 403 1472
2018-12-13 17:58:48 GMT 49.824207 -3.464553 33,050 185 404 1920
2018-12-13 17:58:45 GMT 49.832958 -3.463588 32,975 185 404 2112
2018-12-13 17:58:41 GMT 49.836124 -3.463217 32,775 185 406 2496
2018-12-13 17:58:37 GMT 49.842545 -3.462573 31,500 184 410 2432
2018-12-13 17:58:33 GMT 49.852020 -3.461561 32,425 184 409 2624
2018-12-13 17:58:30 GMT 49.855316 -3.461199 32,350 184 410 2432
2018-12-13 17:58:27 GMT 49.861404 -3.460549 32,175 184 412 2560
2018-12-13 17:58:24 GMT 49.866245 -3.460025 32,100 184 413 2624
2018-12-13 17:58:20 GMT 49.874809 -3.459134 31,900 184 415 2112
2018-12-13 17:58:15 GMT 49.884247 -3.458164 31,725 184 417 1792
2018-12-13 17:58:12 GMT 49.889557 -3.457585 31,600 185 417 1728
2018-12-13 17:58:09 GMT 49.899307 -3.456501 31,525 184 423 896
2018-12-13 17:58:06 GMT 49.901825 -3.456212 31,425 184 418 1984
2018-12-13 17:58:02 GMT 49.912891 -3.454977 31,300 184 420 1408
2018-12-13 17:57:58 GMT 49.916656 -3.454622 31,125 184 423 896
2018-12-13 17:57:54 GMT 49.924110 -3.453864 31,125 184 422 1152
2018-12-13 17:57:51 GMT 49.930435 -3.453176 31,050 184 425 448
2018-12-13 17:57:48 GMT 49.936630 -3.452528 30,975 184 427 320
2018-12-13 17:57:45 GMT 49.944126 -3.451786 31,000 184 427 320
2018-12-13 17:57:42 GMT 49.948456 -3.451414 30,975 184 428 256
2018-12-13 17:57:39 GMT 49.953064 -3.450969 30,975 184 430 -64
2018-12-13 17:57:35 GMT 49.963715 -3.449996 31,000 184 431 -192
2018-12-13 17:57:32 GMT 49.972641 -3.449201 31,000 184 431 -64
2018-12-13 17:57:26 GMT 49.988297 -3.447828 31,025 184 430 -64
2018-12-13 17:57:22 GMT 49.988297 -3.447828 31,025 184 429 -64
2018-12-13 17:57:19 GMT 49.995056 -3.447109 31,025 184 430 -64
2018-12-13 17:57:15 GMT 50.003948 -3.446144 31,025 186 430 0
2018-12-13 17:57:12 GMT 50.008602 -3.445476 31,000 187 431 -64
2018-12-13 17:57:08 GMT 50.015816 -3.444214 30,975 188 431 0
2018-12-13 17:57:03 GMT 50.025055 -3.441973 31,000 191 432 192
2018-12-13 17:56:59 GMT 50.032562 -3.439877 31,000 192 435 -64
2018-12-13 17:56:56 GMT 50.042221 -3.436914 30,975 192 435 -256
2018-12-13 17:56:53 GMT 50.044727 -3.436123 31,000 192 436 -192
2018-12-13 17:56:48 GMT 50.057343 -3.432263 31,025 192 433 64
2018-12-13 17:56:44 GMT 50.062775 -3.430553 31,025 192 433 64
2018-12-13 17:56:41 GMT 50.070747 -3.428031 31,025 192 433 64
2018-12-13 17:56:37 GMT 50.076645 -3.426217 31,000 192 433 64
2018-12-13 17:56:33 GMT 50.084156 -3.423874 31,025 192 433 64
2018-12-13 17:56:30 GMT 50.091660 -3.421518 31,000 192 433 0
2018-12-13 17:56:26 GMT 50.097107 -3.419856 31,000 192 435 -128
2018-12-13 17:56:23 GMT 50.103848 -3.417787 31,000 192 434 64
2018-12-13 17:56:20 GMT 50.109695 -3.416025 31,000 192 435 -128
2018-12-13 17:56:17 GMT 50.120682 -3.412700 31,000 192 436 -128
2018-12-13 17:56:11 GMT 50.127403 -3.410587 31,025 192 435 -64
2018-12-13 17:56:08 GMT 50.139229 -3.406949 31,025 191 434 64
2018-12-13 17:56:02 GMT 50.145950 -3.404967 31,025 192 435 0
2018-12-13 17:55:59 GMT 50.151443 -3.403232 31,025 191 434 -64
2018-12-13 17:55:55 GMT 50.158966 -3.401011 31,025 191 436 128
2018-12-13 17:55:52 GMT 50.165771 -3.398968 31,025 191 436 -64
2018-12-13 17:55:49 GMT 50.171219 -3.397305 31,000 192 437 128
2018-12-13 17:55:46 GMT 50.177166 -3.395518 31,000 192 438 192
2018-12-13 17:55:43 GMT 50.190262 -3.391523 30,975 191 441 -128
2018-12-13 17:55:40 GMT 50.190262 -3.391523 30,975 192 440 -192
2018-12-13 17:55:34 GMT 50.202633 -3.387798 31,000 191 441 64
2018-12-13 17:55:30 GMT 50.212006 -3.384946 31,000 191 440 256
2018-12-13 17:55:26 GMT 50.218414 -3.383066 30,975 191 440 384
2018-12-13 17:55:21 GMT 50.228935 -3.379929 30,950 192 441 256
2018-12-13 17:55:18 GMT 50.233749 -3.378440 30,975 191 441 960
2018-12-13 17:55:15 GMT 50.238895 -3.376885 30,950 191 441 704
2018-12-13 17:55:11 GMT 50.246948 -3.374436 30,900 191 442 512
2018-12-13 17:55:08 GMT 50.253372 -3.372506 30,725 192 445 1856
2018-12-13 17:55:05 GMT 50.261353 -3.370056 30,350 192 440 1472
2018-12-13 17:55:01 GMT 50.269199 -3.367681 30,750 192 440 1728
2018-12-13 17:54:58 GMT 50.273811 -3.366270 30,575 191 441 2432
2018-12-13 17:54:52 GMT 50.284012 -3.363117 30,425 192 444 2304
2018-12-13 17:54:49 GMT 50.292198 -3.360629 30,325 192 443 2432
2018-12-13 17:54:46 GMT 50.296829 -3.359214 30,000 192 445 1856
2018-12-13 17:54:43 GMT 50.303791 -3.357140 30,100 192 445 1856
2018-12-13 17:54:40 GMT 50.308445 -3.355655 29,975 192 446 1728
2018-12-13 17:54:36 GMT 50.316685 -3.353131 29,900 192 446 1664
2018-12-13 17:54:33 GMT 50.324459 -3.350756 29,800 192 446 1728
2018-12-13 17:54:29 GMT 50.332653 -3.348232 29,725 192 447 2176
2018-12-13 17:54:26 GMT 50.336933 -3.346896 29,225 192 458 2624
2018-12-13 17:54:23 GMT 50.346039 -3.344108 29,225 192 453 2112
2018-12-13 17:54:20 GMT 50.350845 -3.342663 29,275 192 450 2624
2018-12-13 17:54:17 GMT 50.358536 -3.340289 29,100 192 452 2304
2018-12-13 17:54:13 GMT 50.365677 -3.338109 29,050 192 453 2112
2018-12-13 17:54:10 GMT 50.370125 -3.336726 28,875 192 454 1984
2018-12-13 17:54:07 GMT 50.376690 -3.334648 28,575 192 455 1664
2018-12-13 17:54:04 GMT 50.381996 -3.333014 28,525 192 455 1600
2018-12-13 17:54:01 GMT 50.387676 -3.331233 28,625 192 455 1664
2018-12-13 17:53:58 GMT 50.395172 -3.328932 28,525 192 455 1664
2018-12-13 17:53:55 GMT 50.400467 -3.327267 28,150 192 456 1792
2018-12-13 17:53:52 GMT 50.408394 -3.324849 28,000 192 457 2432
2018-12-13 17:53:48 GMT 50.415840 -3.322548 28,250 192 456 1920
2018-12-13 17:53:45 GMT 50.429108 -3.318391 28,125 192 457 2048
2018-12-13 17:53:42 GMT 50.429108 -3.318391 27,825 192 465 1920
2018-12-13 17:53:38 GMT 50.436230 -3.316238 27,975 192 458 2560
2018-12-13 17:53:35 GMT 50.442886 -3.314159 27,725 192 460 2688
2018-12-13 17:53:31 GMT 50.455856 -3.310210 26,625 192 461 2624
2018-12-13 17:53:28 GMT 50.455856 -3.310210 27,400 192 463 2432
2018-12-13 17:53:25 GMT 50.468811 -3.306234 27,225 192 464 2112
2018-12-13 17:53:19 GMT 50.483250 -3.301763 27,025 192 466 1664
2018-12-13 17:53:15 GMT 50.483250 -3.301763 27,025 192 466 1344
2018-12-13 17:53:12 GMT 50.490417 -3.299512 26,725 192 465 1088
2018-12-13 17:53:09 GMT 50.497585 -3.297309 26,900 192 465 1088
2018-12-13 17:53:05 GMT 50.509224 -3.293746 26,775 192 464 1024
2018-12-13 17:53:02 GMT 50.512016 -3.292855 26,750 192 461 1344
2018-12-13 17:52:58 GMT 50.524448 -3.288995 26,675 192 462 960
2018-12-13 17:52:55 GMT 50.527241 -3.288104 26,650 192 462 1024
2018-12-13 17:52:51 GMT 50.535278 -3.285635 26,425 192 446 1536
2018-12-13 17:52:47 GMT 50.543381 -3.283105 26,450 192 461 1408
2018-12-13 17:52:44 GMT 50.548691 -3.281515 26,450 192 461 1408
2018-12-13 17:52:41 GMT 50.556793 -3.279058 26,350 192 460 1408
2018-12-13 17:52:38 GMT 50.562057 -3.277395 26,300 192 460 1536
2018-12-13 17:52:35 GMT 50.569656 -3.275082 26,200 192 460 1664
2018-12-13 17:52:29 GMT 50.581238 -3.271468 26,025 192 460 1792
2018-12-13 17:52:26 GMT 50.587006 -3.269734 25,950 192 460 1856
2018-12-13 17:52:23 GMT 50.593689 -3.267638 25,875 192 460 1792
2018-12-13 17:52:20 GMT 50.600372 -3.265614 25,475 192 460 1280
2018-12-13 17:52:17 GMT 50.604797 -3.264201 25,675 192 461 1728
2018-12-13 17:52:14 GMT 50.613739 -3.261422 25,550 192 461 1536
2018-12-13 17:52:10 GMT 50.620857 -3.259228 25,500 192 461 1344
2018-12-13 17:52:07 GMT 50.626236 -3.257591 25,400 192 457 832
2018-12-13 17:52:04 GMT 50.634216 -3.255071 25,350 192 458 832
2018-12-13 17:51:58 GMT 50.645809 -3.251434 25,275 192 456 832
2018-12-13 17:51:55 GMT 50.652832 -3.249279 25,225 192 455 960
2018-12-13 17:51:52 GMT 50.658600 -3.247472 25,175 192 454 1280
2018-12-13 17:51:49 GMT 50.664322 -3.245665 25,125 192 454 1408
2018-12-13 17:51:46 GMT 50.669968 -3.243936 25,075 192 454 1472
2018-12-13 17:51:43 GMT 50.676636 -3.241858 25,000 192 453 1536
2018-12-13 17:51:40 GMT 50.682724 -3.240002 24,900 192 453 1536
2018-12-13 17:51:36 GMT 50.691757 -3.237152 24,625 192 452 1536
2018-12-13 17:51:33 GMT 50.698505 -3.235092 24,725 192 452 1536
2018-12-13 17:51:30 GMT 50.704185 -3.233337 24,650 192 452 1536
2018-12-13 17:51:26 GMT 50.712067 -3.230871 24,550 192 451 1600
2018-12-13 17:51:22 GMT 50.719482 -3.228570 24,450 192 450 1408
2018-12-13 17:51:19 GMT 50.735607 -3.223495 24,350 192 449 1408
2018-12-13 17:51:16 GMT 50.735607 -3.223495 24,250 192 449 1408
2018-12-13 17:51:12 GMT 50.742405 -3.221359 24,225 192 449 1408
2018-12-13 17:51:09 GMT 50.752506 -3.218231 24,075 192 447 1536
2018-12-13 17:51:03 GMT 50.758575 -3.216322 23,950 192 446 1600
2018-12-13 17:51:00 GMT 50.762890 -3.214951 23,925 192 446 1536
2018-12-13 17:50:57 GMT 50.770245 -3.212662 23,850 192 446 1472
2018-12-13 17:50:54 GMT 50.782745 -3.208676 23,725 192 444 1536
2018-12-13 17:50:48 GMT 50.788723 -3.206787 23,450 192 443 1664
2018-12-13 17:50:45 GMT 50.794357 -3.205032 23,525 192 443 1664
2018-12-13 17:50:41 GMT 50.802887 -3.202366 23,450 192 443 1728
2018-12-13 17:50:38 GMT 50.808472 -3.200585 23,325 192 442 1856
2018-12-13 17:50:35 GMT 50.824291 -3.195648 23,175 192 442 1728
2018-12-13 17:50:31 GMT 50.824291 -3.195648 23,100 192 441 1600
2018-12-13 17:50:28 GMT 50.830307 -3.193755 23,000 192 441 1600
2018-12-13 17:50:25 GMT 50.841339 -3.190266 22,925 192 440 1600
2018-12-13 17:50:22 GMT 50.841339 -3.190266 22,600 192 439 1792
2018-12-13 17:50:19 GMT 50.848171 -3.188095 22,775 192 439 1728
2018-12-13 17:50:16 GMT 50.851593 -3.187000 22,725 192 439 1792
2018-12-13 17:50:13 GMT 50.858364 -3.184891 22,625 192 438 1856
2018-12-13 17:50:10 GMT 50.865143 -3.182769 22,525 192 438 1920
2018-12-13 17:50:07 GMT 50.871075 -3.180847 22,000 192 438 2112
2018-12-13 17:50:03 GMT 50.882034 -3.177424 22,100 192 438 2176
2018-12-13 17:49:59 GMT 50.888397 -3.175420 22,100 192 438 2112
2018-12-13 17:49:56 GMT 50.892197 -3.174232 22,025 192 438 2112
2018-12-13 17:49:53 GMT 50.899052 -3.172073 21,900 192 438 1792
2018-12-13 17:49:50 GMT 50.903664 -3.170624 21,825 192 428 1536
2018-12-13 17:49:47 GMT 50.909592 -3.168813 21,725 192 435 1408
2018-12-13 17:49:44 GMT 50.916824 -3.166512 21,700 192 436 1408
2018-12-13 17:49:41 GMT 50.923538 -3.164368 21,500 192 433 1408
2018-12-13 17:49:37 GMT 50.933899 -3.161093 21,525 192 433 1344
2018-12-13 17:49:34 GMT 50.936508 -3.160277 21,450 192 432 1344
2018-12-13 17:49:31 GMT 50.949516 -3.156204 21,350 192 431 1408
2018-12-13 17:49:28 GMT 50.949516 -3.156204 21,275 192 426 1600
2018-12-13 17:49:25 GMT 50.961105 -3.152542 21,175 192 429 1472
2018-12-13 17:49:22 GMT 50.961105 -3.152542 21,150 192 428 1536
2018-12-13 17:49:19 GMT 50.971024 -3.149513 21,000 191 419 1920
2018-12-13 17:49:16 GMT 50.971024 -3.149513 20,975 192 425 1792
2018-12-13 17:49:13 GMT 50.978748 -3.147049 20,950 192 425 1792
2018-12-13 17:49:10 GMT 50.982513 -3.145876 20,875 192 424 1856
2018-12-13 17:49:07 GMT 50.988293 -3.144150 20,725 191 424 1920
2018-12-13 17:49:04 GMT 50.996346 -3.141632 20,625 191 423 1984
2018-12-13 17:49:01 GMT 51.000229 -3.140457 20,475 191 422 1984
2018-12-13 17:48:58 GMT 51.012035 -3.136902 20,400 191 422 1984
2018-12-13 17:48:55 GMT 51.012035 -3.136902 20,225 191 421 1984
2018-12-13 17:48:49 GMT 51.022697 -3.133774 20,125 191 420 1984
2018-12-13 17:48:46 GMT 51.029633 -3.131714 20,025 191 420 1920
2018-12-13 17:48:42 GMT 51.036118 -3.129842 19,825 190 418 1920
2018-12-13 17:48:39 GMT 51.041874 -3.128204 19,825 191 419 1920
2018-12-13 17:48:36 GMT 51.048340 -3.126427 19,700 190 417 1728
2018-12-13 17:48:33 GMT 51.053604 -3.124942 19,575 190 418 1856
2018-12-13 17:48:30 GMT 51.058914 -3.123458 19,500 190 415 1728
2018-12-13 17:48:26 GMT 51.070503 -3.120346 19,400 190 414 1600
2018-12-13 17:48:23 GMT 51.072227 -3.119888 18,700 190 414 1600
2018-12-13 17:48:20 GMT 51.077820 -3.118336 19,250 190 412 1536
2018-12-13 17:48:17 GMT 51.083862 -3.116777 19,200 190 412 1536
2018-12-13 17:48:13 GMT 51.092239 -3.114550 18,700 189 411 2688
2018-12-13 17:48:10 GMT 51.097504 -3.113214 18,975 190 408 1792
2018-12-13 17:48:07 GMT 51.102997 -3.111725 18,850 190 407 2176
2018-12-13 17:48:04 GMT 51.107758 -3.110467 18,850 190 407 2176
2018-12-13 17:48:00 GMT 51.116867 -3.108017 18,625 190 406 2944
2018-12-13 17:47:57 GMT 51.120781 -3.106918 18,475 191 407 3072
2018-12-13 17:47:54 GMT 51.126694 -3.105240 18,250 191 407 3392
2018-12-13 17:47:50 GMT 51.135445 -3.102722 17,975 191 409 3392
2018-12-13 17:47:47 GMT 51.138199 -3.101930 17,900 190 410 3136
2018-12-13 17:47:44 GMT 51.146851 -3.099629 17,900 190 410 3136
2018-12-13 17:47:41 GMT 51.150970 -3.098590 17,675 189 410 2688
2018-12-13 17:47:38 GMT 51.164913 -3.094940 17,400 191 411 2688
2018-12-13 17:47:34 GMT 51.164913 -3.094940 17,325 191 411 2688
2018-12-13 17:47:29 GMT 51.174088 -3.092058 17,100 193 410 2432
2018-12-13 17:47:26 GMT 51.179214 -3.090276 16,950 195 410 2304
2018-12-13 17:47:23 GMT 51.183563 -3.088643 16,925 195 410 2304
2018-12-13 17:47:20 GMT 51.194382 -3.083344 16,550 204 410 2304
2018-12-13 17:47:14 GMT 51.199314 -3.080139 16,525 205 409 2304
2018-12-13 17:47:11 GMT 51.211140 -3.070450 16,300 212 408 2240
2018-12-13 17:47:07 GMT 51.211140 -3.070450 15,975 220 406 1984
2018-12-13 17:47:04 GMT 51.216770 -3.064499 16,175 218 407 2048
2018-12-13 17:47:01 GMT 51.220734 -3.059915 16,125 218 407 2048
2018-12-13 17:46:58 GMT 51.225906 -3.052937 15,900 225 404 1984
2018-12-13 17:46:55 GMT 51.231018 -3.044891 15,825 228 404 1920
2018-12-13 17:46:52 GMT 51.233459 -3.040689 15,800 253 389 1472
2018-12-13 17:46:47 GMT 51.241539 -3.023682 15,575 238 398 1536
2018-12-13 17:46:44 GMT 51.242615 -3.021018 15,450 244 396 1664
2018-12-13 17:46:41 GMT 51.244812 -3.015005 15,450 248 393 1664
2018-12-13 17:46:38 GMT 51.248615 -3.002853 15,375 247 394 1728
2018-12-13 17:46:35 GMT 51.251862 -2.989543 15,150 252 390 1600
2018-12-13 17:46:32 GMT 51.251862 -2.989543 15,200 252 390 1600
2018-12-13 17:46:29 GMT 51.253967 -2.979050 15,125 253 386 1280
2018-12-13 17:46:25 GMT 51.255920 -2.969284 15,050 253 384 1216
2018-12-13 17:46:22 GMT 51.257538 -2.961187 14,975 253 381 1344
2018-12-13 17:46:19 GMT 51.258434 -2.956543 14,775 253 376 1600
2018-12-13 17:46:16 GMT 51.260468 -2.946340 14,850 253 377 1728
2018-12-13 17:46:13 GMT 51.262020 -2.938461 14,700 253 374 1792
2018-12-13 17:46:10 GMT 51.263351 -2.931642 14,700 253 373 1920
2018-12-13 17:46:07 GMT 51.265640 -2.919988 14,525 253 370 2240
2018-12-13 17:46:04 GMT 51.267105 -2.912713 14,450 253 370 2432
2018-12-13 17:46:01 GMT 51.268707 -2.904622 14,300 253 368 2816
2018-12-13 17:45:57 GMT 51.270493 -2.895584 14,125 253 367 3008
2018-12-13 17:45:54 GMT 51.271454 -2.890666 14,075 253 367 2880
2018-12-13 17:45:51 GMT 51.273651 -2.879606 13,850 253 367 3136
2018-12-13 17:45:48 GMT 51.274963 -2.873001 13,525 253 366 3264
2018-12-13 17:45:45 GMT 51.276535 -2.865279 13,550 253 367 3264
2018-12-13 17:45:41 GMT 51.278183 -2.857039 13,250 253 367 3136
2018-12-13 17:45:38 GMT 51.280014 -2.847760 10,825 267 327 1280
2018-12-13 17:45:34 GMT 51.281757 -2.839050 13,050 253 366 3072
2018-12-13 17:45:30 GMT 51.284039 -2.827530 12,775 253 366 2816
2018-12-13 17:45:27 GMT 51.287659 -2.809456 12,550 253 364 2496
2018-12-13 17:45:20 GMT 51.289536 -2.800177 12,300 253 361 2240
2018-12-13 17:45:16 GMT 51.291138 -2.792012 12,225 253 360 2368
2018-12-13 17:45:13 GMT 51.292923 -2.783401 12,075 253 358 2688
2018-12-13 17:45:10 GMT 51.294842 -2.773819 11,925 253 357 2880
2018-12-13 17:45:07 GMT 51.297729 -2.759573 11,700 253 354 2688
2018-12-13 17:45:04 GMT 51.297729 -2.759573 11,075 253 354 2496
2018-12-13 17:45:01 GMT 51.298370 -2.756232 11,450 254 353 2176
2018-12-13 17:44:58 GMT 51.300156 -2.747176 11,425 254 353 2176
2018-12-13 17:44:52 GMT 51.302662 -2.731628 11,200 260 347 1600
2018-12-13 17:44:47 GMT 51.304615 -2.709656 11,000 267 337 1216
2018-12-13 17:44:43 GMT 51.304779 -2.705903 10,975 267 337 1216
2018-12-13 17:44:40 GMT 51.304893 -2.702713 10,950 267 335 1216
2018-12-13 17:44:37 GMT 51.305191 -2.694323 10,850 267 328 1280
2018-12-13 17:44:34 GMT 51.305454 -2.686996 10,800 267 326 1280
2018-12-13 17:44:31 GMT 51.305733 -2.679901 10,750 267 323 1216
2018-12-13 17:44:28 GMT 51.306061 -2.671738 10,625 266 316 1344
2018-12-13 17:44:25 GMT 51.306431 -2.663422 10,625 266 314 1408
2018-12-13 17:44:22 GMT 51.306747 -2.657875 10,550 265 310 1472
2018-12-13 17:44:19 GMT 51.307083 -2.652054 10,400 264 305 1664
2018-12-13 17:44:16 GMT 51.307735 -2.642593 10,400 263 302 1920
2018-12-13 17:44:13 GMT 51.308121 -2.637313 10,300 262 299 2176
2018-12-13 17:44:10 GMT 51.308620 -2.631683 10,150 262 297 2496
2018-12-13 17:44:06 GMT 51.309410 -2.623825 10,025 259 294 2560
2018-12-13 17:44:03 GMT 51.311600 -2.607768 9,750 256 290 2624
2018-12-13 17:44:00 GMT 51.311600 -2.607768 9,750 256 290 2624
2018-12-13 17:43:57 GMT 51.312515 -2.602349 9,575 252 287 2240
2018-12-13 17:43:50 GMT 51.315323 -2.589111 9,325 248 281 1728
2018-12-13 17:43:43 GMT 51.318909 -2.576675 9,125 241 272 1280
2018-12-13 17:43:40 GMT 51.321190 -2.570419 9,100 238 267 1280
2018-12-13 17:43:33 GMT 51.325470 -2.560483 8,950 230 253 1600
2018-12-13 17:43:30 GMT 51.327660 -2.556000 8,875 226 246 2560
2018-12-13 17:43:27 GMT 51.329956 -2.551797 8,825 229 250 1920
2018-12-13 17:43:23 GMT 51.335526 -2.542725 8,450 223 243 3008
2018-12-13 17:43:20 GMT 51.335526 -2.542725 8,500 223 244 3008
2018-12-13 17:43:17 GMT 51.337509 -2.539846 8,400 222 242 3072
2018-12-13 17:43:14 GMT 51.340416 -2.535858 8,025 213 241 3008
2018-12-13 17:43:11 GMT 51.344101 -2.531606 7,975 207 239 3008
2018-12-13 17:43:08 GMT 51.346344 -2.529454 7,750 205 239 3008
2018-12-13 17:43:04 GMT 51.351334 -2.526113 7,600 191 237 3264
2018-12-13 17:43:01 GMT 51.352890 -2.525330 7,525 193 237 3200
2018-12-13 17:42:57 GMT 51.358200 -2.523812 7,300 185 235 3264
2018-12-13 17:42:52 GMT 51.363327 -2.523738 7,000 172 234 3264
2018-12-13 17:42:46 GMT 51.370102 -2.525816 6,625 159 231 3392
2018-12-13 17:42:41 GMT 51.374451 -2.528785 6,275 145 230 3328
2018-12-13 17:42:38 GMT 51.376820 -2.530975 5,950 136 230 3072
2018-12-13 17:42:35 GMT 51.380219 -2.535324 6,000 132 230 2880
2018-12-13 17:42:31 GMT 51.382645 -2.539549 5,825 127 229 2688
2018-12-13 17:42:28 GMT 51.384155 -2.542741 5,650 118 227 2496
2018-12-13 17:42:25 GMT 51.385849 -2.547418 5,350 102 223 2688
2018-12-13 17:42:21 GMT 51.387619 -2.554703 5,325 100 222 2688
2018-12-13 17:42:18 GMT 51.388184 -2.558775 5,075 92 221 2560
2018-12-13 17:42:15 GMT 51.388596 -2.564316 5,100 90 221 2560
2018-12-13 17:42:10 GMT 51.388550 -2.572632 4,875 86 217 2688
2018-12-13 17:42:07 GMT 51.388409 -2.576141 4,775 85 209 2304
2018-12-13 17:42:03 GMT 51.388039 -2.584229 4,550 85 210 2368
2018-12-13 17:42:00 GMT 51.387665 -2.591858 3,975 85 207 2304
2018-12-13 17:41:53 GMT 51.387360 -2.598638 4,175 85 202 2432
2018-12-13 17:41:50 GMT 51.387177 -2.602795 4,050 85 200 2560
2018-12-13 17:41:46 GMT 51.386902 -2.608733 3,875 86 195 2688
2018-12-13 17:41:42 GMT 51.386642 -2.614288 3,475 86 191 2816
2018-12-13 17:41:39 GMT 51.386536 -2.617938 3,550 86 192 2880
2018-12-13 17:41:32 GMT 51.386127 -2.629318 3,200 88 168 1344
2018-12-13 17:41:27 GMT 51.386036 -2.634888 3,075 88 181 1408
2018-12-13 17:41:19 GMT 51.385849 -2.646255 2,850 88 169 1344
2018-12-13 17:41:14 GMT 51.385666 -2.656390 2,650 88 157 1408
2018-12-13 17:41:09 GMT 51.385666 -2.657852 2,625 88 156 1408
2018-12-13 17:41:05 GMT 51.385574 -2.662700 2,525 87 150 1472
2018-12-13 17:40:58 GMT 51.385384 -2.669525 2,350 86 144 1536
We lost coverage of the aircraft here for a total of 70 minutes
2018-12-13 16:30:44 GMT 51.380962 -2.763519 975 86 116 -512
2018-12-13 16:30:36 GMT 51.380497 -2.773743 1,100 86 118 -640
2018-12-13 16:30:27 GMT 51.380219 -2.781830 1,175 87 116 -448
2018-12-13 16:30:21 GMT 51.380123 -2.784424 1,225 86 118 -768
2018-12-13 16:30:13 GMT 51.379807 -2.792606 1,325 86 119 -768
2018-12-13 16:30:06 GMT 51.379658 -2.796326 1,375 86 118 -704
2018-12-13 16:29:58 GMT 51.379288 -2.804337 1,525 85 117 -640
2018-12-13 16:29:55 GMT 51.379238 -2.805634 1,500 86 116 -576
2018-12-13 16:29:52 GMT 51.379028 -2.810570 1,550 86 116 -704
2018-12-13 16:29:46 GMT 51.378868 -2.815475 1,600 86 116 -704
2018-12-13 16:29:43 GMT 51.378819 -2.816620 1,650 86 116 -512
2018-12-13 16:29:35 GMT 51.378571 -2.823041 1,700 86 118 -640
2018-12-13 16:29:32 GMT 51.378307 -2.829208 1,800 86 120 -768
2018-12-13 16:29:27 GMT 51.378307 -2.829437 1,825 86 123 -768
2018-12-13 16:29:24 GMT 51.378204 -2.832617 1,850 86 123 -768
2018-12-13 16:29:19 GMT 51.377983 -2.837906 1,900 85 126 -768
2018-12-13 16:29:15 GMT 51.377842 -2.841339 1,950 85 130 -576
2018-12-13 16:29:10 GMT 51.377609 -2.846424 2,025 86 133 -704
2018-12-13 16:29:07 GMT 51.377422 -2.850189 2,050 86 132 -704
2018-12-13 16:29:04 GMT 51.377197 -2.855406 2,125 86 131 -704
2018-12-13 16:28:58 GMT 51.377144 -2.857285 2,150 86 131 -704
2018-12-13 16:28:54 GMT 51.376957 -2.860947 2,200 86 129 -576
2018-12-13 16:28:49 GMT 51.376633 -2.869492 2,300 86 130 -896
2018-12-13 16:28:44 GMT 51.376587 -2.870941 2,300 87 130 -896
2018-12-13 16:28:38 GMT 51.376419 -2.876414 2,400 87 129 -768
2018-12-13 16:28:33 GMT 51.376282 -2.881090 2,450 87 131 -320
2018-12-13 16:28:29 GMT 51.376144 -2.885693 2,450 87 136 0
2018-12-13 16:28:24 GMT 51.376026 -2.890854 2,450 87 141 64
2018-12-13 16:28:18 GMT 51.375839 -2.896271 2,450 86 147 64
2018-12-13 16:28:13 GMT 51.375641 -2.902098 2,450 87 153 64
2018-12-13 16:28:10 GMT 51.375515 -2.905502 2,450 86 159 192
2018-12-13 16:28:07 GMT 51.375275 -2.912490 2,450 86 159 192
2018-12-13 16:28:03 GMT 51.375237 -2.913513 2,425 85 163 -128
2018-12-13 16:27:58 GMT 51.374771 -2.920456 2,450 82 166 0
2018-12-13 16:27:53 GMT 51.374352 -2.925644 2,450 80 166 -64
2018-12-13 16:27:48 GMT 51.373718 -2.931865 2,450 77 166 0
2018-12-13 16:27:43 GMT 51.372723 -2.938156 2,450 68 167 64
2018-12-13 16:27:37 GMT 51.370350 -2.946014 2,450 52 173 0
2018-12-13 16:27:32 GMT 51.368530 -2.949448 2,450 45 178 -64
2018-12-13 16:27:25 GMT 51.362389 -2.958450 2,450 41 181 0
2018-12-13 16:27:22 GMT 51.362247 -2.958679 2,450 41 182 0
2018-12-13 16:27:17 GMT 51.358894 -2.963409 2,450 38 183 64
2018-12-13 16:27:14 GMT 51.356800 -2.966156 2,450 37 184 64
2018-12-13 16:27:11 GMT 51.349865 -2.973709 2,450 30 190 0
2018-12-13 16:27:05 GMT 51.349865 -2.973709 2,450 30 189 0
2018-12-13 16:27:00 GMT 51.347122 -2.976330 2,450 30 189 0
2018-12-13 16:26:57 GMT 51.344509 -2.978745 2,450 30 190 0
2018-12-13 16:26:53 GMT 51.341446 -2.981600 2,475 30 190 -64
2018-12-13 16:26:49 GMT 51.337761 -2.985077 2,475 30 191 -64
2018-12-13 16:26:46 GMT 51.335953 -2.986797 2,475 30 193 -128
2018-12-13 16:26:42 GMT 51.330219 -2.992249 2,475 31 197 -320
2018-12-13 16:26:35 GMT 51.328217 -2.994220 2,475 31 197 -320
2018-12-13 16:26:32 GMT 51.325378 -2.996892 2,500 31 199 -384
2018-12-13 16:26:29 GMT 51.322311 -2.999861 2,550 31 201 -576
2018-12-13 16:26:22 GMT 51.316864 -3.005132 2,625 31 207 -640
2018-12-13 16:26:18 GMT 51.314438 -3.007507 2,650 31 210 -768
2018-12-13 16:26:15 GMT 51.309540 -3.012258 2,725 31 209 -704
2018-12-13 16:26:11 GMT 51.308624 -3.013149 2,725 31 210 -768
2018-12-13 16:26:04 GMT 51.303127 -3.018494 2,825 31 214 -768
2018-12-13 16:26:00 GMT 51.298843 -3.022614 2,875 31 215 -832
2018-12-13 16:25:57 GMT 51.296608 -3.024826 2,925 31 215 -768
2018-12-13 16:25:51 GMT 51.291489 -3.029785 2,975 31 219 -640
2018-12-13 16:25:48 GMT 51.287624 -3.033524 3,050 31 222 -640
2018-12-13 16:25:42 GMT 51.283264 -3.037794 3,100 31 226 -896
2018-12-13 16:25:30 GMT 51.273285 -3.047485 3,375 31 233 64
2018-12-13 16:25:27 GMT 51.269623 -3.051081 3,425 31 228 -896
2018-12-13 16:25:21 GMT 51.261089 -3.059464 3,450 31 238 0
2018-12-13 16:25:11 GMT 51.252480 -3.067856 3,450 31 249 -192
2018-12-13 16:25:05 GMT 51.246002 -3.074316 3,500 32 262 -320
2018-12-13 16:25:00 GMT 51.244308 -3.076023 3,575 32 272 -704
2018-12-13 16:24:55 GMT 51.239365 -3.080997 3,550 32 272 -704
2018-12-13 16:24:49 GMT 51.232552 -3.087997 3,650 32 279 -1152
2018-12-13 16:24:44 GMT 51.227386 -3.093338 3,750 32 287 -1728
2018-12-13 16:24:39 GMT 51.221939 -3.098831 3,900 32 289 -1856
2018-12-13 16:24:36 GMT 51.217098 -3.103714 4,050 32 290 -2240
2018-12-13 16:24:27 GMT 51.207882 -3.112946 4,275 32 292 -2240
2018-12-13 16:24:24 GMT 51.203979 -3.116851 4,500 32 294 -2048
2018-12-13 16:24:19 GMT 51.199036 -3.121825 4,650 32 295 -1984
2018-12-13 16:24:16 GMT 51.194183 -3.126724 4,750 32 297 -2048
2018-12-13 16:24:12 GMT 51.185760 -3.135261 5,175 32 297 -2304
2018-12-13 16:24:09 GMT 51.185760 -3.135261 5,025 32 297 -2624
2018-12-13 16:24:03 GMT 51.179535 -3.141570 5,625 32 292 -2560
2018-12-13 16:23:59 GMT 51.175323 -3.145727 5,525 32 292 -2560
2018-12-13 16:23:55 GMT 51.170746 -3.150404 5,675 32 290 -2304
2018-12-13 16:23:51 GMT 51.166588 -3.154602 5,825 32 290 -2112
2018-12-13 16:23:48 GMT 51.159374 -3.161926 6,000 32 290 -2048
2018-12-13 16:23:41 GMT 51.154999 -3.166364 6,175 32 289 -2240
2018-12-13 16:23:38 GMT 51.148773 -3.172673 6,375 32 288 -2432
2018-12-13 16:23:35 GMT 51.148773 -3.172673 6,425 32 287 -2432
2018-12-13 16:23:30 GMT 51.143497 -3.177872 6,600 31 286 -2048
2018-12-13 16:23:27 GMT 51.138748 -3.182620 6,725 31 286 -1536
2018-12-13 16:23:24 GMT 51.131516 -3.189747 6,850 32 289 -832
2018-12-13 16:23:21 GMT 51.131516 -3.189747 6,900 32 288 -960
2018-12-13 16:23:18 GMT 51.129066 -3.192139 6,925 32 290 -576
2018-12-13 16:23:15 GMT 51.124508 -3.196716 6,975 32 293 -192
2018-12-13 16:23:10 GMT 51.120781 -3.200378 6,975 31 296 -384
2018-12-13 16:23:06 GMT 51.112637 -3.208466 7,025 31 300 -512
2018-12-13 16:23:00 GMT 51.104488 -3.216476 7,075 31 299 -768
2018-12-13 16:22:56 GMT 51.104023 -3.216934 7,150 31 298 -1280
2018-12-13 16:22:53 GMT 51.099976 -3.220924 7,200 31 298 -1408
2018-12-13 16:22:50 GMT 51.096992 -3.223877 7,375 31 297 -1728
2018-12-13 16:22:46 GMT 51.092468 -3.228273 7,375 31 296 -1856
2018-12-13 16:22:43 GMT 51.088009 -3.232651 7,450 31 296 -1920
2018-12-13 16:22:40 GMT 51.083679 -3.237000 7,600 31 294 -2112
2018-12-13 16:22:36 GMT 51.080139 -3.240433 7,700 31 294 -2048
2018-12-13 16:22:32 GMT 51.075714 -3.244827 7,975 31 294 -1920
2018-12-13 16:22:29 GMT 51.072968 -3.247573 7,950 31 294 -1856
2018-12-13 16:22:25 GMT 51.066826 -3.253632 8,050 31 294 -1984
2018-12-13 16:22:22 GMT 51.063858 -3.256556 8,200 31 293 -2112
2018-12-13 16:22:19 GMT 51.061386 -3.259005 8,300 31 293 -1856
2018-12-13 16:22:15 GMT 51.055283 -3.264999 8,425 31 293 -1856
2018-12-13 16:22:12 GMT 51.052780 -3.267468 8,575 32 291 -2432
2018-12-13 16:22:09 GMT 51.048904 -3.271332 8,650 32 290 -2624
2018-12-13 16:22:05 GMT 51.040970 -3.279270 8,875 32 276 -2560
2018-12-13 16:22:02 GMT 51.040970 -3.279270 9,050 32 284 -2880
2018-12-13 16:21:59 GMT 51.037903 -3.282388 9,125 32 281 -2880
2018-12-13 16:21:55 GMT 51.029297 -3.290999 9,425 32 274 -2304
2018-12-13 16:21:52 GMT 51.029297 -3.290999 9,525 32 276 -2560
2018-12-13 16:21:49 GMT 51.026917 -3.293375 9,600 32 274 -2432
2018-12-13 16:21:45 GMT 51.019638 -3.300649 9,775 32 273 -2048
2018-12-13 16:21:42 GMT 51.019638 -3.300649 9,850 32 272 -1472
2018-12-13 16:21:38 GMT 51.015526 -3.304672 9,950 32 273 -832
2018-12-13 16:21:35 GMT 51.012081 -3.308105 10,000 31 279 0
2018-12-13 16:21:32 GMT 51.008125 -3.311996 10,000 32 277 -64
2018-12-13 16:21:29 GMT 51.005814 -3.314308 10,000 32 280 0
2018-12-13 16:21:26 GMT 51.002243 -3.317797 10,000 32 283 0
2018-12-13 16:21:23 GMT 50.997978 -3.322067 10,000 31 293 -64
2018-12-13 16:21:20 GMT 50.993912 -3.326037 10,000 32 292 -64
2018-12-13 16:21:17 GMT 50.992111 -3.327789 10,000 31 293 -64
2018-12-13 16:21:13 GMT 50.986385 -3.333435 10,000 32 299 -64
2018-12-13 16:21:10 GMT 50.983639 -3.336182 10,000 32 304 0
2018-12-13 16:21:07 GMT 50.980133 -3.339695 10,000 32 304 0
2018-12-13 16:21:04 GMT 50.975307 -3.344421 10,000 32 314 0
2018-12-13 16:21:00 GMT 50.971626 -3.348083 10,000 32 314 0
2018-12-13 16:20:57 GMT 50.968742 -3.350983 10,000 32 343 -896
2018-12-13 16:20:53 GMT 50.962921 -3.356769 10,000 31 321 192
2018-12-13 16:20:47 GMT 50.955566 -3.363953 9,975 31 329 64
2018-12-13 16:20:41 GMT 50.948090 -3.371392 9,975 31 336 -192
2018-12-13 16:20:38 GMT 50.940125 -3.379261 10,025 32 343 -896
2018-12-13 16:20:31 GMT 50.934082 -3.385274 10,250 31 345 -1216
2018-12-13 16:20:27 GMT 50.928268 -3.390990 10,275 31 344 -1728
2018-12-13 16:20:22 GMT 50.921909 -3.397217 10,275 31 344 -1856
2018-12-13 16:20:19 GMT 50.917923 -3.401159 10,425 31 344 -2112
2018-12-13 16:20:16 GMT 50.913300 -3.405762 10,475 31 344 -2304
2018-12-13 16:20:13 GMT 50.909821 -3.409176 10,550 32 344 -2240
2018-12-13 16:20:10 GMT 50.905804 -3.413162 10,725 31 346 -1984
2018-12-13 16:20:07 GMT 50.902031 -3.416901 10,750 31 347 -1984
2018-12-13 16:20:03 GMT 50.896774 -3.422019 10,975 31 347 -1984
2018-12-13 16:20:00 GMT 50.890766 -3.427963 11,025 32 349 -1920
2018-12-13 16:19:56 GMT 50.886623 -3.432083 11,150 31 349 -1792
2018-12-13 16:19:52 GMT 50.880852 -3.437729 11,275 31 352 -1728
2018-12-13 16:19:49 GMT 50.878098 -3.440428 11,325 31 352 -1536
2018-12-13 16:19:46 GMT 50.873657 -3.444808 11,400 31 354 -1408
2018-12-13 16:19:43 GMT 50.868576 -3.449707 11,575 31 358 -1152
2018-12-13 16:19:40 GMT 50.863495 -3.454681 11,575 31 360 -1024
2018-12-13 16:19:36 GMT 50.858917 -3.459060 11,650 31 364 -1344
2018-12-13 16:19:33 GMT 50.853699 -3.464034 11,750 31 365 -1664
2018-12-13 16:19:29 GMT 50.849380 -3.468246 11,750 31 365 -1664
2018-12-13 16:19:26 GMT 50.844215 -3.473282 11,900 31 366 -2304
2018-12-13 16:19:23 GMT 50.839554 -3.477841 12,075 31 366 -2624
2018-12-13 16:19:20 GMT 50.834949 -3.482285 12,400 31 366 -2688
2018-12-13 16:19:17 GMT 50.831551 -3.485565 12,325 31 366 -2880
2018-12-13 16:19:14 GMT 50.826340 -3.490753 12,325 31 366 -2880
2018-12-13 16:19:10 GMT 50.821171 -3.495789 13,175 31 356 -3264
2018-12-13 16:19:07 GMT 50.817169 -3.499756 12,750 31 364 -2944
2018-12-13 16:19:03 GMT 50.811401 -3.505455 12,900 31 362 -3264
2018-12-13 16:19:00 GMT 50.808044 -3.508759 13,000 31 362 -3264
2018-12-13 16:18:57 GMT 50.802841 -3.513769 13,575 31 359 -3456
2018-12-13 16:18:51 GMT 50.795010 -3.521347 13,550 31 357 -3392
2018-12-13 16:18:48 GMT 50.790539 -3.525696 13,800 31 356 -3136
2018-12-13 16:18:45 GMT 50.785767 -3.530249 13,875 31 355 -2944
2018-12-13 16:18:42 GMT 50.776199 -3.539528 14,125 31 355 -2368
2018-12-13 16:18:38 GMT 50.776199 -3.539528 14,225 31 354 -2368
2018-12-13 16:18:34 GMT 50.770203 -3.545392 14,325 31 355 -2368
2018-12-13 16:18:31 GMT 50.766052 -3.549423 14,525 31 355 -2432
2018-12-13 16:18:28 GMT 50.762142 -3.553238 14,625 31 355 -2688
2018-12-13 16:18:23 GMT 50.755051 -3.560164 14,775 31 353 -2816
2018-12-13 16:18:20 GMT 50.751205 -3.563950 14,900 31 353 -2816
2018-12-13 16:18:17 GMT 50.745392 -3.569592 15,100 31 351 -2624
2018-12-13 16:18:14 GMT 50.742031 -3.572845 15,275 31 351 -2496
2018-12-13 16:18:11 GMT 50.738167 -3.576584 15,375 31 351 -2432
2018-12-13 16:18:08 GMT 50.733791 -3.580933 15,550 31 350 -2496
2018-12-13 16:18:05 GMT 50.730579 -3.584061 15,625 31 350 -2560
2018-12-13 16:18:02 GMT 50.726440 -3.588075 15,750 31 350 -2688
2018-12-13 16:17:59 GMT 50.717407 -3.596878 16,025 31 348 -2880
2018-12-13 16:17:55 GMT 50.717407 -3.596878 16,050 31 348 -2944
2018-12-13 16:17:52 GMT 50.713303 -3.600918 16,150 31 346 -2944
2018-12-13 16:17:49 GMT 50.708908 -3.605149 16,425 31 345 -2176
2018-12-13 16:17:46 GMT 50.705162 -3.608780 16,900 31 348 -1984
2018-12-13 16:17:43 GMT 50.701080 -3.612795 16,550 31 347 -1984
2018-12-13 16:17:40 GMT 50.695862 -3.617842 16,700 31 347 -1856
2018-12-13 16:17:37 GMT 50.688583 -3.624969 16,850 31 348 -1792
2018-12-13 16:17:34 GMT 50.687382 -3.626099 16,875 31 348 -1728
2018-12-13 16:17:31 GMT 50.682129 -3.631204 17,000 31 348 -1920
2018-12-13 16:17:28 GMT 50.680119 -3.633194 17,025 31 348 -1984
2018-12-13 16:17:25 GMT 50.676346 -3.636856 17,450 31 347 -2496
2018-12-13 16:17:22 GMT 50.670135 -3.642907 17,200 31 348 -2240
2018-12-13 16:17:19 GMT 50.666340 -3.646570 17,400 31 348 -2432
2018-12-13 16:17:16 GMT 50.663731 -3.649094 17,500 31 348 -2368
2018-12-13 16:17:13 GMT 50.657730 -3.654978 17,975 31 347 -2432
2018-12-13 16:17:09 GMT 50.650093 -3.662456 17,775 31 346 -2688
2018-12-13 16:17:06 GMT 50.650093 -3.662456 18,075 31 343 -3136
2018-12-13 16:17:03 GMT 50.645157 -3.667281 18,075 31 342 -3200
2018-12-13 16:17:00 GMT 50.642303 -3.670012 18,200 31 341 -3072
2018-12-13 16:16:57 GMT 50.638313 -3.673962 18,275 31 339 -3072
2018-12-13 16:16:53 GMT 50.631237 -3.680865 18,625 31 336 -3072
2018-12-13 16:16:50 GMT 50.628677 -3.683315 18,675 31 334 -3072
2018-12-13 16:16:47 GMT 50.624725 -3.687142 18,775 31 334 -3072
2018-12-13 16:16:44 GMT 50.615845 -3.695815 19,100 31 321 -2368
2018-12-13 16:16:41 GMT 50.615845 -3.695815 19,200 31 328 -2944
2018-12-13 16:16:38 GMT 50.613083 -3.698458 19,375 31 326 -2880
2018-12-13 16:16:35 GMT 50.607605 -3.703838 19,600 31 323 -2688
2018-12-13 16:16:30 GMT 50.602238 -3.709073 19,925 31 319 -1408
2018-12-13 16:16:27 GMT 50.598698 -3.712562 19,925 31 319 -1408
2018-12-13 16:16:24 GMT 50.594646 -3.716422 19,950 31 319 -1216
2018-12-13 16:16:21 GMT 50.587967 -3.722920 19,975 31 320 -192
2018-12-13 16:16:18 GMT 50.587967 -3.722920 20,000 31 321 -64
2018-12-13 16:16:14 GMT 50.581512 -3.729208 20,000 31 322 -128
2018-12-13 16:16:11 GMT 50.573139 -3.737356 20,000 31 324 -192
2018-12-13 16:16:07 GMT 50.573139 -3.737356 20,000 31 324 -192
2018-12-13 16:16:02 GMT 50.566589 -3.743736 20,025 31 326 0
2018-12-13 16:15:59 GMT 50.563019 -3.747205 20,025 31 329 64
2018-12-13 16:15:56 GMT 50.559174 -3.750940 20,025 31 394 -3136
2018-12-13 16:15:52 GMT 50.549973 -3.759854 20,000 31 333 128
2018-12-13 16:15:45 GMT 50.545166 -3.764552 20,000 31 339 -64
2018-12-13 16:15:41 GMT 50.534874 -3.774546 20,000 31 345 -64
2018-12-13 16:15:35 GMT 50.531105 -3.778258 20,000 31 349 -64
2018-12-13 16:15:32 GMT 50.526684 -3.782489 20,000 31 352 -64
2018-12-13 16:15:29 GMT 50.524017 -3.785079 20,000 31 359 64
2018-12-13 16:15:26 GMT 50.519234 -3.789764 20,000 31 359 64
2018-12-13 16:15:23 GMT 50.515324 -3.793475 20,000 31 361 64
2018-12-13 16:15:20 GMT 50.504837 -3.803582 20,000 31 369 -64
2018-12-13 16:15:17 GMT 50.504837 -3.803582 20,000 31 371 -128
2018-12-13 16:15:12 GMT 50.498657 -3.809584 20,025 31 376 -384
2018-12-13 16:15:08 GMT 50.492653 -3.815374 20,000 31 381 -576
2018-12-13 16:15:05 GMT 50.481712 -3.825840 20,175 31 386 -1152
2018-12-13 16:15:02 GMT 50.481712 -3.825840 20,100 31 385 -960
2018-12-13 16:14:56 GMT 50.475243 -3.832076 20,275 31 387 -1280
2018-12-13 16:14:52 GMT 50.469360 -3.837698 20,250 31 389 -1472
2018-12-13 16:14:49 GMT 50.460114 -3.846516 20,400 31 394 -1920
2018-12-13 16:14:46 GMT 50.460114 -3.846516 20,400 31 393 -1792
2018-12-13 16:14:42 GMT 50.453842 -3.852515 20,525 31 394 -1920
2018-12-13 16:14:39 GMT 50.448521 -3.857537 20,775 31 395 -2304
2018-12-13 16:14:36 GMT 50.442841 -3.862956 20,750 31 396 -2496
2018-12-13 16:14:31 GMT 50.435165 -3.870295 20,975 31 395 -2752
2018-12-13 16:14:28 GMT 50.431458 -3.873765 21,075 31 395 -3008
2018-12-13 16:14:24 GMT 50.423172 -3.881715 21,350 31 394 -3200
2018-12-13 16:14:19 GMT 50.418587 -3.886117 21,575 31 392 -3264
2018-12-13 16:14:16 GMT 50.412071 -3.892278 21,600 31 392 -3264
2018-12-13 16:14:13 GMT 50.408295 -3.895882 22,025 31 385 -3456
2018-12-13 16:14:08 GMT 50.400803 -3.903042 23,000 31 380 -3648
2018-12-13 16:14:05 GMT 50.395218 -3.908312 23,000 31 380 -3648
2018-12-13 16:14:02 GMT 50.390030 -3.913301 22,550 31 385 -3392
2018-12-13 16:13:58 GMT 50.384232 -3.918853 22,750 31 383 -3520
2018-12-13 16:13:53 GMT 50.377064 -3.925608 23,200 31 380 -3648
2018-12-13 16:13:49 GMT 50.371662 -3.930730 23,250 31 378 -3520
2018-12-13 16:13:45 GMT 50.363468 -3.938450 23,525 31 376 -3328
2018-12-13 16:13:39 GMT 50.357975 -3.943721 23,925 31 374 -3520
2018-12-13 16:13:36 GMT 50.353230 -3.948175 23,975 31 372 -3712
2018-12-13 16:13:33 GMT 50.346664 -3.954410 24,150 31 368 -3456
2018-12-13 16:13:30 GMT 50.343311 -3.957676 24,500 31 367 -3200
2018-12-13 16:13:27 GMT 50.338303 -3.962451 24,700 31 367 -3072
2018-12-13 16:13:22 GMT 50.332188 -3.968291 24,775 31 366 -1920
2018-12-13 16:13:19 GMT 50.327271 -3.973075 24,850 31 367 -1088
2018-12-13 16:13:16 GMT 50.323242 -3.976979 24,950 31 368 -640
2018-12-13 16:13:12 GMT 50.317059 -3.982915 25,000 30 373 -128
2018-12-13 16:13:09 GMT 50.311981 -3.987531 25,000 28 377 -128
2018-12-13 16:13:06 GMT 50.308071 -3.990932 25,000 26 381 -128
2018-12-13 16:13:02 GMT 50.301697 -3.995906 25,000 24 387 -64
2018-12-13 16:12:57 GMT 50.291977 -4.002565 25,025 22 392 -64
2018-12-13 16:12:54 GMT 50.286850 -4.005673 25,025 16 404 64
2018-12-13 16:12:51 GMT 50.283508 -4.007552 25,000 11 416 320
2018-12-13 16:12:45 GMT 50.272842 -4.012684 25,000 10 421 320
2018-12-13 16:12:42 GMT 50.268131 -4.014612 25,000 13 412 256
2018-12-13 16:12:39 GMT 50.260941 -4.017093 24,975 11 418 320
2018-12-13 16:12:36 GMT 50.256912 -4.018322 24,950 8 425 320
2018-12-13 16:12:33 GMT 50.240944 -4.021441 24,925 5 432 192
2018-12-13 16:12:26 GMT 50.230133 -4.022225 24,925 1 443 -384
2018-12-13 16:12:23 GMT 50.230133 -4.022225 24,950 359 447 -448
2018-12-13 16:12:20 GMT 50.224464 -4.022184 25,050 357 448 -512
2018-12-13 16:12:17 GMT 50.216949 -4.021719 25,025 356 448 -576
2018-12-13 16:12:13 GMT 50.209007 -4.020699 25,075 353 449 -896
2018-12-13 16:12:10 GMT 50.203766 -4.019623 25,150 352 450 -1024
2018-12-13 16:12:06 GMT 50.195881 -4.017581 25,175 346 453 -1536
2018-12-13 16:12:03 GMT 50.189320 -4.015354 25,225 347 453 -1472
2018-12-13 16:12:00 GMT 50.183731 -4.013202 25,300 345 453 -1664
2018-12-13 16:11:56 GMT 50.174240 -4.008781 25,425 340 456 -2176
2018-12-13 16:11:53 GMT 50.169662 -4.006251 25,900 329 460 -3136
2018-12-13 16:11:50 GMT 50.163761 -4.002661 26,700 326 461 -3264
2018-12-13 16:11:47 GMT 50.157570 -3.998430 25,750 335 458 -2752
2018-12-13 16:11:42 GMT 50.148258 -3.991155 26,100 329 460 -3200
2018-12-13 16:11:38 GMT 50.137039 -3.980837 26,225 330 460 -3136
2018-12-13 16:11:33 GMT 50.131302 -3.974882 26,450 325 461 -3328
2018-12-13 16:11:30 GMT 50.125809 -3.968739 26,700 319 460 -3520
2018-12-13 16:11:27 GMT 50.121094 -3.963029 27,100 320 460 -3520
2018-12-13 16:11:23 GMT 50.115189 -3.955367 27,075 319 460 -3520
2018-12-13 16:11:20 GMT 50.108131 -3.945428 27,275 317 461 -3456
2018-12-13 16:11:12 GMT 50.096584 -3.927390 27,700 313 462 -2880
2018-12-13 16:11:09 GMT 50.093838 -3.922713 27,900 310 462 -3072
2018-12-13 16:11:04 GMT 50.087090 -3.910242 28,025 308 462 -3200
2018-12-13 16:11:01 GMT 50.083237 -3.902243 28,325 304 461 -3776
2018-12-13 16:10:58 GMT 50.076057 -3.885226 28,800 294 457 -3584
2018-12-13 16:10:55 GMT 50.076057 -3.885226 28,550 300 459 -3840
2018-12-13 16:10:52 GMT 50.072479 -3.875355 28,825 297 458 -3392
2018-12-13 16:10:49 GMT 50.069214 -3.865332 29,150 294 457 -3584
2018-12-13 16:10:46 GMT 50.067909 -3.860952 29,150 294 457 -3584
2018-12-13 16:10:43 GMT 50.061810 -3.836159 29,425 289 454 -4032
2018-12-13 16:10:39 GMT 50.061810 -3.836159 29,625 287 452 -3904
2018-12-13 16:10:35 GMT 50.059845 -3.825555 29,850 285 450 -3968
2018-12-13 16:10:32 GMT 50.057053 -3.805389 30,225 278 441 -5376
2018-12-13 16:10:29 GMT 50.057053 -3.805389 30,625 278 441 -5376
2018-12-13 16:10:26 GMT 50.056133 -3.795925 30,675 276 438 -5248
2018-12-13 16:10:23 GMT 50.055061 -3.775956 31,175 272 431 -5312
2018-12-13 16:10:17 GMT 50.054947 -3.770623 31,525 271 430 -5248
2018-12-13 16:10:14 GMT 50.055176 -3.748434 31,750 268 423 -5056
2018-12-13 16:10:11 GMT 50.055176 -3.748434 32,050 266 418 -4864
2018-12-13 16:10:07 GMT 50.055714 -3.736910 32,300 265 416 -4608
2018-12-13 16:10:04 GMT 50.056503 -3.725522 32,575 262 412 -4032
2018-12-13 16:10:00 GMT 50.057388 -3.715532 32,825 261 411 -3840
2018-12-13 16:09:57 GMT 50.058132 -3.708702 32,950 260 409 -3712
2018-12-13 16:09:52 GMT 50.060043 -3.694004 33,325 257 407 -2944
2018-12-13 16:09:49 GMT 50.061298 -3.686210 34,325 255 406 -2432
2018-12-13 16:09:46 GMT 50.062557 -3.679010 34,650 250 406 -1280
2018-12-13 16:09:42 GMT 50.065979 -3.663073 33,700 249 407 -1216
2018-12-13 16:09:39 GMT 50.067261 -3.657797 33,725 248 408 -1216
2018-12-13 16:09:36 GMT 50.069275 -3.650208 33,775 246 408 -1344
2018-12-13 16:09:32 GMT 50.075916 -3.629497 33,950 241 411 -2176
2018-12-13 16:09:29 GMT 50.075916 -3.629497 34,175 238 410 -2496
2018-12-13 16:09:25 GMT 50.078339 -3.623031 34,125 238 411 -2432
2018-12-13 16:09:22 GMT 50.081829 -3.614576 34,275 237 410 -2624
2018-12-13 16:09:19 GMT 50.085022 -3.607274 34,575 225 415 -1408
2018-12-13 16:09:16 GMT 50.088638 -3.599685 34,950 232 411 -1856
2018-12-13 16:09:13 GMT 50.091934 -3.593324 34,650 228 413 -1664
2018-12-13 16:09:10 GMT 50.096970 -3.584145 34,725 228 413 -1664
2018-12-13 16:09:07 GMT 50.104637 -3.571819 35,050 219 419 -1984
2018-12-13 16:09:03 GMT 50.104637 -3.571819 34,925 223 417 -1344
2018-12-13 16:09:00 GMT 50.110367 -3.563579 34,950 221 419 -1600
2018-12-13 16:08:56 GMT 50.115417 -3.556968 35,000 220 420 -1856
2018-12-13 16:08:53 GMT 50.120316 -3.551114 35,175 217 421 -2368
2018-12-13 16:08:50 GMT 50.129883 -3.540706 35,400 213 420 -3200
2018-12-13 16:08:47 GMT 50.129883 -3.540706 35,500 201 409 -2752
2018-12-13 16:08:44 GMT 50.135193 -3.535718 35,625 210 418 -3584
2018-12-13 16:08:41 GMT 50.141556 -3.530298 35,750 207 416 -3648
2018-12-13 16:08:38 GMT 50.145309 -3.527334 36,375 201 410 -2560
2018-12-13 16:08:35 GMT 50.155380 -3.520524 36,375 201 409 -2752
2018-12-13 16:08:32 GMT 50.164902 -3.515047 36,550 200 409 -2368
2018-12-13 16:08:27 GMT 50.164902 -3.515047 36,650 196 406 -1728
2018-12-13 16:08:24 GMT 50.169434 -3.512878 36,700 196 406 -1728
2018-12-13 16:08:21 GMT 50.175201 -3.510421 36,800 194 405 -1280
2018-12-13 16:08:18 GMT 50.179123 -3.508944 36,950 189 403 -576
2018-12-13 16:08:14 GMT 50.187363 -3.506569 37,000 189 403 -576
2018-12-13 16:08:11 GMT 50.192825 -3.505289 36,975 187 403 -320
2018-12-13 16:08:08 GMT 50.198730 -3.504350 36,975 184 401 -128
2018-12-13 16:08:05 GMT 50.212463 -3.503193 37,000 183 401 0
2018-12-13 16:08:02 GMT 50.212463 -3.503193 37,000 183 401 0
2018-12-13 16:07:59 GMT 50.216133 -3.503006 37,000 183 401 0
2018-12-13 16:07:53 GMT 50.225628 -3.502412 37,000 183 401 0
2018-12-13 16:07:50 GMT 50.231918 -3.502037 37,000 183 401 0
2018-12-13 16:07:47 GMT 50.237091 -3.501675 37,000 183 401 0
2018-12-13 16:07:43 GMT 50.244598 -3.501242 37,000 183 401 64
2018-12-13 16:07:40 GMT 50.249680 -3.500952 37,000 183 401 64
2018-12-13 16:07:37 GMT 50.258286 -3.500447 37,000 183 401 0
2018-12-13 16:07:34 GMT 50.260803 -3.500302 37,000 183 401 0
2018-12-13 16:07:30 GMT 50.275726 -3.499435 37,000 183 401 0
2018-12-13 16:07:27 GMT 50.275726 -3.499435 37,000 183 401 0
2018-12-13 16:07:24 GMT 50.280468 -3.499146 37,000 182 401 0
2018-12-13 16:07:20 GMT 50.293129 -3.498477 37,000 182 401 0
2018-12-13 16:07:14 GMT 50.301270 -3.498061 37,000 182 401 0
2018-12-13 16:07:10 GMT 50.306580 -3.497772 37,000 184 401 -64
2018-12-13 16:07:07 GMT 50.317978 -3.497194 37,000 182 401 -64
2018-12-13 16:07:04 GMT 50.317978 -3.497194 37,000 182 401 -64
2018-12-13 16:07:01 GMT 50.322689 -3.496993 37,000 182 401 -64
2018-12-13 16:06:58 GMT 50.330463 -3.496622 37,000 182 401 0
2018-12-13 16:06:55 GMT 50.334183 -3.496471 37,000 182 401 0
2018-12-13 16:06:52 GMT 50.338486 -3.496182 37,000 184 401 -64
2018-12-13 16:06:49 GMT 50.350296 -3.495098 37,000 185 402 0
2018-12-13 16:06:46 GMT 50.350296 -3.495098 37,000 186 401 0
2018-12-13 16:06:42 GMT 50.357418 -3.494246 37,000 186 401 0
2018-12-13 16:06:39 GMT 50.363754 -3.493363 37,000 186 401 0
2018-12-13 16:06:36 GMT 50.370872 -3.492168 37,000 192 404 0
2018-12-13 16:06:32 GMT 50.377121 -3.490978 37,000 188 402 0
2018-12-13 16:06:29 GMT 50.384216 -3.489532 37,000 197 406 0
2018-12-13 16:06:22 GMT 50.395172 -3.486823 37,000 190 404 0
2018-12-13 16:06:18 GMT 50.402664 -3.484762 37,000 192 404 0
2018-12-13 16:06:12 GMT 50.420197 -3.478980 37,025 193 404 -64
2018-12-13 16:06:09 GMT 50.420197 -3.478980 37,025 194 404 -64
2018-12-13 16:06:06 GMT 50.425598 -3.476956 37,025 195 405 0
2018-12-13 16:06:03 GMT 50.429077 -3.475583 37,025 196 405 0
2018-12-13 16:06:00 GMT 50.435299 -3.473016 37,025 196 406 64
2018-12-13 16:05:57 GMT 50.447479 -3.467488 37,000 197 406 0
2018-12-13 16:05:51 GMT 50.451416 -3.465608 37,000 198 406 0
2018-12-13 16:05:48 GMT 50.457870 -3.462356 37,000 199 406 0
2018-12-13 16:05:45 GMT 50.464211 -3.459134 37,000 199 407 0
2018-12-13 16:05:42 GMT 50.467422 -3.457427 37,000 199 407 0
2018-12-13 16:05:39 GMT 50.472355 -3.454903 37,000 199 407 0
2018-12-13 16:05:36 GMT 50.478424 -3.451803 37,000 199 407 0
2018-12-13 16:05:33 GMT 50.484146 -3.448840 37,000 199 407 0
2018-12-13 16:05:30 GMT 50.489136 -3.446238 37,000 199 407 64
2018-12-13 16:05:27 GMT 50.494514 -3.443472 37,000 199 407 0
2018-12-13 16:05:24 GMT 50.500168 -3.440528 37,000 199 407 0
2018-12-13 16:05:21 GMT 50.505875 -3.437607 37,000 199 407 64
2018-12-13 16:05:17 GMT 50.511646 -3.434638 36,975 199 407 0
2018-12-13 16:05:13 GMT 50.520721 -3.429903 37,000 199 407 0
2018-12-13 16:05:10 GMT 50.524155 -3.428168 37,000 199 407 0
2018-12-13 16:05:07 GMT 50.529877 -3.425205 37,000 199 407 0
2018-12-13 16:05:04 GMT 50.535599 -3.422169 37,000 199 407 0
2018-12-13 16:05:00 GMT 50.543610 -3.418049 37,000 199 407 64
2018-12-13 16:04:57 GMT 50.547043 -3.416242 37,000 199 407 64
2018-12-13 16:04:54 GMT 50.555054 -3.412122 37,000 199 407 64
2018-12-13 16:04:51 GMT 50.558105 -3.410513 36,975 199 407 64
2018-12-13 16:04:48 GMT 50.564209 -3.407352 36,975 199 407 64
2018-12-13 16:04:45 GMT 50.569557 -3.404574 36,975 199 407 0
2018-12-13 16:04:42 GMT 50.574509 -3.402003 36,975 199 407 0
2018-12-13 16:04:39 GMT 50.579498 -3.399401 36,975 199 407 0
2018-12-13 16:04:36 GMT 50.585220 -3.396438 36,975 199 407 -64
2018-12-13 16:04:33 GMT 50.590923 -3.393439 36,975 199 407 64
2018-12-13 16:04:30 GMT 50.597809 -3.389860 36,975 199 407 64
2018-12-13 16:04:27 GMT 50.602386 -3.387475 36,975 199 407 0
2018-12-13 16:04:24 GMT 50.606937 -3.385125 36,975 199 407 64
2018-12-13 16:04:21 GMT 50.613361 -3.381785 36,950 199 407 -64
2018-12-13 16:04:18 GMT 50.619087 -3.378741 36,975 199 407 64
2018-12-13 16:04:15 GMT 50.624451 -3.375983 36,975 199 407 0
2018-12-13 16:04:12 GMT 50.629395 -3.373381 36,975 199 407 0
2018-12-13 16:04:09 GMT 50.635521 -3.370205 36,950 199 407 0
2018-12-13 16:04:06 GMT 50.648346 -3.363479 36,950 199 407 -64
2018-12-13 16:04:02 GMT 50.649994 -3.362611 36,950 199 407 -64
2018-12-13 16:03:56 GMT 50.658005 -3.358419 36,975 199 407 -64
2018-12-13 16:03:53 GMT 50.664383 -3.355061 36,975 199 407 -64
2018-12-13 16:03:50 GMT 50.667595 -3.353354 36,975 199 407 0
2018-12-13 16:03:47 GMT 50.674019 -3.349991 36,975 199 407 0
2018-12-13 16:03:43 GMT 50.680893 -3.346376 36,975 199 407 0
2018-12-13 16:03:40 GMT 50.685471 -3.343964 36,975 199 408 0
2018-12-13 16:03:37 GMT 50.696922 -3.338013 36,975 199 408 -64
2018-12-13 16:03:34 GMT 50.696922 -3.338013 36,975 199 408 0
2018-12-13 16:03:30 GMT 50.704185 -3.334122 36,975 199 408 0
2018-12-13 16:03:27 GMT 50.710655 -3.330765 36,975 199 408 0
2018-12-13 16:03:24 GMT 50.714893 -3.328552 36,975 199 410 -64
2018-12-13 16:03:21 GMT 50.720261 -3.325740 37,000 199 410 0
2018-12-13 16:03:18 GMT 50.724380 -3.323587 36,975 199 408 0
2018-12-13 16:03:15 GMT 50.730579 -3.320312 36,975 199 408 0
2018-12-13 16:03:12 GMT 50.735138 -3.317945 36,975 199 408 0
2018-12-13 16:03:09 GMT 50.740906 -3.314902 36,975 199 408 0
2018-12-13 16:03:06 GMT 50.746269 -3.312149 36,975 199 408 0
2018-12-13 16:03:03 GMT 50.751575 -3.309326 36,975 199 410 0
2018-12-13 16:03:00 GMT 50.763840 -3.302876 36,975 199 410 0
2018-12-13 16:02:57 GMT 50.763840 -3.302876 36,975 199 410 0
2018-12-13 16:02:54 GMT 50.769150 -3.300055 37,000 199 410 -64
2018-12-13 16:02:51 GMT 50.773735 -3.297653 37,000 199 410 -64
2018-12-13 16:02:48 GMT 50.778015 -3.295441 37,000 199 410 -64
2018-12-13 16:02:44 GMT 50.791004 -3.288574 37,000 199 410 0
2018-12-13 16:02:38 GMT 50.796780 -3.285522 37,000 199 411 0
2018-12-13 16:02:35 GMT 50.807529 -3.279800 37,000 199 411 -64
2018-12-13 16:02:32 GMT 50.813644 -3.276598 37,000 199 411 -64
2018-12-13 16:02:29 GMT 50.813644 -3.276598 37,000 199 411 -64
2018-12-13 16:02:26 GMT 50.817493 -3.274536 37,000 199 411 -64
2018-12-13 16:02:23 GMT 50.823219 -3.271484 37,000 199 411 -64
2018-12-13 16:02:20 GMT 50.830170 -3.267839 37,000 199 411 -64
2018-12-13 16:02:17 GMT 50.833603 -3.265983 37,000 199 411 -64
2018-12-13 16:02:14 GMT 50.845566 -3.259659 37,000 199 412 0
2018-12-13 16:02:11 GMT 50.845566 -3.259659 37,025 199 412 0
2018-12-13 16:02:08 GMT 50.851730 -3.256481 37,025 199 412 0
2018-12-13 16:02:05 GMT 50.855621 -3.254395 37,000 199 412 0
2018-12-13 16:02:02 GMT 50.861393 -3.251343 37,025 199 412 0
2018-12-13 16:01:58 GMT 50.870190 -3.246689 37,000 199 412 -64
2018-12-13 16:01:55 GMT 50.879791 -3.241635 37,025 199 412 0
2018-12-13 16:01:52 GMT 50.879791 -3.241635 37,025 199 412 0
2018-12-13 16:01:48 GMT 50.886017 -3.238373 37,025 199 412 0
2018-12-13 16:01:45 GMT 50.891373 -3.235622 37,000 199 412 0
2018-12-13 16:01:42 GMT 50.897964 -3.232133 37,025 199 412 0
2018-12-13 16:01:39 GMT 50.904125 -3.228912 37,000 199 412 0
2018-12-13 16:01:36 GMT 50.908363 -3.226700 37,000 199 412 0
2018-12-13 16:01:33 GMT 50.919258 -3.220978 37,000 199 413 64
2018-12-13 16:01:27 GMT 50.924610 -3.218155 37,000 199 413 64
2018-12-13 16:01:24 GMT 50.936203 -3.211975 37,000 199 414 -64
2018-12-13 16:01:21 GMT 50.936203 -3.211975 37,000 199 414 0
2018-12-13 16:01:17 GMT 50.947002 -3.206253 37,000 199 414 -64
2018-12-13 16:01:11 GMT 50.954777 -3.202133 37,000 199 414 0
2018-12-13 16:01:07 GMT 50.966370 -3.195953 37,000 199 414 0
2018-12-13 16:01:01 GMT 50.971489 -3.193283 37,000 199 414 0
2018-12-13 16:00:58 GMT 50.982285 -3.187520 37,000 199 415 0
2018-12-13 16:00:52 GMT 50.988899 -3.184052 37,000 199 415 64
2018-12-13 16:00:49 GMT 50.994717 -3.180923 37,000 199 415 0
2018-12-13 16:00:46 GMT 51.000118 -3.178101 37,000 199 415 0
2018-12-13 16:00:43 GMT 51.004761 -3.175643 37,000 199 415 0
2018-12-13 16:00:40 GMT 51.009426 -3.173141 37,000 199 415 0
2018-12-13 16:00:37 GMT 51.014099 -3.170743 37,000 199 415 0
2018-12-13 16:00:34 GMT 51.022522 -3.166215 37,000 199 415 0
2018-12-13 16:00:31 GMT 51.027676 -3.163528 37,000 199 415 0
2018-12-13 16:00:28 GMT 51.038570 -3.157730 37,000 199 415 0
2018-12-13 16:00:25 GMT 51.038570 -3.157730 37,000 199 415 64
2018-12-13 16:00:22 GMT 51.043213 -3.155303 36,975 199 415 64
2018-12-13 16:00:19 GMT 51.047882 -3.152771 37,000 199 415 64
2018-12-13 16:00:16 GMT 51.052956 -3.150101 37,000 199 415 64
2018-12-13 16:00:13 GMT 51.060654 -3.145950 37,000 199 415 64
2018-12-13 16:00:10 GMT 51.064545 -3.143946 36,975 199 415 64
2018-12-13 16:00:07 GMT 51.070816 -3.140605 36,975 199 415 64
2018-12-13 16:00:04 GMT 51.076279 -3.137665 36,975 199 416 64
2018-12-13 16:00:01 GMT 51.082443 -3.134370 36,975 199 416 0
2018-12-13 15:59:58 GMT 51.085960 -3.132553 36,975 199 416 0
2018-12-13 15:59:55 GMT 51.096451 -3.126947 36,975 199 416 -64
2018-12-13 15:59:49 GMT 51.103821 -3.123012 36,975 199 416 0
2018-12-13 15:59:46 GMT 51.109634 -3.119969 36,975 199 416 0
2018-12-13 15:59:43 GMT 51.113159 -3.118113 36,975 199 416 0
2018-12-13 15:59:40 GMT 51.119797 -3.114624 36,975 199 416 64
2018-12-13 15:59:37 GMT 51.126663 -3.110987 36,975 199 416 64
2018-12-13 15:59:34 GMT 51.130280 -3.109055 36,975 199 416 0
2018-12-13 15:59:31 GMT 51.136841 -3.105621 36,975 199 417 -64
2018-12-13 15:59:28 GMT 51.141171 -3.103333 37,000 199 417 0
2018-12-13 15:59:25 GMT 51.146210 -3.100668 36,975 199 417 -64
2018-12-13 15:59:22 GMT 51.159512 -3.093567 36,975 199 417 -128
2018-12-13 15:59:19 GMT 51.159512 -3.093567 36,975 199 417 -64
2018-12-13 15:59:16 GMT 51.163376 -3.091507 37,000 199 417 -64
2018-12-13 15:59:13 GMT 51.170013 -3.087975 37,000 199 417 -64
2018-12-13 15:59:10 GMT 51.174271 -3.085709 37,000 199 416 -64
2018-12-13 15:59:07 GMT 51.178940 -3.083224 37,000 199 417 -64
2018-12-13 15:59:03 GMT 51.187546 -3.078622 37,000 199 417 -64
2018-12-13 15:58:59 GMT 51.199951 -3.071866 37,000 199 417 -64
2018-12-13 15:58:56 GMT 51.206203 -3.068466 37,000 197 417 -64
2018-12-13 15:58:53 GMT 51.206203 -3.068466 37,000 199 417 -128
2018-12-13 15:58:50 GMT 51.211231 -3.065720 37,000 200 418 -64
2018-12-13 15:58:47 GMT 51.214737 -3.063775 37,025 200 418 -64
2018-12-13 15:58:44 GMT 51.221752 -3.059921 37,025 200 418 -64
2018-12-13 15:58:41 GMT 51.227188 -3.056946 37,025 200 418 -64
2018-12-13 15:58:38 GMT 51.238037 -3.050933 37,025 199 417 -64
2018-12-13 15:58:32 GMT 51.243896 -3.047890 37,025 198 417 -64
2018-12-13 15:58:29 GMT 51.249405 -3.045120 37,025 198 417 0
2018-12-13 15:58:26 GMT 51.256062 -3.041916 37,025 196 417 0
2018-12-13 15:58:23 GMT 51.258408 -3.040837 37,025 196 417 0
2018-12-13 15:58:20 GMT 51.265511 -3.037643 37,025 195 416 -64
2018-12-13 15:58:17 GMT 51.272964 -3.034528 37,025 193 416 -64
2018-12-13 15:58:14 GMT 51.277084 -3.032895 37,025 194 415 -64
2018-12-13 15:58:11 GMT 51.283035 -3.030593 37,050 193 415 -64
2018-12-13 15:58:08 GMT 51.287113 -3.029099 37,050 191 415 0
2018-12-13 15:58:05 GMT 51.293472 -3.026882 37,050 192 416 0
2018-12-13 15:58:02 GMT 51.299122 -3.025131 37,050 191 415 0
2018-12-13 15:57:59 GMT 51.305920 -3.023071 37,050 190 415 64
2018-12-13 15:57:56 GMT 51.312332 -3.021314 37,050 189 414 64
2018-12-13 15:57:53 GMT 51.316452 -3.020275 37,050 189 415 0
2018-12-13 15:57:50 GMT 51.322025 -3.018951 37,050 189 415 0
2018-12-13 15:57:47 GMT 51.326889 -3.017900 37,050 188 414 -64
2018-12-13 15:57:44 GMT 51.335403 -3.016267 37,050 187 414 0
2018-12-13 15:57:38 GMT 51.346699 -3.014450 37,050 185 413 0
2018-12-13 15:57:35 GMT 51.351727 -3.013763 37,050 185 414 0
2018-12-13 15:57:32 GMT 51.356148 -3.013306 37,050 184 413 0
2018-12-13 15:57:29 GMT 51.366718 -3.012314 37,050 183 413 64
2018-12-13 15:57:23 GMT 51.374039 -3.011813 37,050 183 412 0
2018-12-13 15:57:20 GMT 51.378525 -3.011516 37,000 183 412 0
2018-12-13 15:57:17 GMT 51.385391 -3.010996 37,050 183 412 64
2018-12-13 15:57:13 GMT 51.393906 -3.010402 37,025 183 412 64
2018-12-13 15:57:10 GMT 51.399628 -3.009949 37,025 183 412 0
2018-12-13 15:57:07 GMT 51.404888 -3.009567 37,025 183 412 0
2018-12-13 15:57:04 GMT 51.409359 -3.009262 37,025 183 412 0
2018-12-13 15:57:01 GMT 51.414665 -3.008881 37,025 183 412 0
2018-12-13 15:56:58 GMT 51.426773 -3.008027 37,025 183 412 0
2018-12-13 15:56:52 GMT 51.432961 -3.007660 37,050 183 412 0
2018-12-13 15:56:46 GMT 51.444645 -3.006821 37,025 183 412 0
2018-12-13 15:56:43 GMT 51.450745 -3.006439 37,050 183 411 -64
2018-12-13 15:56:40 GMT 51.455612 -3.006097 37,050 183 411 0
2018-12-13 15:56:37 GMT 51.460831 -3.005726 37,050 183 411 0
2018-12-13 15:56:34 GMT 51.465687 -3.005371 37,050 183 411 0
2018-12-13 15:56:31 GMT 51.472229 -3.004909 37,050 183 411 0
2018-12-13 15:56:28 GMT 51.477448 -3.004538 37,050 183 410 64
2018-12-13 15:56:25 GMT 51.484726 -3.004074 37,025 183 410 64
2018-12-13 15:56:22 GMT 51.490780 -3.003616 37,025 183 410 64
2018-12-13 15:56:19 GMT 51.498322 -3.003053 37,025 183 410 64
2018-12-13 15:56:15 GMT 51.502045 -3.002701 37,025 183 410 128
2018-12-13 15:56:12 GMT 51.510956 -3.002014 37,025 183 409 128
2018-12-13 15:56:09 GMT 51.514572 -3.001791 37,000 183 409 64
2018-12-13 15:56:06 GMT 51.519409 -3.001404 37,000 183 409 64
2018-12-13 15:56:03 GMT 51.525833 -3.000901 37,000 183 409 64
2018-12-13 15:56:00 GMT 51.539146 -2.999954 37,000 183 409 0
2018-12-13 15:55:56 GMT 51.539146 -2.999954 37,000 183 409 0
2018-12-13 15:55:53 GMT 51.544785 -2.999490 37,000 183 409 0
2018-12-13 15:55:50 GMT 51.549622 -2.999115 37,000 183 408 0
2018-12-13 15:55:47 GMT 51.561218 -2.998228 37,000 183 408 -64
2018-12-13 15:55:44 GMT 51.561218 -2.998228 37,000 183 407 0
2018-12-13 15:55:41 GMT 51.565681 -2.997894 37,000 183 405 0
2018-12-13 15:55:38 GMT 51.573257 -2.997338 37,000 183 407 0
2018-12-13 15:55:35 GMT 51.578064 -2.996966 37,000 183 406 0
2018-12-13 15:55:32 GMT 51.584862 -2.996445 37,000 183 405 64
2018-12-13 15:55:29 GMT 51.590469 -2.996001 37,000 183 405 0
2018-12-13 15:55:26 GMT 51.596466 -2.995556 37,000 183 405 0
2018-12-13 15:55:23 GMT 51.600037 -2.995300 37,000 183 405 0
2018-12-13 15:55:20 GMT 51.608044 -2.994690 37,000 183 405 0
2018-12-13 15:55:17 GMT 51.612793 -2.994385 37,000 183 405 0
2018-12-13 15:55:14 GMT 51.618008 -2.994003 37,000 183 404 0
2018-12-13 15:55:11 GMT 51.629971 -2.993088 37,000 183 404 0
2018-12-13 15:55:08 GMT 51.629971 -2.993088 37,000 183 404 0
2018-12-13 15:55:05 GMT 51.635090 -2.992783 37,000 183 404 64
2018-12-13 15:55:02 GMT 51.639511 -2.992401 37,000 183 404 64
2018-12-13 15:54:59 GMT 51.644257 -2.992067 37,000 183 404 64
2018-12-13 15:54:56 GMT 51.650208 -2.991696 37,000 183 404 64
2018-12-13 15:54:53 GMT 51.660965 -2.990879 37,000 183 404 -64
2018-12-13 15:54:47 GMT 51.667725 -2.990417 37,000 183 404 -64
2018-12-13 15:54:44 GMT 51.674835 -2.989914 37,000 183 404 -64
2018-12-13 15:54:41 GMT 51.678818 -2.989617 37,000 183 404 -64
2018-12-13 15:54:38 GMT 51.685547 -2.989098 37,000 183 404 -64
2018-12-13 15:54:35 GMT 51.689117 -2.988875 37,000 183 404 -64
2018-12-13 15:54:32 GMT 51.697495 -2.988207 37,000 183 404 -64
2018-12-13 15:54:28 GMT 51.703522 -2.987823 37,000 183 404 -64
2018-12-13 15:54:25 GMT 51.708225 -2.987442 37,000 183 404 -64
2018-12-13 15:54:22 GMT 51.715439 -2.986908 37,025 183 406 -64
2018-12-13 15:54:19 GMT 51.719398 -2.986603 37,000 183 406 -64
2018-12-13 15:54:16 GMT 51.726936 -2.986069 37,025 183 406 -64
2018-12-13 15:54:10 GMT 51.738438 -2.985229 37,025 183 407 0
2018-12-13 15:54:07 GMT 51.742172 -2.984941 37,025 183 408 64
2018-12-13 15:54:04 GMT 51.748215 -2.984495 37,025 183 408 64
2018-12-13 15:54:00 GMT 51.761478 -2.983551 37,000 183 410 128
2018-12-13 15:53:57 GMT 51.767899 -2.983085 37,000 183 416 -64
2018-12-13 15:53:54 GMT 51.767899 -2.983085 36,975 183 412 64
2018-12-13 15:53:50 GMT 51.773987 -2.982640 36,975 183 413 64
2018-12-13 15:53:47 GMT 51.781265 -2.982101 36,975 183 413 64
2018-12-13 15:53:44 GMT 51.787411 -2.981567 36,975 183 416 -64
2018-12-13 15:53:40 GMT 51.793972 -2.981110 36,975 183 416 0
2018-12-13 15:53:37 GMT 51.799301 -2.980710 37,000 183 416 0
2018-12-13 15:53:34 GMT 51.806263 -2.980118 37,000 183 416 -64
2018-12-13 15:53:31 GMT 51.816879 -2.979373 37,000 183 417 0
2018-12-13 15:53:28 GMT 51.816879 -2.979373 37,000 183 417 0
2018-12-13 15:53:22 GMT 51.829910 -2.978363 37,000 183 417 0
2018-12-13 15:53:19 GMT 51.835373 -2.977963 37,000 183 417 -64
2018-12-13 15:53:16 GMT 51.838661 -2.977753 37,000 183 417 -64
2018-12-13 15:53:13 GMT 51.846439 -2.977219 37,000 183 417 -64
2018-12-13 15:53:10 GMT 51.856308 -2.976456 37,000 183 420 0
2018-12-13 15:53:04 GMT 51.867897 -2.975616 37,025 183 419 0
2018-12-13 15:52:58 GMT 51.874882 -2.975082 37,025 183 420 0
2018-12-13 15:52:55 GMT 51.880280 -2.974701 37,000 183 420 -64
2018-12-13 15:52:51 GMT 51.894745 -2.973557 37,000 183 421 -64
2018-12-13 15:52:48 GMT 51.894745 -2.973557 37,000 183 431 128
2018-12-13 15:52:42 GMT 51.906372 -2.972717 37,025 183 423 0
2018-12-13 15:52:39 GMT 51.918091 -2.971878 37,025 183 424 64
2018-12-13 15:52:36 GMT 51.918091 -2.971878 37,000 183 434 0
2018-12-13 15:52:33 GMT 51.922256 -2.971497 37,000 183 426 192
2018-12-13 15:52:30 GMT 51.930233 -2.970939 37,000 183 427 192
2018-12-13 15:52:27 GMT 51.935715 -2.970505 37,000 183 427 192
2018-12-13 15:52:24 GMT 51.940292 -2.970123 36,975 183 430 192
2018-12-13 15:52:21 GMT 51.946247 -2.969683 36,975 183 430 192
2018-12-13 15:52:18 GMT 51.954578 -2.969134 36,950 183 433 64
2018-12-13 15:52:14 GMT 51.960678 -2.968663 36,975 183 434 0
2018-12-13 15:52:11 GMT 51.966660 -2.968216 36,975 183 433 0
2018-12-13 15:52:08 GMT 51.971375 -2.967834 36,975 183 433 0
2018-12-13 15:52:05 GMT 51.979855 -2.967172 36,975 183 433 64
2018-12-13 15:52:02 GMT 51.985443 -2.966779 36,975 183 433 0
2018-12-13 15:51:59 GMT 51.989307 -2.966466 36,975 183 433 0
2018-12-13 15:51:56 GMT 51.996964 -2.965851 36,975 183 433 0
2018-12-13 15:51:52 GMT 52.010559 -2.964859 37,000 183 433 -64
2018-12-13 15:51:49 GMT 52.010559 -2.964859 36,975 183 433 -64
2018-12-13 15:51:46 GMT 52.015656 -2.964504 37,000 183 433 -64
2018-12-13 15:51:43 GMT 52.022079 -2.964033 36,975 183 433 -64
2018-12-13 15:51:40 GMT 52.030228 -2.963405 36,975 183 433 -64
2018-12-13 15:51:37 GMT 52.036045 -2.963013 37,000 183 433 0
2018-12-13 15:51:34 GMT 52.045959 -2.962306 37,000 183 433 0
2018-12-13 15:51:28 GMT 52.051941 -2.961884 37,000 183 433 0
2018-12-13 15:51:25 GMT 52.058716 -2.961443 37,000 183 433 0
2018-12-13 15:51:22 GMT 52.065140 -2.960972 37,000 183 433 -64
2018-12-13 15:51:19 GMT 52.070724 -2.960580 37,000 183 433 -64
2018-12-13 15:51:16 GMT 52.077026 -2.960129 37,000 183 433 0
2018-12-13 15:51:13 GMT 52.081741 -2.959824 37,000 183 433 64
2018-12-13 15:51:10 GMT 52.088104 -2.959366 37,000 183 433 0
2018-12-13 15:51:06 GMT 52.100327 -2.958374 37,000 183 433 64
2018-12-13 15:51:03 GMT 52.104336 -2.958069 36,975 183 433 64
2018-12-13 15:51:00 GMT 52.109039 -2.957755 36,975 183 433 64
2018-12-13 15:50:57 GMT 52.113693 -2.957382 36,975 183 436 64
2018-12-13 15:50:54 GMT 52.120491 -2.956892 36,975 183 433 0
2018-12-13 15:50:51 GMT 52.127754 -2.956342 36,975 183 434 0
2018-12-13 15:50:48 GMT 52.132004 -2.956009 36,975 183 434 -64
2018-12-13 15:50:45 GMT 52.139671 -2.955401 36,975 183 434 -128
2018-12-13 15:50:42 GMT 52.146835 -2.954865 36,975 183 434 -128
2018-12-13 15:50:39 GMT 52.152519 -2.954459 37,000 183 434 -128
2018-12-13 15:50:36 GMT 52.156338 -2.954145 37,000 183 434 -128
2018-12-13 15:50:33 GMT 52.163647 -2.953596 37,000 183 434 -64
2018-12-13 15:50:30 GMT 52.169632 -2.953110 37,000 183 434 -64
2018-12-13 15:50:27 GMT 52.173885 -2.952811 37,000 183 434 -64
2018-12-13 15:50:24 GMT 52.180264 -2.952340 37,000 183 434 0
2018-12-13 15:50:21 GMT 52.187943 -2.951736 37,000 183 434 0
2018-12-13 15:50:18 GMT 52.192200 -2.951431 37,000 183 434 0
2018-12-13 15:50:15 GMT 52.205914 -2.950378 37,025 183 436 -64
2018-12-13 15:50:12 GMT 52.205914 -2.950378 37,000 183 434 -64
2018-12-13 15:50:09 GMT 52.211037 -2.949986 37,000 183 434 -64
2018-12-13 15:50:06 GMT 52.215271 -2.949677 37,000 183 434 -64
2018-12-13 15:50:03 GMT 52.222954 -2.949044 37,025 183 434 0
2018-12-13 15:50:00 GMT 52.229378 -2.948574 37,025 183 434 0
2018-12-13 15:49:57 GMT 52.234497 -2.948227 37,025 183 434 0
2018-12-13 15:49:54 GMT 52.241776 -2.947617 37,025 183 434 0
2018-12-13 15:49:51 GMT 52.245251 -2.947396 37,025 183 435 0
2018-12-13 15:49:48 GMT 52.253349 -2.946769 37,025 183 435 -64
2018-12-13 15:49:45 GMT 52.259354 -2.946320 37,025 183 435 -64
2018-12-13 15:49:42 GMT 52.264893 -2.945938 37,025 183 435 -128
2018-12-13 15:49:39 GMT 52.271740 -2.945435 37,025 183 435 -64
2018-12-13 15:49:36 GMT 52.276840 -2.945023 37,025 183 435 -64
2018-12-13 15:49:33 GMT 52.282864 -2.944571 37,025 183 435 64
2018-12-13 15:49:30 GMT 52.294830 -2.943573 37,025 183 435 64
2018-12-13 15:49:27 GMT 52.301743 -2.943039 37,025 183 435 0
2018-12-13 15:49:24 GMT 52.301743 -2.943039 37,000 183 437 0
2018-12-13 15:49:21 GMT 52.306000 -2.942734 37,025 183 436 64
2018-12-13 15:49:18 GMT 52.313324 -2.942123 37,025 183 436 64
2018-12-13 15:49:15 GMT 52.320152 -2.941668 37,025 183 436 0
2018-12-13 15:49:12 GMT 52.327087 -2.941119 37,025 183 436 0
2018-12-13 15:49:09 GMT 52.330486 -2.940883 37,025 183 436 0
2018-12-13 15:49:06 GMT 52.337795 -2.940334 37,025 183 436 0
2018-12-13 15:49:03 GMT 52.342941 -2.939987 37,025 183 436 0
2018-12-13 15:49:00 GMT 52.348923 -2.939549 37,025 183 436 64
2018-12-13 15:48:57 GMT 52.356556 -2.939000 37,025 183 436 64
2018-12-13 15:48:53 GMT 52.363953 -2.938461 37,025 183 436 64
2018-12-13 15:48:50 GMT 52.370728 -2.937927 37,025 183 437 64
2018-12-13 15:48:47 GMT 52.374664 -2.937666 37,025 183 437 64
2018-12-13 15:48:44 GMT 52.382446 -2.937012 37,000 183 437 64
2018-12-13 15:48:41 GMT 52.389175 -2.936554 37,000 183 437 64
2018-12-13 15:48:38 GMT 52.394531 -2.936096 37,000 183 437 64
2018-12-13 15:48:34 GMT 52.402271 -2.935547 37,000 183 437 64
2018-12-13 15:48:31 GMT 52.406925 -2.935155 37,000 183 437 64
2018-12-13 15:48:28 GMT 52.414284 -2.934605 37,000 183 437 64
2018-12-13 15:48:25 GMT 52.420349 -2.934189 37,000 183 438 0
2018-12-13 15:48:22 GMT 52.425503 -2.933820 37,000 183 437 0
2018-12-13 15:48:19 GMT 52.437557 -2.932879 37,000 183 438 64
2018-12-13 15:48:13 GMT 52.449661 -2.931937 37,000 183 438 64
2018-12-13 15:48:10 GMT 52.449661 -2.931937 36,975 183 438 64
2018-12-13 15:48:07 GMT 52.455620 -2.931466 36,975 183 438 64
2018-12-13 15:48:04 GMT 52.462967 -2.930908 36,975 183 438 0
2018-12-13 15:48:01 GMT 52.467678 -2.930525 36,975 183 438 -64
2018-12-13 15:47:58 GMT 52.480618 -2.929583 37,000 183 438 -64
2018-12-13 15:47:55 GMT 52.480618 -2.929583 37,000 183 438 -64
2018-12-13 15:47:52 GMT 52.486679 -2.929077 37,000 183 437 0
2018-12-13 15:47:49 GMT 52.493515 -2.928563 37,000 183 437 0
2018-12-13 15:47:46 GMT 52.499588 -2.928085 37,000 183 437 0
2018-12-13 15:47:43 GMT 52.503849 -2.927778 37,000 183 437 64
2018-12-13 15:47:40 GMT 52.512089 -2.927072 37,000 183 437 64
2018-12-13 15:47:37 GMT 52.518356 -2.926636 37,000 183 437 64
2018-12-13 15:47:34 GMT 52.523212 -2.926208 37,000 183 437 -64
2018-12-13 15:47:31 GMT 52.529251 -2.925797 37,000 183 437 0
2018-12-13 15:47:28 GMT 52.533131 -2.925424 37,000 183 437 -64
2018-12-13 15:47:25 GMT 52.542160 -2.924728 37,025 183 437 0
2018-12-13 15:47:22 GMT 52.547329 -2.924325 37,000 183 437 -64
2018-12-13 15:47:19 GMT 52.551613 -2.923933 37,000 183 437 -128
2018-12-13 15:47:16 GMT 52.560223 -2.923226 37,025 183 437 -64
2018-12-13 15:47:13 GMT 52.564507 -2.922913 37,025 183 437 -64
2018-12-13 15:47:10 GMT 52.571815 -2.922285 37,025 183 437 0
2018-12-13 15:47:07 GMT 52.576565 -2.921892 37,025 183 437 64
2018-12-13 15:47:04 GMT 52.583824 -2.921343 37,025 183 437 64
2018-12-13 15:47:01 GMT 52.595928 -2.920401 37,025 183 437 -64
2018-12-13 15:46:58 GMT 52.595928 -2.920401 37,025 183 437 64
2018-12-13 15:46:52 GMT 52.608353 -2.919464 37,025 183 437 0
2018-12-13 15:46:49 GMT 52.614807 -2.919006 37,025 183 437 0
2018-12-13 15:46:46 GMT 52.621216 -2.918549 37,025 183 437 -64
2018-12-13 15:46:43 GMT 52.626419 -2.918126 37,025 183 437 -64
2018-12-13 15:46:40 GMT 52.633347 -2.917633 37,025 183 437 -64
2018-12-13 15:46:37 GMT 52.638477 -2.917262 37,025 183 437 -64
2018-12-13 15:46:31 GMT 52.649643 -2.916412 37,025 183 437 -64
2018-12-13 15:46:28 GMT 52.655273 -2.916031 37,025 183 437 -64
2018-12-13 15:46:25 GMT 52.662125 -2.915536 37,025 183 437 -64
2018-12-13 15:46:22 GMT 52.675022 -2.914594 37,025 183 437 0
2018-12-13 15:46:19 GMT 52.675022 -2.914594 37,025 183 437 0
2018-12-13 15:46:16 GMT 52.681915 -2.914124 37,025 183 437 64
2018-12-13 15:46:13 GMT 52.687962 -2.913653 37,025 183 437 64
2018-12-13 15:46:10 GMT 52.693405 -2.913284 37,000 183 438 -64
2018-12-13 15:46:07 GMT 52.698669 -2.912903 37,025 183 437 64
2018-12-13 15:46:04 GMT 52.704300 -2.912521 37,025 183 437 64
2018-12-13 15:46:01 GMT 52.711899 -2.912064 37,025 183 437 128
2018-12-13 15:45:58 GMT 52.718033 -2.911606 37,025 183 437 128
2018-12-13 15:45:55 GMT 52.727951 -2.910985 37,000 183 438 64
2018-12-13 15:45:49 GMT 52.740891 -2.910121 37,000 183 438 0
2018-12-13 15:45:46 GMT 52.740891 -2.910121 37,000 183 438 0
2018-12-13 15:45:43 GMT 52.746918 -2.909698 37,000 183 438 -64
2018-12-13 15:45:39 GMT 52.753788 -2.909180 37,000 183 438 -64
2018-12-13 15:45:36 GMT 52.759872 -2.908707 37,000 183 438 -64
2018-12-13 15:45:33 GMT 52.766327 -2.908249 37,025 183 438 -64
2018-12-13 15:45:30 GMT 52.773201 -2.907689 37,025 183 437 0
2018-12-13 15:45:27 GMT 52.778831 -2.907218 37,025 183 437 0
2018-12-13 15:45:24 GMT 52.786095 -2.906669 37,025 183 437 0
2018-12-13 15:45:21 GMT 52.790863 -2.906265 37,000 182 437 0
2018-12-13 15:45:18 GMT 52.796448 -2.905807 37,025 183 437 0
2018-12-13 15:45:15 GMT 52.810226 -2.904663 37,025 184 437 0
2018-12-13 15:45:12 GMT 52.810226 -2.904663 37,025 184 437 64
2018-12-13 15:45:09 GMT 52.817097 -2.904000 37,025 184 437 64
2018-12-13 15:45:06 GMT 52.821846 -2.903608 37,000 184 437 0
2018-12-13 15:45:03 GMT 52.827026 -2.903137 37,000 184 437 0
2018-12-13 15:45:00 GMT 52.833858 -2.902509 37,000 183 437 64
2018-12-13 15:44:57 GMT 52.841446 -2.901960 37,000 183 437 64
2018-12-13 15:44:54 GMT 52.845474 -2.901688 37,000 183 437 64
2018-12-13 15:44:51 GMT 52.851929 -2.901382 37,000 182 437 0
2018-12-13 15:44:47 GMT 52.860077 -2.901154 37,000 179 437 64
2018-12-13 15:44:44 GMT 52.867001 -2.901175 37,000 179 436 64
2018-12-13 15:44:41 GMT 52.873260 -2.901306 37,000 179 436 64
2018-12-13 15:44:38 GMT 52.876831 -2.901382 37,000 175 435 0
2018-12-13 15:44:35 GMT 52.883240 -2.901764 37,000 177 435 64
2018-12-13 15:44:32 GMT 52.890976 -2.902352 37,000 176 434 64
2018-12-13 15:44:29 GMT 52.897354 -2.902980 36,975 174 434 0
2018-12-13 15:44:26 GMT 52.902512 -2.903519 36,975 175 435 0
2018-12-13 15:44:23 GMT 52.907639 -2.904205 37,000 174 434 0
2018-12-13 15:44:20 GMT 52.912716 -2.905021 36,975 174 434 0
2018-12-13 15:44:17 GMT 52.925472 -2.907296 36,975 173 433 0
2018-12-13 15:44:14 GMT 52.931057 -2.908473 36,975 172 433 64
2018-12-13 15:44:11 GMT 52.931057 -2.908473 36,975 170 432 0
2018-12-13 15:44:08 GMT 52.938183 -2.910121 36,975 171 433 64
2018-12-13 15:44:05 GMT 52.944122 -2.911606 36,975 170 433 0
2018-12-13 15:44:02 GMT 52.950439 -2.913284 36,975 170 432 0
2018-12-13 15:43:59 GMT 52.954613 -2.914437 36,975 170 432 0
2018-12-13 15:43:56 GMT 52.961380 -2.916260 36,975 170 432 0
2018-12-13 15:43:50 GMT 52.971886 -2.919146 36,975 170 432 0
2018-12-13 15:43:47 GMT 52.984085 -2.922440 36,975 170 432 0
2018-12-13 15:43:44 GMT 52.984085 -2.922440 36,975 170 432 0
2018-12-13 15:43:41 GMT 52.991180 -2.924347 36,975 170 432 0
2018-12-13 15:43:38 GMT 52.996719 -2.925873 36,975 170 432 0
2018-12-13 15:43:35 GMT 53.003399 -2.927621 36,975 170 431 0
2018-12-13 15:43:32 GMT 53.009308 -2.929230 36,975 170 431 0
2018-12-13 15:43:29 GMT 53.014713 -2.930682 36,975 170 431 0
2018-12-13 15:43:26 GMT 53.018921 -2.931824 36,975 170 431 0
2018-12-13 15:43:23 GMT 53.025192 -2.933578 36,975 170 431 -64
2018-12-13 15:43:20 GMT 53.031464 -2.935257 36,975 170 430 0
2018-12-13 15:43:17 GMT 53.039898 -2.937587 36,975 170 430 0
2018-12-13 15:43:14 GMT 53.045624 -2.939157 36,975 170 431 0
2018-12-13 15:43:11 GMT 53.050323 -2.940521 36,975 170 431 0
2018-12-13 15:43:08 GMT 53.055817 -2.942047 36,975 170 431 0
2018-12-13 15:43:05 GMT 53.063591 -2.944257 36,975 170 431 0
2018-12-13 15:43:02 GMT 53.066620 -2.945099 36,975 170 431 0
2018-12-13 15:42:59 GMT 53.072891 -2.946930 36,975 170 431 64
2018-12-13 15:42:56 GMT 53.078770 -2.948574 36,975 170 430 64
2018-12-13 15:42:53 GMT 53.085434 -2.950439 36,975 170 430 64
2018-12-13 15:42:50 GMT 53.091290 -2.952105 37,000 170 431 64
2018-12-13 15:42:47 GMT 53.096783 -2.953707 36,950 170 430 0
2018-12-13 15:42:44 GMT 53.108459 -2.957049 36,975 170 431 -64
2018-12-13 15:42:38 GMT 53.115589 -2.959119 36,975 170 431 -128
2018-12-13 15:42:34 GMT 53.125854 -2.961993 36,975 170 431 -128
2018-12-13 15:42:31 GMT 53.128159 -2.962673 36,975 170 430 -128
2018-12-13 15:42:28 GMT 53.142361 -2.966551 37,000 170 430 -128
2018-12-13 15:42:24 GMT 53.142361 -2.966551 37,000 170 430 -64
2018-12-13 15:42:21 GMT 53.148148 -2.968192 37,000 170 430 -64
2018-12-13 15:42:18 GMT 53.153183 -2.969526 37,000 170 430 -128
2018-12-13 15:42:15 GMT 53.159073 -2.971156 37,000 170 431 -128
2018-12-13 15:42:12 GMT 53.165356 -2.972852 37,025 170 432 -64
2018-12-13 15:42:09 GMT 53.171219 -2.974470 37,025 170 431 -64
2018-12-13 15:42:06 GMT 53.177925 -2.976326 37,025 170 431 0
2018-12-13 15:42:02 GMT 53.185467 -2.978345 37,025 170 431 64
2018-12-13 15:41:59 GMT 53.192589 -2.980284 37,025 170 431 64
2018-12-13 15:41:56 GMT 53.196396 -2.981297 37,000 170 431 64
2018-12-13 15:41:53 GMT 53.203445 -2.983180 37,025 170 432 0
2018-12-13 15:41:50 GMT 53.209347 -2.984808 37,000 170 432 0
2018-12-13 15:41:47 GMT 53.216145 -2.986666 37,000 170 432 -64
2018-12-13 15:41:43 GMT 53.222351 -2.988360 37,025 170 432 -128
2018-12-13 15:41:40 GMT 53.228294 -2.989978 37,025 170 432 -128
2018-12-13 15:41:37 GMT 53.234207 -2.991577 37,050 170 432 -128
2018-12-13 15:41:34 GMT 53.238785 -2.992833 37,050 170 432 -64
2018-12-13 15:41:31 GMT 53.245926 -2.994873 37,050 170 432 -64
2018-12-13 15:41:28 GMT 53.256912 -2.997855 37,050 170 433 -64
2018-12-13 15:41:25 GMT 53.264465 -2.999914 37,050 170 433 -64
2018-12-13 15:41:22 GMT 53.269913 -3.001449 37,050 170 433 0
2018-12-13 15:41:19 GMT 53.269913 -3.001449 37,050 170 433 -64
2018-12-13 15:41:16 GMT 53.276241 -3.003145 37,050 170 433 -64
2018-12-13 15:41:13 GMT 53.282574 -3.004842 37,050 170 433 -64
2018-12-13 15:41:10 GMT 53.292664 -3.007664 37,050 170 433 0
2018-12-13 15:41:04 GMT 53.299438 -3.009469 37,050 170 433 0
2018-12-13 15:41:01 GMT 53.305298 -3.011117 37,050 170 434 64
2018-12-13 15:40:58 GMT 53.311623 -3.012839 37,050 170 434 0
2018-12-13 15:40:55 GMT 53.316696 -3.014293 37,050 170 434 0
2018-12-13 15:40:52 GMT 53.322983 -3.016070 37,050 170 434 0
2018-12-13 15:40:49 GMT 53.328918 -3.017709 37,050 170 434 0
2018-12-13 15:40:46 GMT 53.334805 -3.019382 37,050 170 435 0
2018-12-13 15:40:43 GMT 53.340729 -3.021005 37,050 170 435 0
2018-12-13 15:40:40 GMT 53.352123 -3.024229 37,050 170 435 0
2018-12-13 15:40:34 GMT 53.360085 -3.026491 37,050 170 435 64
2018-12-13 15:40:31 GMT 53.365623 -3.028107 37,050 170 435 64
2018-12-13 15:40:28 GMT 53.371490 -3.029794 37,050 170 435 -64
2018-12-13 15:40:25 GMT 53.378517 -3.031823 37,050 170 435 128
2018-12-13 15:40:22 GMT 53.382893 -3.033034 37,050 170 436 0
2018-12-13 15:40:19 GMT 53.395157 -3.036621 37,025 170 436 0
2018-12-13 15:40:16 GMT 53.395157 -3.036621 37,050 170 436 -64
2018-12-13 15:40:13 GMT 53.399837 -3.037962 37,050 170 436 -64
2018-12-13 15:40:10 GMT 53.407013 -3.039917 37,050 170 435 0
2018-12-13 15:40:07 GMT 53.410400 -3.040937 37,050 170 435 -64
2018-12-13 15:40:04 GMT 53.418041 -3.043051 37,050 170 435 0
2018-12-13 15:40:01 GMT 53.424774 -3.044939 37,050 170 435 0
2018-12-13 15:39:58 GMT 53.429028 -3.046121 37,050 170 435 64
2018-12-13 15:39:55 GMT 53.434937 -3.047764 37,050 170 435 64
2018-12-13 15:39:52 GMT 53.443413 -3.050241 37,050 170 435 0
2018-12-13 15:39:49 GMT 53.449310 -3.051923 37,050 170 435 0
2018-12-13 15:39:46 GMT 53.452286 -3.052708 37,050 170 435 -64
2018-12-13 15:39:43 GMT 53.459473 -3.054749 37,050 170 435 -64
2018-12-13 15:39:40 GMT 53.466614 -3.056789 37,050 170 435 -64
2018-12-13 15:39:37 GMT 53.477207 -3.059773 37,050 170 435 0
2018-12-13 15:39:34 GMT 53.477207 -3.059773 37,050 170 435 0
2018-12-13 15:39:31 GMT 53.489872 -3.063408 37,050 170 434 0
2018-12-13 15:39:28 GMT 53.489872 -3.063408 37,025 170 434 64
2018-12-13 15:39:25 GMT 53.495689 -3.065024 37,050 170 434 128
2018-12-13 15:39:22 GMT 53.501221 -3.066598 37,050 170 428 0
2018-12-13 15:39:19 GMT 53.507561 -3.068417 37,050 170 434 128
2018-12-13 15:39:16 GMT 53.513008 -3.069952 37,025 170 434 64
2018-12-13 15:39:13 GMT 53.519714 -3.071856 37,025 170 434 64
2018-12-13 15:39:10 GMT 53.523949 -3.073102 37,025 170 433 64
2018-12-13 15:39:07 GMT 53.532421 -3.075526 37,025 170 433 0
2018-12-13 15:39:04 GMT 53.536564 -3.076737 37,000 170 433 64
2018-12-13 15:39:01 GMT 53.541172 -3.078111 37,000 170 433 64
2018-12-13 15:38:58 GMT 53.549606 -3.080488 37,000 170 433 128
2018-12-13 15:38:55 GMT 53.554230 -3.081822 37,000 170 433 64
2018-12-13 15:38:52 GMT 53.561325 -3.083862 36,975 170 433 64
2018-12-13 15:38:49 GMT 53.567963 -3.085746 37,000 170 433 64
2018-12-13 15:38:46 GMT 53.574409 -3.087562 36,975 170 433 0
2018-12-13 15:38:43 GMT 53.578972 -3.088774 36,975 170 433 0
2018-12-13 15:38:40 GMT 53.584511 -3.090389 36,975 170 432 0
2018-12-13 15:38:36 GMT 53.591171 -3.092259 36,975 170 432 0
2018-12-13 15:38:33 GMT 53.598709 -3.094429 36,975 170 432 64
2018-12-13 15:38:30 GMT 53.604156 -3.095963 37,000 170 431 0
2018-12-13 15:38:27 GMT 53.609650 -3.097498 36,975 170 431 0
2018-12-13 15:38:24 GMT 53.616302 -3.099400 37,000 170 430 0
2018-12-13 15:38:21 GMT 53.621754 -3.100891 36,975 170 431 0
2018-12-13 15:38:17 GMT 53.630035 -3.103245 36,975 170 430 0
2018-12-13 15:38:14 GMT 53.633881 -3.104344 36,975 170 430 0
2018-12-13 15:38:11 GMT 53.640514 -3.106303 36,975 170 430 0
2018-12-13 15:38:08 GMT 53.645123 -3.107596 36,950 170 425 -64
2018-12-13 15:38:05 GMT 53.653885 -3.110073 37,000 170 430 0
2018-12-13 15:38:02 GMT 53.658051 -3.111250 37,000 170 429 0
2018-12-13 15:37:59 GMT 53.664276 -3.113055 36,975 170 429 0
2018-12-13 15:37:56 GMT 53.671799 -3.115189 37,000 170 429 0
2018-12-13 15:37:53 GMT 53.676773 -3.116664 37,000 170 428 0
2018-12-13 15:37:50 GMT 53.680969 -3.117855 37,000 170 428 0
2018-12-13 15:37:47 GMT 53.689346 -3.120198 37,000 170 427 64
2018-12-13 15:37:44 GMT 53.694237 -3.121571 36,975 170 427 64
2018-12-13 15:37:41 GMT 53.700073 -3.123256 36,975 170 427 64
2018-12-13 15:37:38 GMT 53.706619 -3.125061 36,975 170 427 64
2018-12-13 15:37:35 GMT 53.710922 -3.126317 36,975 170 427 64
2018-12-13 15:37:32 GMT 53.716278 -3.127808 36,975 170 427 64
2018-12-13 15:37:29 GMT 53.724869 -3.130215 36,975 170 427 0
2018-12-13 15:37:26 GMT 53.727951 -3.131104 36,975 170 426 0
2018-12-13 15:37:23 GMT 53.735340 -3.133204 36,975 170 426 0
2018-12-13 15:37:20 GMT 53.740322 -3.134577 36,975 170 426 0
2018-12-13 15:37:17 GMT 53.745300 -3.135969 36,975 170 426 64
2018-12-13 15:37:14 GMT 53.751122 -3.137566 36,975 170 426 0
2018-12-13 15:37:11 GMT 53.765182 -3.141524 36,975 170 425 0
2018-12-13 15:37:08 GMT 53.765182 -3.141524 36,975 170 425 0
2018-12-13 15:37:05 GMT 53.769333 -3.142639 36,975 170 425 0
2018-12-13 15:37:02 GMT 53.773865 -3.143895 36,975 170 425 0
2018-12-13 15:36:59 GMT 53.781288 -3.145967 36,975 170 424 0
2018-12-13 15:36:56 GMT 53.786224 -3.147426 36,975 170 424 0
2018-12-13 15:36:53 GMT 53.793671 -3.149522 36,975 170 424 0
2018-12-13 15:36:50 GMT 53.799454 -3.151114 36,975 170 424 64
2018-12-13 15:36:47 GMT 53.804424 -3.152511 36,975 170 424 0
2018-12-13 15:36:43 GMT 53.818039 -3.156372 36,950 170 424 64
2018-12-13 15:36:40 GMT 53.818039 -3.156372 36,950 170 425 0
2018-12-13 15:36:37 GMT 53.824219 -3.158177 36,950 170 425 0
2018-12-13 15:36:34 GMT 53.834496 -3.161154 36,950 170 425 -64
2018-12-13 15:36:31 GMT 53.834496 -3.161154 36,950 170 425 -64
2018-12-13 15:36:28 GMT 53.841110 -3.163042 36,975 170 425 0
2018-12-13 15:36:24 GMT 53.850540 -3.165789 36,975 170 425 0
2018-12-13 15:36:21 GMT 53.854248 -3.166888 36,975 170 425 0
2018-12-13 15:36:18 GMT 53.862522 -3.169313 36,950 170 424 0
2018-12-13 15:36:15 GMT 53.866245 -3.170363 36,950 170 424 64
2018-12-13 15:36:12 GMT 53.878582 -3.173918 36,950 170 424 0
2018-12-13 15:36:06 GMT 53.883545 -3.175363 36,950 170 424 0
2018-12-13 15:36:03 GMT 53.888947 -3.176854 36,975 170 424 0
2018-12-13 15:36:00 GMT 53.897156 -3.179169 36,975 170 424 0
2018-12-13 15:35:56 GMT 53.902954 -3.180777 36,950 170 424 0
2018-12-13 15:35:53 GMT 53.909538 -3.182642 36,950 170 424 0
2018-12-13 15:35:50 GMT 53.913712 -3.183838 36,950 170 424 0
2018-12-13 15:35:47 GMT 53.920670 -3.185800 36,950 170 424 0
2018-12-13 15:35:44 GMT 53.925613 -3.187212 36,950 170 424 -64
2018-12-13 15:35:41 GMT 53.931419 -3.188863 36,975 170 425 -64
2018-12-13 15:35:38 GMT 53.937611 -3.190559 36,975 170 425 -64
2018-12-13 15:35:35 GMT 53.948318 -3.193629 36,975 170 425 -64
2018-12-13 15:35:29 GMT 53.954086 -3.195217 36,975 170 424 0
2018-12-13 15:35:26 GMT 53.961540 -3.197345 36,975 170 425 0
2018-12-13 15:35:22 GMT 53.969360 -3.199607 36,975 170 425 0
2018-12-13 15:35:19 GMT 53.974319 -3.201102 36,975 170 425 0
2018-12-13 15:35:16 GMT 53.980499 -3.202907 36,975 170 425 0
2018-12-13 15:35:13 GMT 53.987141 -3.204857 36,975 170 426 -64
2018-12-13 15:35:10 GMT 53.992496 -3.206311 36,975 170 426 -64
2018-12-13 15:35:07 GMT 53.997105 -3.207604 36,975 170 426 -64
2018-12-13 15:35:04 GMT 54.008286 -3.210754 36,975 170 426 64
2018-12-13 15:34:58 GMT 54.021469 -3.214521 36,975 170 426 64
2018-12-13 15:34:55 GMT 54.021469 -3.214521 36,975 170 426 64
2018-12-13 15:34:51 GMT 54.028156 -3.216490 36,975 170 427 0
2018-12-13 15:34:48 GMT 54.035614 -3.218602 36,975 170 427 -64
2018-12-13 15:34:45 GMT 54.039745 -3.219802 36,975 170 428 -64
2018-12-13 15:34:42 GMT 54.047615 -3.222145 37,000 170 428 -64
2018-12-13 15:34:39 GMT 54.058823 -3.225429 37,000 170 429 0
2018-12-13 15:34:36 GMT 54.058823 -3.225429 37,000 170 428 -128
2018-12-13 15:34:33 GMT 54.064697 -3.227153 37,000 170 428 -64
2018-12-13 15:34:30 GMT 54.069260 -3.228526 37,000 170 433 0
2018-12-13 15:34:27 GMT 54.074661 -3.230137 37,000 169 428 -64
2018-12-13 15:34:24 GMT 54.080887 -3.232021 37,000 170 429 0
2018-12-13 15:34:21 GMT 54.087616 -3.234061 37,000 170 429 0
2018-12-13 15:34:18 GMT 54.102539 -3.238377 37,000 170 430 0
2018-12-13 15:34:14 GMT 54.102539 -3.238377 37,000 170 430 0
2018-12-13 15:34:11 GMT 54.106384 -3.239476 37,000 170 434 0
2018-12-13 15:34:08 GMT 54.112610 -3.241281 37,000 170 431 0
2018-12-13 15:34:05 GMT 54.120094 -3.243390 37,000 170 431 0
2018-12-13 15:34:02 GMT 54.128895 -3.245975 37,000 170 432 0
2018-12-13 15:33:56 GMT 54.134766 -3.247637 37,000 170 433 64
2018-12-13 15:33:52 GMT 54.144058 -3.250305 37,000 170 433 64
2018-12-13 15:33:49 GMT 54.149517 -3.251872 37,000 170 433 64
2018-12-13 15:33:46 GMT 54.154964 -3.253488 37,000 170 434 0
2018-12-13 15:33:43 GMT 54.161636 -3.255406 37,000 170 434 0
2018-12-13 15:33:40 GMT 54.173908 -3.258981 37,000 170 434 0
2018-12-13 15:33:37 GMT 54.173908 -3.258981 37,000 170 434 0
2018-12-13 15:33:34 GMT 54.178940 -3.260507 37,000 170 434 -64
2018-12-13 15:33:31 GMT 54.186127 -3.262547 37,025 170 433 64
2018-12-13 15:33:28 GMT 54.192444 -3.264430 37,000 170 434 -128
2018-12-13 15:33:24 GMT 54.200817 -3.266898 37,000 170 433 0
2018-12-13 15:33:20 GMT 54.206726 -3.268590 37,025 170 433 0
2018-12-13 15:33:17 GMT 54.212643 -3.270371 37,025 170 433 0
2018-12-13 15:33:14 GMT 54.217201 -3.271745 37,025 170 433 0
2018-12-13 15:33:11 GMT 54.224762 -3.273926 37,025 170 433 64
2018-12-13 15:33:08 GMT 54.230656 -3.275703 37,000 170 433 64
2018-12-13 15:33:04 GMT 54.244995 -3.279890 37,000 170 433 64
2018-12-13 15:33:01 GMT 54.244995 -3.279890 37,000 170 433 64
2018-12-13 15:32:58 GMT 54.253654 -3.282489 37,000 170 433 64
2018-12-13 15:32:55 GMT 54.257565 -3.283620 37,000 170 433 64
2018-12-13 15:32:52 GMT 54.261333 -3.284751 37,000 170 434 64
2018-12-13 15:32:49 GMT 54.269386 -3.287093 37,000 170 433 64
2018-12-13 15:32:46 GMT 54.274475 -3.288600 37,000 170 433 64
2018-12-13 15:32:43 GMT 54.279446 -3.290072 37,000 170 433 64
2018-12-13 15:32:40 GMT 54.284500 -3.291617 37,000 170 433 0
2018-12-13 15:32:37 GMT 54.292850 -3.294067 37,000 170 432 -64
2018-12-13 15:32:34 GMT 54.299461 -3.295982 37,000 170 432 0
2018-12-13 15:32:31 GMT 54.304184 -3.297433 37,000 170 432 -64
2018-12-13 15:32:28 GMT 54.308807 -3.298807 37,000 170 431 0
2018-12-13 15:32:25 GMT 54.322598 -3.302807 37,000 170 430 64
2018-12-13 15:32:22 GMT 54.322598 -3.302807 37,000 170 430 64
2018-12-13 15:32:19 GMT 54.327999 -3.304471 37,000 170 429 64
2018-12-13 15:32:16 GMT 54.332611 -3.305754 37,000 170 428 64
2018-12-13 15:32:13 GMT 54.339294 -3.307693 37,000 170 428 64
2018-12-13 15:32:10 GMT 54.344238 -3.309147 37,000 170 427 64
2018-12-13 15:32:07 GMT 54.348816 -3.310520 37,000 170 426 0
2018-12-13 15:32:04 GMT 54.356209 -3.312711 37,000 170 424 -64
2018-12-13 15:32:01 GMT 54.362400 -3.314542 37,000 170 423 -128
2018-12-13 15:31:58 GMT 54.368179 -3.316255 37,000 170 422 -128
2018-12-13 15:31:55 GMT 54.373852 -3.317871 37,000 170 421 -64
2018-12-13 15:31:52 GMT 54.383286 -3.320618 36,925 170 418 128
2018-12-13 15:31:49 GMT 54.392120 -3.323203 37,000 170 417 256
2018-12-13 15:31:46 GMT 54.392120 -3.323203 37,000 170 417 320
2018-12-13 15:31:43 GMT 54.395081 -3.324030 37,000 170 417 320
2018-12-13 15:31:40 GMT 54.402760 -3.326194 36,975 170 416 576
2018-12-13 15:31:37 GMT 54.408417 -3.327888 36,925 170 416 896
2018-12-13 15:31:34 GMT 54.413280 -3.329274 36,925 170 416 896
2018-12-13 15:31:31 GMT 54.419724 -3.331200 36,850 170 416 1088
2018-12-13 15:31:28 GMT 54.424576 -3.332573 36,825 170 417 1024
2018-12-13 15:31:25 GMT 54.436707 -3.336209 36,700 170 417 832
2018-12-13 15:31:22 GMT 54.436707 -3.336209 36,700 170 417 960
2018-12-13 15:31:19 GMT 54.443588 -3.338262 36,650 170 417 960
2018-12-13 15:31:15 GMT 54.455738 -3.341841 36,575 170 417 1088
2018-12-13 15:31:12 GMT 54.455738 -3.341841 36,500 170 417 640
2018-12-13 15:31:08 GMT 54.464256 -3.344338 36,475 170 417 832
2018-12-13 15:31:05 GMT 54.469795 -3.346003 36,425 170 417 704
2018-12-13 15:31:02 GMT 54.474731 -3.347501 36,400 170 417 576
2018-12-13 15:30:57 GMT 54.484406 -3.350345 36,350 170 416 512
2018-12-13 15:30:53 GMT 54.496490 -3.353981 36,275 170 415 704
2018-12-13 15:30:47 GMT 54.503731 -3.356074 36,200 170 414 832
2018-12-13 15:30:44 GMT 54.507797 -3.357293 36,025 170 414 768
2018-12-13 15:30:41 GMT 54.513016 -3.358827 36,125 170 414 832
2018-12-13 15:30:38 GMT 54.519012 -3.360685 36,125 170 414 768
2018-12-13 15:30:34 GMT 54.527847 -3.363315 36,050 170 413 640
2018-12-13 15:30:31 GMT 54.533108 -3.364896 36,025 170 413 640
2018-12-13 15:30:27 GMT 54.541065 -3.367226 36,000 170 413 384
2018-12-13 15:30:24 GMT 54.544647 -3.368279 35,975 170 411 320
2018-12-13 15:30:21 GMT 54.552658 -3.370702 35,925 170 409 448
2018-12-13 15:30:18 GMT 54.560108 -3.372886 35,925 170 409 448
2018-12-13 15:30:14 GMT 54.563873 -3.374014 35,925 170 408 512
2018-12-13 15:30:11 GMT 54.569744 -3.375716 35,900 170 408 512
2018-12-13 15:30:08 GMT 54.577286 -3.377892 35,825 170 407 768
2018-12-13 15:30:05 GMT 54.580872 -3.378962 35,825 170 406 1152
2018-12-13 15:30:02 GMT 54.589462 -3.381446 35,750 170 406 1280
2018-12-13 15:29:59 GMT 54.593437 -3.382624 35,700 170 406 1536
2018-12-13 15:29:56 GMT 54.598160 -3.384031 35,650 170 406 1472
2018-12-13 15:29:52 GMT 54.604565 -3.385870 35,550 170 407 1536
2018-12-13 15:29:49 GMT 54.610016 -3.387505 35,350 170 409 704
2018-12-13 15:29:45 GMT 54.619461 -3.390281 35,350 170 409 1600
2018-12-13 15:29:42 GMT 54.623558 -3.391529 35,200 170 411 640
2018-12-13 15:29:39 GMT 54.628307 -3.392944 35,100 170 409 704
2018-12-13 15:29:36 GMT 54.634312 -3.394775 35,150 170 411 1152
2018-12-13 15:29:33 GMT 54.640640 -3.396633 35,075 170 411 896
2018-12-13 15:29:30 GMT 54.645435 -3.398105 35,000 170 411 768
2018-12-13 15:29:27 GMT 54.651398 -3.399936 34,950 170 411 640
2018-12-13 15:29:24 GMT 54.658192 -3.401933 34,950 170 411 640
2018-12-13 15:29:21 GMT 54.662521 -3.403265 34,900 170 410 640
2018-12-13 15:29:18 GMT 54.675278 -3.407010 34,875 170 409 704
2018-12-13 15:29:15 GMT 54.675278 -3.407010 34,725 170 407 1152
2018-12-13 15:29:12 GMT 54.678452 -3.408024 34,800 170 408 896
2018-12-13 15:29:09 GMT 54.685135 -3.409962 34,750 170 407 1088
2018-12-13 15:29:06 GMT 54.691910 -3.411982 34,675 170 407 1152
2018-12-13 15:29:03 GMT 54.702557 -3.415167 34,500 170 407 1152
2018-12-13 15:29:00 GMT 54.702557 -3.415167 34,575 170 407 1152
2018-12-13 15:28:57 GMT 54.708794 -3.416998 34,525 170 407 1152
2018-12-13 15:28:54 GMT 54.714066 -3.418606 33,850 170 408 1216
2018-12-13 15:28:51 GMT 54.718002 -3.419737 34,425 170 408 1216
2018-12-13 15:28:48 GMT 54.723083 -3.421272 34,350 170 408 1088
2018-12-13 15:28:45 GMT 54.730209 -3.423406 34,300 170 408 1152
2018-12-13 15:28:42 GMT 54.735374 -3.424988 34,250 170 408 1088
2018-12-13 15:28:39 GMT 54.740891 -3.426603 34,125 170 407 1088
2018-12-13 15:28:36 GMT 54.746796 -3.428381 34,100 170 408 1280
2018-12-13 15:28:33 GMT 54.753159 -3.430314 34,050 170 408 1344
2018-12-13 15:28:30 GMT 54.759476 -3.432177 33,950 170 408 1536
2018-12-13 15:28:27 GMT 54.761864 -3.432895 33,775 170 409 1472
2018-12-13 15:28:24 GMT 54.768173 -3.434762 33,725 170 409 1472
2018-12-13 15:28:21 GMT 54.774948 -3.436863 33,575 170 410 1472
2018-12-13 15:28:18 GMT 54.778904 -3.438055 33,175 170 410 1408
2018-12-13 15:28:15 GMT 54.785294 -3.439932 33,550 170 411 1280
2018-12-13 15:28:12 GMT 54.790821 -3.441634 33,525 170 411 1280
2018-12-13 15:28:08 GMT 54.798454 -3.443881 33,425 170 411 1408
2018-12-13 15:28:02 GMT 54.811443 -3.447793 33,125 170 412 1216
2018-12-13 15:27:58 GMT 54.817612 -3.449626 33,175 170 411 1344
2018-12-13 15:27:55 GMT 54.821960 -3.450919 33,075 170 412 1216
2018-12-13 15:27:52 GMT 54.827225 -3.452534 33,075 170 412 1216
2018-12-13 15:27:49 GMT 54.841469 -3.456782 32,950 170 413 1344
2018-12-13 15:27:46 GMT 54.841469 -3.456782 32,925 170 413 1472
2018-12-13 15:27:43 GMT 54.844772 -3.457780 32,825 170 413 1600
2018-12-13 15:27:40 GMT 54.850388 -3.459482 32,725 170 414 1920
2018-12-13 15:27:37 GMT 54.858414 -3.461942 32,675 170 414 1920
2018-12-13 15:27:34 GMT 54.862789 -3.463273 32,625 169 414 1984
2018-12-13 15:27:31 GMT 54.866886 -3.464439 32,525 170 415 2176
2018-12-13 15:27:28 GMT 54.873684 -3.466519 32,375 170 416 2240
2018-12-13 15:27:25 GMT 54.879734 -3.468350 32,175 169 418 2240
2018-12-13 15:27:22 GMT 54.884583 -3.469902 32,125 169 418 2240
2018-12-13 15:27:19 GMT 54.891884 -3.472096 32,025 169 419 2112
2018-12-13 15:27:16 GMT 54.896400 -3.473511 31,900 169 420 1856
2018-12-13 15:27:13 GMT 54.901661 -3.475092 31,825 169 420 1728
2018-12-13 15:27:10 GMT 54.907013 -3.476757 31,750 170 421 1600
2018-12-13 15:27:07 GMT 54.913513 -3.478708 31,625 169 421 1472
2018-12-13 15:27:04 GMT 54.919258 -3.480502 31,525 170 421 1408
2018-12-13 15:27:01 GMT 54.924957 -3.482262 31,450 170 421 1408
2018-12-13 15:26:58 GMT 54.932617 -3.484580 31,225 170 421 1408
2018-12-13 15:26:55 GMT 54.935970 -3.485579 31,350 170 421 1280
2018-12-13 15:26:52 GMT 54.941711 -3.487271 31,250 170 421 1408
2018-12-13 15:26:49 GMT 54.949097 -3.489491 31,200 170 421 1344
2018-12-13 15:26:46 GMT 54.953613 -3.490823 31,125 170 422 1216
2018-12-13 15:26:43 GMT 54.959335 -3.492521 31,075 170 422 1216
2018-12-13 15:26:40 GMT 54.965515 -3.494379 31,050 170 422 1152
2018-12-13 15:26:37 GMT 54.971535 -3.496149 30,950 170 420 960
2018-12-13 15:26:31 GMT 54.982590 -3.499388 30,850 170 419 704
2018-12-13 15:26:28 GMT 54.987503 -3.500810 30,850 170 418 640
2018-12-13 15:26:25 GMT 54.993210 -3.502458 30,675 170 413 512
2018-12-13 15:26:22 GMT 55.000492 -3.504555 30,775 170 417 576
2018-12-13 15:26:19 GMT 55.007767 -3.506658 30,750 170 415 512
2018-12-13 15:26:13 GMT 55.024521 -3.511505 30,700 170 413 512
2018-12-13 15:26:10 GMT 55.024521 -3.511505 30,600 170 411 576
2018-12-13 15:26:07 GMT 55.028236 -3.512629 30,625 170 409 640
2018-12-13 15:26:04 GMT 55.033405 -3.514127 30,600 170 408 640
2018-12-13 15:26:01 GMT 55.040131 -3.516110 30,600 170 408 640
2018-12-13 15:25:58 GMT 55.045322 -3.517706 30,500 169 405 640
2018-12-13 15:25:55 GMT 55.057571 -3.521522 30,475 169 405 640
2018-12-13 15:25:51 GMT 55.057571 -3.521522 30,450 169 404 640
2018-12-13 15:25:48 GMT 55.062653 -3.523138 30,400 168 399 1280
2018-12-13 15:25:45 GMT 55.069565 -3.525400 30,400 169 402 704
2018-12-13 15:25:42 GMT 55.073952 -3.526861 30,350 168 400 896
2018-12-13 15:25:39 GMT 55.079407 -3.528712 30,300 168 399 1152
2018-12-13 15:25:35 GMT 55.086685 -3.531297 30,225 168 399 1472
2018-12-13 15:25:31 GMT 55.094742 -3.534205 30,125 168 398 1472
2018-12-13 15:25:28 GMT 55.099602 -3.535933 30,025 168 398 1600
2018-12-13 15:25:25 GMT 55.104347 -3.537598 29,950 168 398 1664
2018-12-13 15:25:22 GMT 55.110867 -3.539928 29,900 168 397 1920
2018-12-13 15:25:19 GMT 55.115055 -3.541426 29,825 168 392 2112
2018-12-13 15:25:16 GMT 55.119736 -3.543091 29,775 168 398 1920
2018-12-13 15:25:13 GMT 55.130814 -3.547049 29,575 168 399 1664
2018-12-13 15:25:07 GMT 55.136581 -3.549149 29,425 168 392 1152
2018-12-13 15:25:04 GMT 55.142010 -3.551081 29,375 168 398 1280
2018-12-13 15:25:00 GMT 55.156952 -3.556324 29,275 168 396 704
2018-12-13 15:24:56 GMT 55.156952 -3.556324 29,225 168 396 704
2018-12-13 15:24:53 GMT 55.161144 -3.557739 29,200 168 394 704
2018-12-13 15:24:50 GMT 55.169430 -3.560652 29,050 168 393 1024
2018-12-13 15:24:47 GMT 55.171463 -3.561428 29,125 168 392 1152
2018-12-13 15:24:44 GMT 55.185677 -3.566395 28,950 168 390 1984
2018-12-13 15:24:41 GMT 55.185677 -3.566395 28,900 168 390 2048
2018-12-13 15:24:35 GMT 55.199734 -3.571389 28,700 168 392 2048
2018-12-13 15:24:29 GMT 55.213623 -3.576373 28,475 168 392 1856
2018-12-13 15:24:25 GMT 55.213623 -3.576373 27,675 168 385 1024
2018-12-13 15:24:22 GMT 55.222504 -3.579604 28,175 168 391 1472
2018-12-13 15:24:19 GMT 55.227768 -3.581462 28,125 168 391 1216
2018-12-13 15:24:16 GMT 55.233810 -3.583624 28,125 168 391 1216
2018-12-13 15:24:13 GMT 55.233810 -3.583624 28,075 168 390 1216
2018-12-13 15:24:10 GMT 55.241272 -3.586228 28,025 168 390 1280
2018-12-13 15:24:07 GMT 55.243973 -3.587198 28,000 168 389 1216
2018-12-13 15:24:04 GMT 55.249603 -3.589217 27,775 168 388 1152
2018-12-13 15:24:01 GMT 55.253769 -3.590671 27,875 168 388 1152
2018-12-13 15:23:58 GMT 55.260178 -3.593014 27,800 168 387 1152
2018-12-13 15:23:55 GMT 55.265030 -3.594710 27,725 168 386 1088
2018-12-13 15:23:51 GMT 55.271393 -3.596972 27,700 168 386 1024
2018-12-13 15:23:48 GMT 55.277336 -3.599104 27,625 168 384 1024
2018-12-13 15:23:45 GMT 55.284321 -3.601601 27,550 168 383 1024
2018-12-13 15:23:41 GMT 55.289906 -3.603599 27,450 168 380 1344
2018-12-13 15:23:37 GMT 55.295059 -3.605454 27,450 168 381 1280
2018-12-13 15:23:34 GMT 55.301010 -3.607555 27,350 168 379 1408
2018-12-13 15:23:31 GMT 55.306850 -3.609675 27,000 168 379 1408
2018-12-13 15:23:27 GMT 55.313042 -3.611839 27,125 168 377 1472
2018-12-13 15:23:23 GMT 55.320679 -3.614585 27,075 168 377 1536
2018-12-13 15:23:20 GMT 55.325474 -3.616333 27,000 168 376 1472
2018-12-13 15:23:17 GMT 55.330173 -3.617998 26,925 168 376 1472
2018-12-13 15:23:14 GMT 55.336990 -3.620480 26,750 168 375 1472
2018-12-13 15:23:11 GMT 55.342163 -3.622338 26,775 168 375 1472
2018-12-13 15:23:08 GMT 55.352657 -3.626071 26,650 168 374 1472
2018-12-13 15:23:04 GMT 55.352657 -3.626071 26,600 168 374 1472
2018-12-13 15:23:01 GMT 55.359501 -3.628568 26,525 168 373 1408
2018-12-13 15:22:57 GMT 55.370636 -3.632597 26,375 168 371 1472
2018-12-13 15:22:54 GMT 55.370636 -3.632597 26,325 168 371 1472
2018-12-13 15:22:51 GMT 55.379612 -3.635809 26,200 168 368 1408
2018-12-13 15:22:45 GMT 55.391602 -3.640110 26,150 168 369 1280
2018-12-13 15:22:42 GMT 55.391602 -3.640110 26,100 168 368 1344
2018-12-13 15:22:39 GMT 55.393162 -3.640636 26,050 168 368 1344
2018-12-13 15:22:36 GMT 55.399536 -3.642967 25,975 168 367 1408
2018-12-13 15:22:33 GMT 55.406158 -3.645280 25,875 168 366 1536
2018-12-13 15:22:30 GMT 55.409500 -3.646462 25,825 168 366 1536
2018-12-13 15:22:27 GMT 55.417511 -3.649319 25,700 168 364 1600
2018-12-13 15:22:24 GMT 55.418610 -3.649723 25,675 168 364 1600
2018-12-13 15:22:21 GMT 55.424606 -3.651904 25,625 168 364 1600
2018-12-13 15:22:18 GMT 55.428120 -3.653121 25,525 168 363 1472
2018-12-13 15:22:15 GMT 55.438595 -3.656949 25,375 168 361 1472
2018-12-13 15:22:12 GMT 55.444508 -3.659048 25,275 168 360 1472
2018-12-13 15:22:08 GMT 55.444508 -3.659048 25,275 168 359 1536
2018-12-13 15:22:05 GMT 55.450466 -3.661194 25,050 168 355 1536
2018-12-13 15:22:02 GMT 55.455231 -3.662942 24,825 168 357 1600
2018-12-13 15:21:59 GMT 55.461452 -3.665228 25,000 168 357 1600
2018-12-13 15:21:54 GMT 55.467316 -3.667353 24,950 168 356 1536
2018-12-13 15:21:51 GMT 55.473816 -3.669767 24,800 168 354 1472
2018-12-13 15:21:48 GMT 55.476906 -3.670893 24,575 168 347 2496
2018-12-13 15:21:44 GMT 55.484447 -3.673639 24,625 168 352 1472
2018-12-13 15:21:40 GMT 55.490173 -3.675699 24,525 168 351 1536
2018-12-13 15:21:37 GMT 55.495949 -3.677759 24,450 168 350 1664
2018-12-13 15:21:34 GMT 55.506050 -3.681364 24,300 168 348 1984
2018-12-13 15:21:31 GMT 55.509075 -3.682480 24,225 168 347 2176
2018-12-13 15:21:24 GMT 55.515839 -3.684914 24,100 168 347 2304
2018-12-13 15:21:21 GMT 55.522202 -3.687162 23,900 168 347 2496
2018-12-13 15:21:18 GMT 55.525555 -3.688316 23,800 168 348 2560
2018-12-13 15:21:14 GMT 55.532581 -3.690891 23,650 168 348 2688
2018-12-13 15:21:11 GMT 55.537006 -3.692436 20,500 168 352 2752
2018-12-13 15:21:06 GMT 55.543755 -3.694839 23,250 168 351 3008
2018-12-13 15:21:03 GMT 55.550877 -3.697414 23,025 168 353 3136
2018-12-13 15:20:57 GMT 55.563541 -3.702049 22,675 168 356 3328
2018-12-13 15:20:54 GMT 55.563541 -3.702049 22,600 168 358 3264
2018-12-13 15:20:51 GMT 55.568436 -3.703807 22,275 168 359 2752
2018-12-13 15:20:47 GMT 55.574982 -3.706138 22,275 168 360 2624
2018-12-13 15:20:44 GMT 55.580532 -3.708229 22,075 168 360 2752
2018-12-13 15:20:41 GMT 55.586334 -3.710299 21,750 168 363 2304
2018-12-13 15:20:38 GMT 55.589905 -3.711631 21,800 168 362 2752
2018-12-13 15:20:35 GMT 55.595474 -3.713722 21,650 168 362 2560
2018-12-13 15:20:32 GMT 55.598316 -3.714752 21,550 168 362 2496
2018-12-13 15:20:29 GMT 55.609131 -3.718706 21,325 168 363 2176
2018-12-13 15:20:26 GMT 55.609131 -3.718706 21,350 168 362 1728
2018-12-13 15:20:23 GMT 55.614796 -3.720760 21,275 168 362 1472
2018-12-13 15:20:20 GMT 55.618973 -3.722284 21,150 168 352 2624
2018-12-13 15:20:16 GMT 55.625221 -3.724537 21,100 168 358 1408
2018-12-13 15:20:12 GMT 55.631413 -3.726854 21,025 168 357 1600
2018-12-13 15:20:09 GMT 55.635864 -3.728443 20,925 168 355 1792
2018-12-13 15:20:06 GMT 55.641701 -3.730631 20,825 168 354 1984
2018-12-13 15:20:02 GMT 55.649754 -3.733549 20,675 168 353 2240
2018-12-13 15:19:59 GMT 55.651611 -3.734186 20,225 168 353 2496
2018-12-13 15:19:55 GMT 55.664188 -3.738785 20,325 168 352 2560
2018-12-13 15:19:52 GMT 55.664188 -3.738785 20,275 168 352 2624
2018-12-13 15:19:49 GMT 55.668274 -3.740262 19,725 168 352 2752
2018-12-13 15:19:45 GMT 55.681503 -3.745136 19,900 168 352 2752
2018-12-13 15:19:42 GMT 55.681503 -3.745136 19,800 168 352 2688
2018-12-13 15:19:39 GMT 55.684891 -3.746338 19,725 168 352 2752
2018-12-13 15:19:36 GMT 55.689697 -3.748140 19,475 168 349 2368
2018-12-13 15:19:33 GMT 55.694073 -3.749771 19,450 168 352 2432
2018-12-13 15:19:30 GMT 55.699844 -3.751917 19,325 168 352 2368
2018-12-13 15:19:27 GMT 55.702240 -3.752747 19,200 168 351 2368
2018-12-13 15:19:24 GMT 55.708328 -3.755077 19,075 168 351 2368
2018-12-13 15:19:21 GMT 55.716751 -3.758157 18,650 168 350 2432
2018-12-13 15:19:15 GMT 55.729294 -3.762734 18,625 168 349 2368
2018-12-13 15:19:11 GMT 55.729294 -3.762734 18,550 168 349 2432
2018-12-13 15:19:08 GMT 55.733318 -3.764191 18,375 168 348 2496
2018-12-13 15:19:04 GMT 55.739693 -3.766508 18,200 169 347 2304
2018-12-13 15:19:01 GMT 55.744720 -3.768225 18,075 169 347 2304
2018-12-13 15:18:58 GMT 55.751331 -3.770542 18,025 169 346 2176
2018-12-13 15:18:55 GMT 55.754471 -3.771557 17,900 169 344 2112
2018-12-13 15:18:52 GMT 55.758499 -3.772945 17,750 169 340 2112
2018-12-13 15:18:48 GMT 55.764786 -3.775005 17,675 169 342 2240
2018-12-13 15:18:45 GMT 55.770466 -3.776894 17,525 169 341 2112
2018-12-13 15:18:41 GMT 55.776627 -3.778964 17,450 169 340 2112
2018-12-13 15:18:38 GMT 55.782383 -3.780842 17,275 169 339 2176
2018-12-13 15:18:34 GMT 55.787315 -3.782473 17,175 169 337 2304
2018-12-13 15:18:30 GMT 55.792877 -3.784291 17,025 169 337 2432
2018-12-13 15:18:24 GMT 55.801620 -3.787204 16,750 169 336 2688
2018-12-13 15:18:21 GMT 55.807522 -3.789167 16,625 169 336 2688
2018-12-13 15:18:17 GMT 55.814037 -3.791227 16,450 172 337 2624
2018-12-13 15:18:12 GMT 55.821304 -3.792614 16,150 178 337 2624
2018-12-13 15:18:06 GMT 55.829632 -3.792601 16,075 183 337 2624
2018-12-13 15:18:02 GMT 55.841080 -3.789784 15,675 195 338 2240
2018-12-13 15:17:59 GMT 55.846905 -3.787107 15,550 198 338 1984
2018-12-13 15:17:55 GMT 55.846905 -3.787107 15,550 198 338 1984
2018-12-13 15:17:52 GMT 55.856277 -3.780795 15,425 204 337 1728
2018-12-13 15:17:49 GMT 55.856277 -3.780795 15,350 207 337 1856
2018-12-13 15:17:46 GMT 55.865021 -3.772306 15,250 213 338 2304
2018-12-13 15:17:43 GMT 55.865021 -3.772306 15,125 216 339 2560
2018-12-13 15:17:39 GMT 55.871578 -3.763504 14,950 220 340 2624
2018-12-13 15:17:36 GMT 55.872929 -3.761444 14,850 224 342 2368
2018-12-13 15:17:33 GMT 55.876141 -3.756123 14,750 228 343 1984
2018-12-13 15:17:30 GMT 55.879120 -3.750286 14,650 230 342 1792
2018-12-13 15:17:27 GMT 55.882797 -3.742476 14,550 231 340 2048
2018-12-13 15:17:23 GMT 55.886429 -3.734751 14,425 231 336 2432
2018-12-13 15:17:19 GMT 55.890518 -3.726113 14,300 230 334 3136
2018-12-13 15:17:15 GMT 55.895645 -3.715439 13,975 230 333 3648
2018-12-13 15:17:10 GMT 55.900810 -3.704796 13,650 230 334 3968
2018-12-13 15:17:07 GMT 55.902767 -3.700762 13,525 230 336 4096
2018-12-13 15:17:03 GMT 55.905807 -3.694486 13,325 230 337 4032
2018-12-13 15:17:00 GMT 55.909657 -3.686514 13,075 230 338 3712
2018-12-13 15:16:57 GMT 55.913727 -3.678006 12,825 230 339 3520
2018-12-13 15:16:54 GMT 55.914871 -3.675676 12,650 230 339 3584
2018-12-13 15:16:51 GMT 55.918579 -3.667935 12,575 230 339 3584
2018-12-13 15:16:48 GMT 55.921829 -3.661194 12,375 230 339 3584
2018-12-13 15:16:45 GMT 55.924877 -3.654842 12,200 230 339 3392
2018-12-13 15:16:42 GMT 55.928089 -3.648062 12,000 230 338 3072
2018-12-13 15:16:39 GMT 55.930931 -3.642225 11,850 230 337 2816
2018-12-13 15:16:36 GMT 55.933723 -3.636389 11,650 230 333 2048
2018-12-13 15:16:32 GMT 55.938263 -3.626903 11,550 230 333 2048
2018-12-13 15:16:29 GMT 55.940613 -3.622055 11,425 230 330 1664
2018-12-13 15:16:26 GMT 55.943985 -3.615085 11,325 230 325 1408
2018-12-13 15:16:22 GMT 55.947830 -3.607095 11,275 230 324 1408
2018-12-13 15:16:19 GMT 55.952858 -3.596649 11,175 230 317 1472
2018-12-13 15:16:14 GMT 55.958397 -3.585148 11,025 230 309 1344
2018-12-13 15:16:08 GMT 55.965797 -3.569698 10,850 230 299 1088
2018-12-13 15:16:04 GMT 55.967522 -3.566179 10,850 230 299 1088
2018-12-13 15:16:01 GMT 55.967522 -3.566179 10,750 230 276 0
2018-12-13 15:15:58 GMT 55.970406 -3.560257 10,750 230 292 1088
2018-12-13 15:15:55 GMT 55.972641 -3.555575 10,650 230 287 1216
2018-12-13 15:15:51 GMT 55.976486 -3.547502 10,600 230 282 1600
2018-12-13 15:15:48 GMT 55.981522 -3.536932 10,425 230 277 2304
2018-12-13 15:15:45 GMT 55.985023 -3.529530 10,250 230 276 2816
2018-12-13 15:15:41 GMT 55.985023 -3.529530 10,250 230 274 3136
2018-12-13 15:15:38 GMT 55.986935 -3.525496 10,125 230 274 3200
2018-12-13 15:15:35 GMT 55.989716 -3.519620 9,725 231 274 3008
2018-12-13 15:15:31 GMT 55.993031 -3.512535 9,725 231 274 2944
2018-12-13 15:15:27 GMT 55.996445 -3.505221 9,600 231 273 2816
2018-12-13 15:15:23 GMT 55.999222 -3.499317 9,350 231 270 2752
2018-12-13 15:15:19 GMT 56.002434 -3.492365 9,250 231 270 2752
2018-12-13 15:15:16 GMT 56.006927 -3.482333 8,950 233 268 2624
2018-12-13 15:15:13 GMT 56.006927 -3.482333 8,900 233 268 2624
2018-12-13 15:15:09 GMT 56.012352 -3.468933 8,650 237 269 2496
2018-12-13 15:15:06 GMT 56.015190 -3.459835 8,375 244 269 2752
2018-12-13 15:14:58 GMT 56.018356 -3.446703 8,075 249 271 3136
2018-12-13 15:14:55 GMT 56.018356 -3.446703 7,950 249 270 3072
2018-12-13 15:14:49 GMT 56.022591 -3.428764 7,675 245 267 2560
2018-12-13 15:14:46 GMT 56.022591 -3.428764 7,600 245 266 2496
2018-12-13 15:14:43 GMT 56.025387 -3.418980 7,450 242 263 2240
2018-12-13 15:14:39 GMT 56.028763 -3.408508 7,275 240 258 1920
2018-12-13 15:14:35 GMT 56.028763 -3.408508 7,225 238 256 1920
2018-12-13 15:14:32 GMT 56.030777 -3.402849 7,125 237 254 1920
2018-12-13 15:14:29 GMT 56.032654 -3.398021 7,000 234 250 1792
2018-12-13 15:14:25 GMT 56.035400 -3.391363 6,875 232 244 1472
2018-12-13 15:14:22 GMT 56.037815 -3.386021 6,825 231 240 1152
2018-12-13 15:14:19 GMT 56.039818 -3.381815 6,750 230 235 1152
2018-12-13 15:14:16 GMT 56.042049 -3.377094 6,650 230 229 1280
2018-12-13 15:14:13 GMT 56.044563 -3.371859 6,550 230 226 1344
2018-12-13 15:14:09 GMT 56.046986 -3.366709 6,525 232 222 1344
2018-12-13 15:14:05 GMT 56.049454 -3.361151 6,425 236 219 1408
2018-12-13 15:14:02 GMT 56.052013 -3.354177 6,325 241 216 1792
2018-12-13 15:13:59 GMT 56.052658 -3.352162 6,150 244 216 2112
2018-12-13 15:13:56 GMT 56.054016 -3.347397 5,625 255 219 2688
2018-12-13 15:13:51 GMT 56.055458 -3.339329 5,950 261 221 3008
2018-12-13 15:13:48 GMT 56.055954 -3.334684 5,650 266 223 3200
2018-12-13 15:13:45 GMT 56.056156 -3.328857 5,650 272 227 3520
2018-12-13 15:13:42 GMT 56.056019 -3.322420 4,375 285 237 3904
2018-12-13 15:13:38 GMT 56.054806 -3.312807 5,175 289 241 3968
2018-12-13 15:13:34 GMT 56.053829 -3.307915 4,950 293 244 4032
2018-12-13 15:13:31 GMT 56.052612 -3.303139 4,750 301 251 3968
2018-12-13 15:13:27 GMT 56.049595 -3.294954 4,400 310 258 3840
2018-12-13 15:13:24 GMT 56.047775 -3.291092 4,275 315 261 3712
2018-12-13 15:13:21 GMT 56.045029 -3.286200 4,125 319 263 3584
2018-12-13 15:13:17 GMT 56.040848 -3.280667 3,825 331 267 3008
2018-12-13 15:13:14 GMT 56.038139 -3.277702 3,675 335 267 2752
2018-12-13 15:13:10 GMT 56.033581 -3.274012 3,500 348 264 1984
2018-12-13 15:13:05 GMT 56.021660 -3.269892 3,150 0 257 2048
2018-12-13 15:13:00 GMT 56.021660 -3.269892 3,150 0 257 2048
2018-12-13 15:12:57 GMT 56.017845 -3.269978 3,025 7 251 2368
2018-12-13 15:12:54 GMT 56.014343 -3.270680 2,900 10 249 2432
2018-12-13 15:12:50 GMT 56.010258 -3.272209 2,750 18 244 2496
2018-12-13 15:12:47 GMT 56.006195 -3.274841 2,275 43 182 1600
2018-12-13 15:12:44 GMT 56.003319 -3.277531 2,450 30 235 2240
2018-12-13 15:12:40 GMT 56.000198 -3.281084 2,325 37 228 2048
2018-12-13 15:12:34 GMT 55.995220 -3.288345 2,150 40 223 1856
2018-12-13 15:12:29 GMT 55.991592 -3.293984 1,975 41 217 1344
2018-12-13 15:12:25 GMT 55.987633 -3.300190 1,875 41 206 1024
2018-12-13 15:12:21 GMT 55.985779 -3.303139 1,775 41 201 1088
2018-12-13 15:12:18 GMT 55.983395 -3.306885 1,775 41 201 1088
2018-12-13 15:12:14 GMT 55.979874 -3.312461 1,675 41 194 1088
2018-12-13 15:12:09 GMT 55.976505 -3.317785 1,600 41 188 1280
2018-12-13 15:12:03 GMT 55.973419 -3.322865 1,450 43 180 1472
2018-12-13 15:11:58 GMT 55.970627 -3.327609 1,325 43 177 1536
2018-12-13 15:11:53 GMT 55.966778 -3.334351 1,200 44 166 1280
2018-12-13 15:07:48 GMT 55.945572 -3.379819 0 239 26

Making use of Plane Finder data

You are free to use the raw flight data, aircraft information and images provided in this report for your own purposes provided the data is correctly attributed to Plane Finder. We ask that you please credit Plane Finder and link to planefinder.net in close proximity to the content.

Optionally one of the following logos (no smaller then 150x24px) can be used and must link to planefinder.net

Embedding the Plane Finder map

You are welcome to embed the Plane Finder playback map on your website to offer visitors a more interactive experience. We suggest using the following HTML code:

<iframe src="//planefinder.net/data/report/U26995-G-EZDF-7700-squawk-2018-12-13/map" width="800" height="600" seamless="seamless"></iframe>

Where our data comes from

Plane Finder has a global network of data feeds and antenna radars that receive data broadcast directly from aircraft. The primary technologies used are ADS-B and MLAT. We also show feeds from the FAA and a FLARM glider feed.

Click here to find out more about the Plane Finder network.

How we collect our data